Provisional Data: Sterling Run near Sterling Run, PA


Please select a monitoring station.
Please select start date.
Please select start date.

<
Toggle Unit: C/F Toggle Unit: C/F
Sample Time Temperature (C) Temperature (F) Specific Conductivity (mS/cm) pH   Turbidity (NTU+) DO (mg/L)
9/6/2021 12:00:00 AM 16.37 61.466 0.077 6.62 11.75 9.25
9/6/2021 12:15:00 AM 16.35 61.43 0.076 6.62 10.78 9.26
9/6/2021 12:30:00 AM 16.33 61.394 0.076 6.62 11.1 9.26
9/6/2021 12:45:00 AM 16.31 61.358 0.074 6.63 10.92 9.26
9/6/2021 1:00:00 AM 16.28 61.304 0.075 6.62 11.76 9.27
9/6/2021 1:15:00 AM 16.26 61.268 0.075 6.62 16.13 9.26
9/6/2021 1:30:00 AM 16.23 61.214 0.075 6.61 12.53 9.27
9/6/2021 1:45:00 AM 16.2 61.16 0.076 6.63 12.3 9.28
9/6/2021 2:00:00 AM 16.17 61.106 0.076 6.64 11.92 9.29
9/6/2021 2:15:00 AM 16.14 61.052 0.076 6.64 11.63 9.29
9/6/2021 2:30:00 AM 16.11 60.998 0.076 6.63 11.56 9.29
9/6/2021 2:45:00 AM 16.08 60.944 0.076 6.64 12.08 9.3
9/6/2021 3:00:00 AM 16.05 60.89 0.076 6.58 12.61 9.31
9/6/2021 3:15:00 AM 16.03 60.854 0.074 6.62 12.85 9.3
9/6/2021 3:30:00 AM 16 60.8 0.071 6.6 12.41 9.31
9/6/2021 3:45:00 AM 15.97 60.746 0.064 6.63 11.6 9.31
9/6/2021 4:00:00 AM 15.95 60.71 0.059 6.64 10.06 9.32
9/6/2021 4:15:00 AM 15.92 60.656 0.059 6.62 9.66 9.33
9/6/2021 4:30:00 AM 15.9 60.62 0.052 6.6 11.57 9.33
9/6/2021 4:45:00 AM 15.87 60.566 0.053 6.61 12.79 9.34
9/6/2021 5:00:00 AM 15.85 60.53 0.06 6.61 13.6 9.35
9/6/2021 5:15:00 AM 15.82 60.476 0.056 6.61 12.39 9.34
9/6/2021 5:30:00 AM 15.79 60.422 0.053 6.6 13.97 9.35
9/6/2021 5:45:00 AM 15.74 60.332 0.055 6.62 13.19 9.36
9/6/2021 6:00:00 AM 15.7 60.26 0.066 6.62 11.96 9.36
9/6/2021 6:15:00 AM 15.66 60.188 0.076 6.61 17.14 9.37
9/6/2021 6:30:00 AM 15.61 60.098 0.03 6.6 11.28 9.38
9/6/2021 6:45:00 AM 15.57 60.026 0.034 6.59 11.22 9.4
9/6/2021 7:00:00 AM 15.54 59.972 0.038 6.59 9.48 9.42
9/6/2021 7:15:00 AM 15.53 59.954 0.037 6.6 9.5 9.44
9/6/2021 7:30:00 AM 15.52 59.936 0.038 6.61 9.01 9.5
9/6/2021 7:45:00 AM 15.52 59.936 0.041 6.61 9.16 9.51
9/6/2021 8:00:00 AM 15.52 59.936 0.076 6.63 8.91 9.55
9/6/2021 8:15:00 AM 15.51 59.918 0.076 6.63 8.46 9.56
9/6/2021 8:30:00 AM 15.5 59.9 0.076 6.65 11.14 9.59
9/6/2021 8:45:00 AM 15.51 59.918 0.076 6.65 36.47 9.6
9/6/2021 9:00:00 AM 15.54 59.972 0.076 6.67 12.1 9.68
9/6/2021 9:15:00 AM 15.59 60.062 0.074 6.69 19.68 9.69
9/6/2021 9:30:00 AM 15.69 60.242 0.075 6.68 14.26 9.71
9/6/2021 9:45:00 AM 15.81 60.458 0.076 6.73 11.76 9.72
9/6/2021 10:00:00 AM 15.92 60.656 0.076 6.7 23.74 9.73
9/6/2021 10:15:00 AM 16.05 60.89 0.076 6.7 23.26 9.72
9/6/2021 10:30:00 AM 16.2 61.16 0.075 6.7 22.68 9.72
9/6/2021 10:45:00 AM 16.36 61.448 0.075 6.73 23.14 9.7
9/6/2021 11:00:00 AM 16.51 61.718 0.075 6.73 24.29 9.68
9/6/2021 11:15:00 AM 16.65 61.97 0.075 6.73 24.29 9.65
9/6/2021 11:30:00 AM 16.76 62.168 0.075 6.75 21.7 9.65
9/6/2021 11:45:00 AM 16.75 62.15 0.072 6.73 19.77 9.63
9/6/2021 12:00:00 PM 16.88 62.384 0.075 6.73 19.53 9.61
9/6/2021 12:15:00 PM 17.02 62.636 0.075 6.73 19.6 9.58
9/6/2021 12:30:00 PM 17.04 62.672 0.075 6.76 21.67 9.57
9/6/2021 12:45:00 PM 17.28 63.104 0.075 6.73 22.72 9.54
9/6/2021 1:00:00 PM 17.38 63.284 0.075 6.77 19.35 9.55
9/6/2021 1:15:00 PM 17.54 63.572 0.075 6.73 21.36 9.52
9/6/2021 1:30:00 PM 17.39 63.302 0.075 6.76 14.03 9.49
9/6/2021 1:45:00 PM 17.56 63.608 0.075 6.77 12.3 9.47
9/6/2021 2:00:00 PM 17.61 63.698 0.075 6.77 11.78 9.44
9/6/2021 2:15:00 PM 17.7 63.86 0.075 6.76 11.3 9.43
9/6/2021 2:30:00 PM 17.79 64.022 0.075 6.77 11.74 9.43
9/6/2021 2:45:00 PM 17.75 63.95 0.075 6.77 12.36 9.4
9/6/2021 3:00:00 PM 17.67 63.806 0.075 6.76 11.85 9.4
9/6/2021 3:15:00 PM 17.84 64.112 0.075 6.76 9.84 9.39
9/6/2021 3:30:00 PM 17.72 63.896 0.075 6.79 18.25 9.37
9/6/2021 3:45:00 PM 17.76 63.968 0.075 6.76 17.57 9.37
9/6/2021 4:00:00 PM 17.64 63.752 0.074 6.76 14.39 9.38
9/6/2021 4:15:00 PM 17.59 63.662 0.075 6.78 15.22 9.36
9/6/2021 4:30:00 PM 17.49 63.482 0.075 6.74 17.19 9.34
9/6/2021 4:45:00 PM 17.4 63.32 0.075 6.76 15.04 9.33
9/6/2021 5:00:00 PM 17.33 63.194 0.075 6.76 16.29 9.31
9/6/2021 5:15:00 PM 17.28 63.104 0.075 6.73 30.78 9.3
9/6/2021 5:30:00 PM 17.24 63.032 0.075 6.73 14.86 9.29
9/6/2021 5:45:00 PM 17.19 62.942 0.076 6.7 17.75 9.28
9/6/2021 6:00:00 PM 17.13 62.834 0.076 6.69 16.75 9.26
9/6/2021 6:15:00 PM 17.08 62.744 0.075 6.69 20.91 9.25
9/6/2021 6:30:00 PM 17.03 62.654 0.076 6.7 28.82 9.25
9/6/2021 6:45:00 PM 16.99 62.582 0.076 6.68 18.87 9.25
9/6/2021 7:00:00 PM 16.93 62.474 0.075 6.67 23.97 9.24
9/6/2021 7:15:00 PM 16.87 62.366 0.073 6.66 19.45 9.22
9/6/2021 7:30:00 PM 16.81 62.258 0.076 6.79 31.19 9.2
9/6/2021 7:45:00 PM 16.75 62.15 0.075 6.83 11.94 9.19
9/6/2021 8:00:00 PM 16.68 62.024 0.076 6.83 13.25 9.17
9/6/2021 8:15:00 PM 16.62 61.916 0.072 6.83 11.41 9.16
9/6/2021 8:30:00 PM 16.55 61.79 0.071 6.82 11.3 9.17
9/6/2021 8:45:00 PM 16.48 61.664 0.071 6.82 11.36 9.18
9/6/2021 9:00:00 PM 16.41 61.538 0.071 6.81 11.28 9.2
9/6/2021 9:15:00 PM 16.34 61.412 0.071 6.81 11.34 9.2
9/6/2021 9:30:00 PM 16.28 61.304 0.071 6.83 11.31 9.22
9/6/2021 9:45:00 PM 16.22 61.196 0.071 6.8 11.26 9.23
9/6/2021 10:00:00 PM 16.14 61.052 0.07 6.81 17.93 9.24
9/6/2021 10:15:00 PM 16.07 60.926 0.07 6.8 11.34 9.26
9/6/2021 10:30:00 PM 16 60.8 0.071 6.8 11.22 9.26
9/6/2021 10:45:00 PM 15.94 60.692 0.07 6.8 11.17 9.28
9/6/2021 11:00:00 PM 15.88 60.584 0.07 6.8 11.16 9.3
9/6/2021 11:15:00 PM 15.81 60.458 0.07 6.79 11.13 9.31
9/6/2021 11:30:00 PM 15.75 60.35 0.07 6.79 11.13 9.32
9/6/2021 11:45:00 PM 15.68 60.224 0.07 6.79 11.09 9.33
9/7/2021 12:00:00 AM 15.62 60.116 0.07 6.78 11.11 9.34
9/7/2021 12:15:00 AM 15.55 59.99 0.07 6.78 11.08 9.36
9/7/2021 12:30:00 AM 15.49 59.882 0.07 6.81 11.02 9.37
9/7/2021 12:45:00 AM 15.44 59.792 0.07 6.78 11.02 9.38
9/7/2021 1:00:00 AM 15.38 59.684 0.072 6.8 11.09 9.4
9/7/2021 1:15:00 AM 15.33 59.594 0.074 6.76 11.05 9.41
9/7/2021 1:30:00 AM 15.28 59.504 0.076 6.77 12.23 9.41
9/7/2021 1:45:00 AM 15.24 59.432 0.076 6.77 11.27 9.44
9/7/2021 2:00:00 AM 15.2 59.36 0.074 6.78 11.08 9.44
9/7/2021 2:15:00 AM 15.15 59.27 0.076 6.76 11.03 9.45
9/7/2021 2:30:00 AM 15.1 59.18 0.076 6.78 13.71 9.46
9/7/2021 2:45:00 AM 15.05 59.09 0.076 6.75 10.57 9.47
9/7/2021 3:00:00 AM 14.99 58.982 0.076 6.75 10.59 9.49
9/7/2021 3:15:00 AM 14.94 58.892 0.076 6.75 11.49 9.5
9/7/2021 3:30:00 AM 14.9 58.82 0.076 6.75 11.44 9.52
9/7/2021 3:45:00 AM 14.86 58.748 0.076 6.75 11.34 9.52
9/7/2021 4:00:00 AM 14.82 58.676 0.076 6.74 11.51 9.54
9/7/2021 4:15:00 AM 14.77 58.586 0.076 6.74 11.32 9.53
9/7/2021 4:30:00 AM 14.73 58.514 0.076 6.75 11.34 9.56
9/7/2021 4:45:00 AM 14.69 58.442 0.076 6.74 11.11 9.55
9/7/2021 5:00:00 AM 14.65 58.37 0.076 6.78 11.62 9.58
9/7/2021 5:15:00 AM 14.62 58.316 0.076 6.76 11.13 9.58
9/7/2021 5:30:00 AM 14.58 58.244 0.076 6.75 11.03 9.58
9/7/2021 5:45:00 AM 14.55 58.19 0.076 6.79 11.57 9.58
9/7/2021 6:00:00 AM 14.51 58.118 0.065 6.75 12.91 9.6
9/7/2021 6:15:00 AM 14.47 58.046 0.076 6.76 10.69 9.61
9/7/2021 6:30:00 AM 14.44 57.992 0.076 6.74 12.17 9.61
9/7/2021 6:45:00 AM 14.42 57.956 0.075 6.75 11.09 9.63
9/7/2021 7:00:00 AM 14.39 57.902 0.076 6.76 12.3 9.65
9/7/2021 7:15:00 AM 14.36 57.848 0.075 6.79 15.47 9.67
9/7/2021 7:30:00 AM 14.34 57.812 0.071 6.79 15.15 9.7
9/7/2021 7:45:00 AM 14.34 57.812 0.073 6.76 10.86 9.74
9/7/2021 8:00:00 AM 14.33 57.794 0.073 6.78 10.97 9.78
9/7/2021 8:15:00 AM 14.33 57.794 0.073 6.79 10.67 9.82
9/7/2021 8:30:00 AM 14.34 57.812 0.073 6.8 10.57 9.86
9/7/2021 8:45:00 AM 14.34 57.812 0.073 6.81 10.51 9.9
9/7/2021 9:00:00 AM 14.35 57.83 0.072 6.81 10.46 9.93
9/7/2021 9:15:00 AM 14.37 57.866 0.072 6.82 10.43 9.96
9/7/2021 9:30:00 AM 14.4 57.92 0.072 6.83 10.43 10
9/7/2021 9:45:00 AM 14.47 58.046 0.072 6.84 10.45 10.06
9/7/2021 10:00:00 AM 14.55 58.19 0.072 6.86 10.4 10.08
9/7/2021 10:15:00 AM 14.78 58.604 0.072 6.86 10.34 10.08
9/7/2021 10:30:00 AM 14.96 58.928 0.072 6.87 10.36 10.04
9/7/2021 10:45:00 AM 15.17 59.306 0.072 6.87 10.34 10.01
9/7/2021 11:00:00 AM 15.36 59.648 0.072 6.86 10.32 9.97
9/7/2021 11:15:00 AM 15.54 59.972 0.072 6.85 10.3 9.95
9/7/2021 11:30:00 AM 15.73 60.314 0.072 6.86 10.23 9.91
9/7/2021 11:45:00 AM 15.9 60.62 0.072 6.85 10.17 9.88
9/7/2021 12:00:00 PM 16.11 60.998 0.073 6.86 10.1 9.83
9/7/2021 12:15:00 PM 16.28 61.304 0.073 6.87 10.08 9.8
9/7/2021 12:30:00 PM 16.43 61.574 0.073 6.87 10.07 9.78
9/7/2021 12:45:00 PM 16.62 61.916 0.073 6.87 10.05 9.72
9/7/2021 1:00:00 PM 16.74 62.132 0.073 6.88 10.03 9.68
9/7/2021 1:15:00 PM 16.87 62.366 0.073 6.88 10.01 9.66
9/7/2021 1:30:00 PM 16.98 62.564 0.073 6.9 10.01 9.65
9/7/2021 1:45:00 PM 16.94 62.492 0.073 6.88 10.06 9.63
9/7/2021 2:00:00 PM 17.13 62.834 0.073 6.89 10.06 9.6
9/7/2021 2:15:00 PM 17.25 63.05 0.073 6.88 10.01 9.58
9/7/2021 2:30:00 PM 17.1 62.78 0.073 6.89 10.03 9.55
9/7/2021 2:45:00 PM 17.27 63.086 0.073 6.9 10.04 9.54
9/7/2021 3:00:00 PM 17.41 63.338 0.073 6.88 10 9.49
9/7/2021 3:15:00 PM 17.36 63.248 0.073 6.89 9.99 9.47
9/7/2021 3:30:00 PM 17.34 63.212 0.073 6.88 10 9.46
9/7/2021 3:45:00 PM 17.39 63.302 0.073 6.89 10 9.47
9/7/2021 4:00:00 PM 17.35 63.23 0.073 6.88 10.01 9.45
9/7/2021 4:15:00 PM 17.35 63.23 0.074 6.9 10.01 9.43
9/7/2021 4:30:00 PM 17.27 63.086 0.074 6.87 10.02 9.4
9/7/2021 4:45:00 PM 17.15 62.87 0.074 6.86 10.03 9.38
9/7/2021 5:00:00 PM 17.06 62.708 0.074 6.87 10 9.37
9/7/2021 5:15:00 PM 17.03 62.654 0.074 6.85 10.04 9.33
9/7/2021 5:30:00 PM 16.99 62.582 0.074 6.85 10.07 9.32
9/7/2021 5:45:00 PM 16.97 62.546 0.074 6.85 10.21 9.34
9/7/2021 6:00:00 PM 16.94 62.492 0.074 6.83 10.09 9.33
9/7/2021 6:15:00 PM 16.9 62.42 0.074 6.83 10.07 9.31
9/7/2021 6:30:00 PM 16.88 62.384 0.074 6.81 10.04 9.28
9/7/2021 6:45:00 PM 16.84 62.312 0.074 6.81 10.07 9.27
9/7/2021 7:00:00 PM 16.81 62.258 0.074 6.8 10.09 9.26
9/7/2021 7:15:00 PM 16.78 62.204 0.074 6.78 10.06 9.21
9/7/2021 7:30:00 PM 16.73 62.114 0.074 6.77 10.12 9.19
9/7/2021 7:45:00 PM 16.68 62.024 0.074 6.77 10.09 9.16
9/7/2021 8:00:00 PM 16.64 61.952 0.075 6.77 10.1 9.13
9/7/2021 8:15:00 PM 16.6 61.88 0.075 6.75 10.14 9.13
9/7/2021 8:30:00 PM 16.56 61.808 0.075 6.74 10.03 9.12
9/7/2021 8:45:00 PM 16.53 61.754 0.075 6.73 10.06 9.12
9/7/2021 9:00:00 PM 16.51 61.718 0.075 6.73 10.08 9.1
9/7/2021 9:15:00 PM 16.49 61.682 0.075 6.73 10.05 9.12
9/7/2021 9:30:00 PM 16.45 61.61 0.075 6.75 10.04 9.14
9/7/2021 9:45:00 PM 16.42 61.556 0.075 6.73 10.06 9.14
9/7/2021 10:00:00 PM 16.39 61.502 0.075 6.72 10.03 9.14
9/7/2021 10:15:00 PM 16.35 61.43 0.075 6.71 10.07 9.15
9/7/2021 10:30:00 PM 16.3 61.34 0.075 6.72 9.99 9.15
9/7/2021 10:45:00 PM 16.27 61.286 0.075 6.72 10.09 9.16
9/7/2021 11:00:00 PM 16.24 61.232 0.076 6.72 10.05 9.15
9/7/2021 11:15:00 PM 16.21 61.178 0.075 6.72 10.1 9.16
9/7/2021 11:30:00 PM 16.18 61.124 0.076 6.72 10.02 9.16
9/7/2021 11:45:00 PM 16.16 61.088 0.076 6.72 9.98 9.12
9/8/2021 12:00:00 AM 16.13 61.034 0.075 6.71 10.07 9.15
9/8/2021 12:15:00 AM 16.1 60.98 0.075 6.72 10.07 9.18
9/8/2021 12:30:00 AM 16.07 60.926 0.075 6.72 10.06 9.19
9/8/2021 12:45:00 AM 16.05 60.89 0.075 6.72 10.01 9.17
9/8/2021 1:00:00 AM 16.02 60.836 0.075 6.72 9.94 9.19
9/8/2021 1:15:00 AM 15.99 60.782 0.075 6.72 9.91 9.19
9/8/2021 1:30:00 AM 15.96 60.728 0.076 6.71 9.93 9.19
9/8/2021 1:45:00 AM 15.93 60.674 0.075 6.71 9.91 9.2
9/8/2021 2:00:00 AM 15.9 60.62 0.075 6.71 9.93 9.21
9/8/2021 2:15:00 AM 15.87 60.566 0.075 6.72 9.99 9.21
9/8/2021 2:30:00 AM 15.84 60.512 0.075 6.74 10.09 9.23
9/8/2021 2:45:00 AM 15.82 60.476 0.075 6.7 10.08 9.23
9/8/2021 3:00:00 AM 15.79 60.422 0.075 6.71 10.12 9.23
9/8/2021 3:15:00 AM 15.76 60.368 0.075 6.72 10.14 9.24
9/8/2021 3:30:00 AM 15.73 60.314 0.075 6.71 10.18 9.24
9/8/2021 3:45:00 AM 15.7 60.26 0.075 6.71 10.18 9.24
9/8/2021 4:00:00 AM 15.67 60.206 0.075 6.71 9.76 9.25
9/8/2021 4:15:00 AM 15.66 60.188 0.075 6.71 9.72 9.25
9/8/2021 4:30:00 AM 15.64 60.152 0.075 6.71 10.09 9.27
9/8/2021 4:45:00 AM 15.61 60.098 0.075 6.72 9.74 9.26
9/8/2021 5:00:00 AM 15.57 60.026 0.075 6.71 9.71 9.27
9/8/2021 5:15:00 AM 15.55 59.99 0.075 6.71 9.75 9.26
9/8/2021 5:30:00 AM 15.52 59.936 0.075 6.71 9.71 9.29
9/8/2021 5:45:00 AM 15.5 59.9 0.075 6.71 9.73 9.28
9/8/2021 6:00:00 AM 15.48 59.864 0.075 6.71 9.72 9.29
9/8/2021 6:15:00 AM 15.46 59.828 0.075 6.71 9.72 9.29
9/8/2021 6:30:00 AM 15.44 59.792 0.075 6.73 9.7 9.3
9/8/2021 6:45:00 AM 15.42 59.756 0.075 6.7 9.73 9.29
9/8/2021 7:00:00 AM 15.4 59.72 0.075 6.71 9.74 9.3
9/8/2021 7:15:00 AM 15.38 59.684 0.075 6.72 9.76 9.35
9/8/2021 7:30:00 AM 15.37 59.666 0.075 6.75 9.75 9.38
9/8/2021 7:45:00 AM 15.37 59.666 0.075 6.74 9.78 9.45
9/8/2021 8:00:00 AM 15.38 59.684 0.075 6.75 9.75 9.53
9/8/2021 8:15:00 AM 15.43 59.774 0.075 6.76 9.73 9.58
9/8/2021 8:30:00 AM 15.46 59.828 0.075 6.77 9.81 9.61
9/8/2021 8:45:00 AM 15.5 59.9 0.075 6.79 9.74 9.66
9/8/2021 9:00:00 AM 15.57 60.026 0.075 6.79 9.73 9.69
9/8/2021 9:15:00 AM 15.63 60.134 0.075 6.81 9.71 9.73
9/8/2021 9:30:00 AM 15.71 60.278 0.075 6.81 9.75 9.74
9/8/2021 9:45:00 AM 15.83 60.494 0.075 6.83 9.72 9.77
9/8/2021 10:00:00 AM 16.03 60.854 0.075 6.83 9.72 9.76
9/8/2021 10:15:00 AM 16.16 61.088 0.075 6.84 9.74 9.77
9/8/2021 10:30:00 AM 16.3 61.34 0.075 6.87 9.71 9.77
9/8/2021 10:45:00 AM 16.39 61.502 0.074 6.87 9.71 9.75
9/8/2021 11:00:00 AM 16.47 61.646 0.074 6.87 9.74 9.72
9/8/2021 11:15:00 AM 16.59 61.862 0.075 6.87 9.72 9.72
9/8/2021 11:30:00 AM 16.83 62.294 0.075 6.89 9.68 9.71
9/8/2021 11:45:00 AM 16.99 62.582 0.075 6.88 9.73 9.66
9/8/2021 12:00:00 PM 17.17 62.906 0.075 6.9 9.64 9.64
9/8/2021 12:15:00 PM 17.29 63.122 0.075 6.89 9.61 9.62
9/8/2021 12:30:00 PM 17.23 63.014 0.074 6.89 9.61 9.55
9/8/2021 12:45:00 PM 17.08 62.744 0.075 6.88 9.65 9.44
9/8/2021 1:00:00 PM 17 62.6 0.075 6.85 9.7 9.34
9/8/2021 1:15:00 PM 16.95 62.51 0.075 6.81 9.72 9.23
9/8/2021 1:30:00 PM 16.95 62.51 0.074 6.85 10.15 9.28
9/8/2021 1:45:00 PM 16.94 62.492 0.074 6.84 9.96 9.31
9/8/2021 2:00:00 PM 16.93 62.474 0.074 6.82 9.81 9.35
9/8/2021 2:15:00 PM 16.93 62.474 0.074 6.83 9.75 9.41
9/8/2021 2:30:00 PM 16.91 62.438 0.074 6.85 9.74 9.43
9/8/2021 2:45:00 PM 16.9 62.42 0.074 6.85 9.69 9.45
9/8/2021 3:00:00 PM 16.88 62.384 0.074 6.83 9.72 9.43
9/8/2021 3:15:00 PM 16.87 62.366 0.075 6.84 9.7 9.45
9/8/2021 3:30:00 PM 16.9 62.42 0.075 6.84 9.73 9.46
9/8/2021 3:45:00 PM 16.95 62.51 0.075 6.89 9.69 9.52
9/8/2021 4:00:00 PM 16.93 62.474 0.075 6.85 9.69 9.49
9/8/2021 4:15:00 PM 16.9 62.42 0.075 6.87 9.68 9.48
9/8/2021 4:30:00 PM 16.89 62.402 0.075 6.87 9.7 9.5
9/8/2021 4:45:00 PM 16.92 62.456 0.075 6.86 9.67 9.49
9/8/2021 5:00:00 PM 16.92 62.456 0.075 6.87 9.72 9.5
9/8/2021 5:15:00 PM 16.93 62.474 0.075 6.85 9.72 9.44
9/8/2021 5:30:00 PM 16.9 62.42 0.075 6.87 9.69 9.45
9/8/2021 5:45:00 PM 16.89 62.402 0.075 6.86 9.7 9.43
9/8/2021 6:00:00 PM 16.84 62.312 0.075 6.84 9.73 9.39
9/8/2021 6:15:00 PM 16.82 62.276 0.075 6.84 9.71 9.4
9/8/2021 6:30:00 PM 16.81 62.258 0.075 6.84 9.74 9.4
9/8/2021 6:45:00 PM 16.79 62.222 0.075 6.85 9.74 9.37
9/8/2021 7:00:00 PM 16.76 62.168 0.075 6.86 9.77 9.36
9/8/2021 7:15:00 PM 16.73 62.114 0.075 6.82 9.83 9.29
9/8/2021 7:30:00 PM 16.7 62.06 0.075 6.79 9.83 9.22
9/8/2021 7:45:00 PM 16.64 61.952 0.075 6.78 9.87 9.18
9/8/2021 8:00:00 PM 16.6 61.88 0.075 6.78 9.86 9.15
9/8/2021 8:15:00 PM 16.57 61.826 0.076 6.74 9.87 9.12
9/8/2021 8:30:00 PM 16.53 61.754 0.076 6.74 9.9 9.12
9/8/2021 8:45:00 PM 16.5 61.7 0.076 6.74 9.88 9.12
9/8/2021 9:00:00 PM 16.48 61.664 0.076 6.74 9.94 9.13
9/8/2021 9:15:00 PM 16.45 61.61 0.076 6.75 9.89 9.1
9/8/2021 9:30:00 PM 16.45 61.61 0.076 6.74 9.95 9.12
9/8/2021 9:45:00 PM 16.44 61.592 0.076 6.74 9.88 9.13
9/8/2021 10:00:00 PM 16.42 61.556 0.076 6.74 9.92 9.13
9/8/2021 10:15:00 PM 16.42 61.556 0.077 6.73 9.91 9.1
9/8/2021 10:30:00 PM 16.39 61.502 0.076 6.74 9.93 9.14
9/8/2021 10:45:00 PM 16.38 61.484 0.076 6.73 9.95 9.12
9/8/2021 11:00:00 PM 16.37 61.466 0.076 6.74 9.92 9.13
9/8/2021 11:15:00 PM 16.35 61.43 0.076 6.74 9.94 9.13
9/8/2021 11:30:00 PM 16.33 61.394 0.076 6.74 9.91 9.14
9/8/2021 11:45:00 PM 16.31 61.358 0.076 6.75 9.91 9.16
9/9/2021 12:00:00 AM 16.3 61.34 0.076 6.74 9.93 9.15
9/9/2021 12:15:00 AM 16.29 61.322 0.077 6.74 9.91 9.14
9/9/2021 12:30:00 AM 16.26 61.268 0.076 6.73 9.94 9.15
9/9/2021 12:45:00 AM 16.23 61.214 0.076 6.76 9.94 9.16
9/9/2021 1:00:00 AM 16.22 61.196 0.076 6.72 9.91 9.16
9/9/2021 1:15:00 AM 16.21 61.178 0.077 6.74 9.91 9.15
9/9/2021 1:30:00 AM 16.2 61.16 0.076 6.74 9.91 9.16
9/9/2021 1:45:00 AM 16.19 61.142 0.076 6.76 9.89 9.17
9/9/2021 2:00:00 AM 16.18 61.124 0.076 6.74 9.88 9.16
9/9/2021 2:15:00 AM 16.18 61.124 0.077 6.72 9.89 9.16
9/9/2021 2:30:00 AM 16.16 61.088 0.076 6.73 9.93 9.17
9/9/2021 2:45:00 AM 16.15 61.07 0.076 6.74 9.94 9.17
9/9/2021 3:00:00 AM 16.14 61.052 0.076 6.73 9.96 9.17
9/9/2021 3:15:00 AM 16.12 61.016 0.076 6.75 9.9 9.17
9/9/2021 3:30:00 AM 16.11 60.998 0.076 6.73 9.91 9.17
9/9/2021 3:45:00 AM 16.1 60.98 0.076 6.74 9.91 9.19
9/9/2021 4:00:00 AM 16.09 60.962 0.076 6.73 9.95 9.18
9/9/2021 4:15:00 AM 16.09 60.962 0.076 6.72 9.98 9.18
9/9/2021 4:30:00 AM 16.07 60.926 0.076 6.72 9.97 9.19
9/9/2021 4:45:00 AM 16.07 60.926 0.076 6.72 10.01 9.18
9/9/2021 5:00:00 AM 16.06 60.908 0.076 6.72 9.97 9.2
9/9/2021 5:15:00 AM 16.05 60.89 0.076 6.72 9.97 9.19
9/9/2021 5:30:00 AM 16.04 60.872 0.076 6.71 9.92 9.17
9/9/2021 5:45:00 AM 16.04 60.872 0.076 6.72 9.95 9.19
9/9/2021 6:00:00 AM 16.03 60.854 0.076 6.72 9.88 9.18
9/9/2021 6:15:00 AM 16.02 60.836 0.076 6.72 9.98 9.18
9/9/2021 6:30:00 AM 16.01 60.818 0.076 6.75 9.9 9.18
9/9/2021 6:45:00 AM 16 60.8 0.076 6.74 9.98 9.19
9/9/2021 7:00:00 AM 16 60.8 0.076 6.72 9.97 9.2
9/9/2021 7:15:00 AM 16 60.8 0.076 6.75 9.96 9.2
9/9/2021 7:30:00 AM 15.99 60.782 0.076 6.73 9.97 9.21
9/9/2021 7:45:00 AM 15.96 60.728 0.076 6.74 9.94 9.24
9/9/2021 8:00:00 AM 15.94 60.692 0.076 6.76 9.9 9.27
9/9/2021 8:15:00 AM 15.94 60.692 0.076 6.73 9.98 9.29
9/9/2021 8:30:00 AM 15.96 60.728 0.076 6.75 9.97 9.32
9/9/2021 8:45:00 AM 15.99 60.782 0.076 6.76 9.97 9.4
9/9/2021 9:00:00 AM 16 60.8 0.076 6.79 9.96 9.44
9/9/2021 9:15:00 AM 16.03 60.854 0.076 6.79 9.96 9.5
9/9/2021 9:30:00 AM 16.11 60.998 0.076 6.79 9.97 9.55
9/9/2021 9:45:00 AM 16.22 61.196 0.076 6.84 9.96 9.61
9/9/2021 10:00:00 AM 16.34 61.412 0.076 6.82 9.93 9.61
9/9/2021 10:15:00 AM 16.47 61.646 0.076 6.83 9.95 9.61
9/9/2021 10:30:00 AM 16.58 61.844 0.076 6.83 9.95 9.59
9/9/2021 10:45:00 AM 16.67 62.006 0.076 6.85 9.88 9.61
9/9/2021 11:00:00 AM 16.82 62.276 0.076 6.85 9.92 9.61
9/9/2021 11:15:00 AM 16.86 62.348 0.076 6.83 9.9 9.53
9/9/2021 11:30:00 AM 16.74 62.132 0.076 6.84 9.87 9.52
9/9/2021 11:45:00 AM 16.65 61.97 0.076 6.84 9.89 9.52
9/9/2021 12:00:00 PM 16.65 61.97 0.076 6.83 9.92 9.51
9/9/2021 12:15:00 PM 16.81 62.258 0.076 6.85 9.9 9.57
9/9/2021 12:30:00 PM 17.07 62.726 0.076 6.86 9.92 9.56
9/9/2021 12:45:00 PM 17.19 62.942 0.076 6.88 9.91 9.56
9/9/2021 1:00:00 PM 17.4 63.32 0.076 6.85 9.92 9.54
9/9/2021 1:15:00 PM 17.65 63.77 0.076 6.87 9.93 9.55
9/9/2021 1:30:00 PM 17.48 63.464 0.076 6.87 9.91 9.48
9/9/2021 1:45:00 PM 17.35 63.23 0.076 6.9 9.9 9.49
9/9/2021 2:00:00 PM 17.48 63.464 0.076 6.87 9.93 9.48
9/9/2021 2:15:00 PM 17.68 63.824 0.075 6.89 9.89 9.45
9/9/2021 2:30:00 PM 17.8 64.04 0.075 6.88 9.91 9.41
9/9/2021 2:45:00 PM 17.89 64.202 0.075 6.88 9.86 9.38
9/9/2021 3:00:00 PM 17.73 63.914 0.075 6.9 9.88 9.38
9/9/2021 3:15:00 PM 17.76 63.968 0.075 6.92 9.9 9.39
9/9/2021 3:30:00 PM 17.76 63.968 0.075 6.87 9.96 9.36
9/9/2021 3:45:00 PM 17.61 63.698 0.075 6.89 9.96 9.37
9/9/2021 4:00:00 PM 17.65 63.77 0.075 6.89 9.93 9.38
9/9/2021 4:15:00 PM 17.61 63.698 0.075 6.89 9.95 9.34
9/9/2021 4:30:00 PM 17.54 63.572 0.076 6.89 9.94 9.33
9/9/2021 4:45:00 PM 17.44 63.392 0.076 6.87 9.95 9.29
9/9/2021 5:00:00 PM 17.34 63.212 0.076 6.86 9.99 9.27
9/9/2021 5:15:00 PM 17.27 63.086 0.076 6.85 10 9.25
9/9/2021 5:30:00 PM 17.25 63.05 0.076 6.84 9.97 9.26
9/9/2021 5:45:00 PM 17.22 62.996 0.076 6.84 9.99 9.25
9/9/2021 6:00:00 PM 17.18 62.924 0.076 6.84 10.03 9.25
9/9/2021 6:15:00 PM 17.14 62.852 0.076 6.84 9.99 9.23
9/9/2021 6:30:00 PM 17.1 62.78 0.076 6.84 9.97 9.2
9/9/2021 6:45:00 PM 17.05 62.69 0.076 6.82 10.03 9.17
9/9/2021 7:00:00 PM 16.98 62.564 0.076 6.8 10.01 9.15
9/9/2021 7:15:00 PM 16.91 62.438 0.076 6.8 9.95 9.11
9/9/2021 7:30:00 PM 16.84 62.312 0.076 6.79 9.99 9.08
9/9/2021 7:45:00 PM 16.77 62.186 0.076 6.77 10 9.05
9/9/2021 8:00:00 PM 16.7 62.06 0.076 6.78 10.03 9.03
9/9/2021 8:15:00 PM 16.63 61.934 0.076 6.75 10 9.03
9/9/2021 8:30:00 PM 16.56 61.808 0.077 6.76 10.06 9.04
9/9/2021 8:45:00 PM 16.5 61.7 0.077 6.75 10 9.04
9/9/2021 9:00:00 PM 16.43 61.574 0.076 6.76 10.06 9.05
9/9/2021 9:15:00 PM 16.36 61.448 0.077 6.75 10.05 9.06
9/9/2021 9:30:00 PM 16.29 61.322 0.077 6.75 10.07 9.07
9/9/2021 9:45:00 PM 16.22 61.196 0.077 6.75 10.17 9.09
9/9/2021 10:00:00 PM 16.15 61.07 0.077 6.75 9.99 9.09
9/9/2021 10:15:00 PM 16.08 60.944 0.077 6.76 10.06 9.11
9/9/2021 10:30:00 PM 16.02 60.836 0.077 6.73 10.08 9.1
9/9/2021 10:45:00 PM 15.96 60.728 0.077 6.74 10.13 9.13
9/9/2021 11:00:00 PM 15.89 60.602 0.077 6.77 10.12 9.14
9/9/2021 11:15:00 PM 15.82 60.476 0.077 6.73 10.08 9.16
9/9/2021 11:30:00 PM 15.76 60.368 0.077 6.73 10.03 9.16
9/9/2021 11:45:00 PM 15.7 60.26 0.077 6.74 9.95 9.18
9/10/2021 12:00:00 AM 15.65 60.17 0.077 6.74 9.89 9.22
9/10/2021 12:15:00 AM 15.62 60.116 0.077 6.75 9.84 9.2
9/10/2021 12:30:00 AM 15.56 60.008 0.077 6.74 9.91 9.22
9/10/2021 12:45:00 AM 15.53 59.954 0.077 6.74 9.85 9.23
9/10/2021 1:00:00 AM 15.5 59.9 0.077 6.73 9.88 9.24
9/10/2021 1:15:00 AM 15.46 59.828 0.077 6.73 9.88 9.26
9/10/2021 1:30:00 AM 15.44 59.792 0.077 6.73 9.95 9.25
9/10/2021 1:45:00 AM 15.4 59.72 0.076 6.73 9.95 9.26
9/10/2021 2:00:00 AM 15.37 59.666 0.076 6.73 9.96 9.27
9/10/2021 2:15:00 AM 15.34 59.612 0.076 6.73 9.94 9.28
9/10/2021 2:30:00 AM 15.31 59.558 0.076 6.74 9.95 9.28
9/10/2021 2:45:00 AM 15.28 59.504 0.076 6.71 10.01 9.3
9/10/2021 3:00:00 AM 15.25 59.45 0.076 6.72 10.06 9.31
9/10/2021 3:15:00 AM 15.24 59.432 0.076 6.72 10.04 9.29
9/10/2021 3:30:00 AM 15.21 59.378 0.076 6.73 10.09 9.33
9/10/2021 3:45:00 AM 15.16 59.288 0.076 6.72 10.07 9.32
9/10/2021 4:00:00 AM 15.11 59.198 0.076 6.72 10.1 9.32
9/10/2021 4:15:00 AM 15.07 59.126 0.076 6.71 10.08 9.33
9/10/2021 4:30:00 AM 15.02 59.036 0.076 6.73 10.04 9.33
9/10/2021 4:45:00 AM 14.98 58.964 0.076 6.71 10.03 9.35
9/10/2021 5:00:00 AM 14.93 58.874 0.076 6.72 10.06 9.37
9/10/2021 5:15:00 AM 14.88 58.784 0.076 6.72 10.07 9.39
9/10/2021 5:30:00 AM 14.84 58.712 0.076 6.72 10.08 9.38
9/10/2021 5:45:00 AM 14.78 58.604 0.076 6.72 10.06 9.4
9/10/2021 6:00:00 AM 14.75 58.55 0.076 6.72 10.13 9.4
9/10/2021 6:15:00 AM 14.73 58.514 0.076 6.72 10.13 9.42
9/10/2021 6:30:00 AM 14.7 58.46 0.076 6.74 10.2 9.44
9/10/2021 6:45:00 AM 14.64 58.352 0.076 6.74 10.13 9.44
9/10/2021 7:00:00 AM 14.59 58.262 0.076 6.74 10.12 9.46
9/10/2021 7:15:00 AM 14.56 58.208 0.076 6.71 10.09 9.5
9/10/2021 7:30:00 AM 14.51 58.118 0.076 6.73 10.14 9.54
9/10/2021 7:45:00 AM 14.48 58.064 0.076 6.74 10.18 9.59
9/10/2021 8:00:00 AM 14.47 58.046 0.076 6.76 10.16 9.66
9/10/2021 8:15:00 AM 14.52 58.136 0.076 6.79 10.09 9.76
9/10/2021 8:30:00 AM 14.52 58.136 0.075 6.77 10.14 9.79
9/10/2021 8:45:00 AM 14.52 58.136 0.075 6.8 10.12 9.81
9/10/2021 9:00:00 AM 14.58 58.244 0.075 6.8 10.06 9.86
9/10/2021 9:15:00 AM 14.66 58.388 0.075 6.81 10.11 9.87
9/10/2021 9:30:00 AM 14.8 58.64 0.075 6.81 10.04 9.88
9/10/2021 9:45:00 AM 14.96 58.928 0.075 6.82 10.04 9.88
9/10/2021 10:00:00 AM 15.13 59.234 0.075 6.87 10.03 9.92
9/10/2021 10:15:00 AM 15.27 59.486 0.075 6.87 10.04 9.92
9/10/2021 10:30:00 AM 15.42 59.756 0.075 6.85 10.09 9.9
9/10/2021 10:45:00 AM 15.53 59.954 0.075 6.86 10.07 9.87
9/10/2021 11:00:00 AM 15.56 60.008 0.075 6.85 10.08 9.85
9/10/2021 11:15:00 AM 15.81 60.458 0.075 6.86 10.05 9.85
9/10/2021 11:30:00 AM 15.99 60.782 0.075 6.86 10 9.81
9/10/2021 11:45:00 AM 16.17 61.106 0.075 6.86 9.98 9.77
9/10/2021 12:00:00 PM 16.29 61.322 0.076 6.82 10.02 9.72
9/10/2021 12:15:00 PM 16.43 61.574 0.076 6.83 9.95 9.71
9/10/2021 12:30:00 PM 16.49 61.682 0.075 6.84 9.93 9.65
9/10/2021 12:45:00 PM 16.57 61.826 0.075 6.86 9.88 9.69
9/10/2021 1:00:00 PM 16.47 61.646 0.075 6.85 9.96 9.67
9/10/2021 1:15:00 PM 16.47 61.646 0.075 6.87 9.93 9.68
9/10/2021 1:30:00 PM 16.62 61.916 0.075 6.89 9.86 9.66
9/10/2021 1:45:00 PM 16.73 62.114 0.075 6.84 9.85 9.61
9/10/2021 2:00:00 PM 16.67 62.006 0.075 6.86 9.84 9.6
9/10/2021 2:15:00 PM 16.68 62.024 0.075 6.9 9.84 9.6
9/10/2021 2:30:00 PM 16.58 61.844 0.075 6.87 9.84 9.62
9/10/2021 2:45:00 PM 16.77 62.186 0.075 6.87 9.83 9.61
9/10/2021 3:00:00 PM 16.82 62.276 0.075 6.89 9.95 9.59
9/10/2021 3:15:00 PM 16.69 62.042 0.075 6.87 9.9 9.58
9/10/2021 3:30:00 PM 16.73 62.114 0.075 6.9 9.97 9.61
9/10/2021 3:45:00 PM 16.82 62.276 0.075 6.87 9.87 9.58
9/10/2021 4:00:00 PM 16.72 62.096 0.075 6.88 9.86 9.57
9/10/2021 4:15:00 PM 16.63 61.934 0.075 6.88 9.88 9.55
9/10/2021 4:30:00 PM 16.61 61.898 0.075 6.88 9.93 9.56
9/10/2021 4:45:00 PM 16.59 61.862 0.075 6.86 9.88 9.55
9/10/2021 5:00:00 PM 16.53 61.754 0.075 6.86 9.9 9.53
9/10/2021 5:15:00 PM 16.5 61.7 0.075 6.89 9.89 9.54
9/10/2021 5:30:00 PM 16.46 61.628 0.075 6.86 9.96 9.49
9/10/2021 5:45:00 PM 16.43 61.574 0.075 6.83 9.95 9.47
9/10/2021 6:00:00 PM 16.4 61.52 0.075 6.85 9.99 9.45
9/10/2021 6:15:00 PM 16.33 61.394 0.075 6.81 9.95 9.42
9/10/2021 6:30:00 PM 16.27 61.286 0.075 6.82 10 9.41
9/10/2021 6:45:00 PM 16.24 61.232 0.075 6.83 9.98 9.39
9/10/2021 7:00:00 PM 16.19 61.142 0.076 6.78 10 9.35
9/10/2021 7:15:00 PM 16.13 61.034 0.076 6.78 10.02 9.31
9/10/2021 7:30:00 PM 16.06 60.908 0.076 6.77 9.97 9.27
9/10/2021 7:45:00 PM 16 60.8 0.076 6.76 10.11 9.23
9/10/2021 8:00:00 PM 15.93 60.674 0.076 6.75 10.07 9.21
9/10/2021 8:15:00 PM 15.87 60.566 0.076 6.74 10.05 9.2
9/10/2021 8:30:00 PM 15.8 60.44 0.076 6.75 10.09 9.21
9/10/2021 8:45:00 PM 15.73 60.314 0.076 6.75 10.08 9.22
9/10/2021 9:00:00 PM 15.67 60.206 0.076 6.76 10.12 9.23
9/10/2021 9:15:00 PM 15.6 60.08 0.076 6.74 10.11 9.24
9/10/2021 9:30:00 PM 15.54 59.972 0.076 6.74 10.1 9.26
9/10/2021 9:45:00 PM 15.49 59.882 0.076 6.77 10.13 9.27
9/10/2021 10:00:00 PM 15.43 59.774 0.076 6.73 10.13 9.28
9/10/2021 10:15:00 PM 15.37 59.666 0.076 6.73 10.16 9.28
9/10/2021 10:30:00 PM 15.29 59.522 0.076 6.75 10.12 9.29
9/10/2021 10:45:00 PM 15.22 59.396 0.076 6.72 10.16 9.3
9/10/2021 11:00:00 PM 15.16 59.288 0.076 6.76 10.2 9.32
9/10/2021 11:15:00 PM 15.09 59.162 0.076 6.72 10.17 9.36
9/10/2021 11:30:00 PM 15.03 59.054 0.076 6.73 10.17 9.36
9/10/2021 11:45:00 PM 14.99 58.982 0.076 6.73 10.15 9.39
9/11/2021 12:00:00 AM 14.92 58.856 0.076 6.73 10.15 9.38
9/11/2021 12:15:00 AM 14.85 58.73 0.076 6.73 10.21 9.41
9/11/2021 12:30:00 AM 14.78 58.604 0.076 6.74 10.24 9.44
9/11/2021 12:45:00 AM 14.73 58.514 0.076 6.73 10.19 9.46
9/11/2021 1:00:00 AM 14.68 58.424 0.076 6.75 10.21 9.45
9/11/2021 1:15:00 AM 14.65 58.37 0.077 6.71 10.22 9.46
9/11/2021 1:30:00 AM 14.61 58.298 0.076 6.75 10.21 9.48
9/11/2021 1:45:00 AM 14.56 58.208 0.076 6.72 10.18 9.48
9/11/2021 2:00:00 AM 14.52 58.136 0.076 6.73 10.2 9.5
9/11/2021 2:15:00 AM 14.48 58.064 0.076 6.73 10.19 9.51
9/11/2021 2:30:00 AM 14.44 57.992 0.076 6.72 10.36 9.5
9/11/2021 2:45:00 AM 14.39 57.902 0.076 6.74 10.2 9.54
9/11/2021 3:00:00 AM 14.35 57.83 0.076 6.74 10.2 9.53
9/11/2021 3:15:00 AM 14.32 57.776 0.076 6.72 10.23 9.54
9/11/2021 3:30:00 AM 14.29 57.722 0.076 6.72 10.23 9.55
9/11/2021 3:45:00 AM 14.27 57.686 0.076 6.72 10.25 9.54
9/11/2021 4:00:00 AM 14.24 57.632 0.076 6.73 10.2 9.58
9/11/2021 4:15:00 AM 14.22 57.596 0.076 6.72 10.29 9.58
9/11/2021 4:30:00 AM 14.19 57.542 0.076 6.73 10.22 9.58
9/11/2021 4:45:00 AM 14.17 57.506 0.076 6.74 10.18 9.58
9/11/2021 5:00:00 AM 14.13 57.434 0.076 6.75 10.21 9.6
9/11/2021 5:15:00 AM 14.1 57.38 0.076 6.72 10.17 9.62
9/11/2021 5:30:00 AM 14.07 57.326 0.076 6.74 10.2 9.62
9/11/2021 5:45:00 AM 14.04 57.272 0.076 6.72 10.2 9.62
9/11/2021 6:00:00 AM 14.01 57.218 0.076 6.73 10.21 9.64
9/11/2021 6:15:00 AM 13.98 57.164 0.076 6.74 10.21 9.63
9/11/2021 6:30:00 AM 13.96 57.128 0.076 6.74 10.21 9.64
9/11/2021 6:45:00 AM 13.93 57.074 0.076 6.73 10.23 9.64
9/11/2021 7:00:00 AM 13.91 57.038 0.076 6.71 10.28 9.66
9/11/2021 7:15:00 AM 13.89 57.002 0.075 6.72 10.25 9.67
9/11/2021 7:30:00 AM 13.88 56.984 0.075 6.73 10.27 9.7
9/11/2021 7:45:00 AM 13.86 56.948 0.075 6.74 10.22 9.73
9/11/2021 8:00:00 AM 13.86 56.948 0.075 6.75 10.25 9.77
9/11/2021 8:15:00 AM 13.86 56.948 0.075 6.75 10.29 9.8
9/11/2021 8:30:00 AM 13.88 56.984 0.075 6.78 10.22 9.88
9/11/2021 8:45:00 AM 13.91 57.038 0.075 6.8 10.22 9.96
9/11/2021 9:00:00 AM 13.93 57.074 0.075 6.81 10.23 10.01
9/11/2021 9:15:00 AM 13.97 57.146 0.075 6.8 10.23 10.05
9/11/2021 9:30:00 AM 14.01 57.218 0.075 6.8 10.18 10.06
9/11/2021 9:45:00 AM 14.04 57.272 0.075 6.81 10.23 10.1
9/11/2021 10:00:00 AM 14.08 57.344 0.075 6.81 10.23 10.1
9/11/2021 10:15:00 AM 14.27 57.686 0.075 6.82 10.19 10.12
9/11/2021 10:30:00 AM 14.58 58.244 0.075 6.83 10.26 10.12
9/11/2021 10:45:00 AM 14.81 58.658 0.075 6.83 10.2 10.04
9/11/2021 11:00:00 AM 15.03 59.054 0.075 6.82 10.2 10.03
9/11/2021 11:15:00 AM 15.24 59.432 0.075 6.84 10.17 10
9/11/2021 11:30:00 AM 15.4 59.72 0.075 6.83 10.16 9.98
9/11/2021 11:45:00 AM 15.57 60.026 0.075 6.81 10.1 9.92
9/11/2021 12:00:00 PM 15.75 60.35 0.074 6.81 10.12 9.9
9/11/2021 12:15:00 PM 15.9 60.62 0.075 6.83 10.02 9.86
9/11/2021 12:30:00 PM 16.03 60.854 0.075 6.81 10.01 9.84
9/11/2021 12:45:00 PM 16.15 61.07 0.075 6.82 10.06 9.82
9/11/2021 1:00:00 PM 16.23 61.214 0.074 6.83 10.48 9.78
9/11/2021 1:15:00 PM 16.32 61.376 0.074 6.88 10.02 9.8
9/11/2021 1:30:00 PM 16.4 61.52 0.074 6.84 10.02 9.73
9/11/2021 1:45:00 PM 16.53 61.754 0.075 6.85 10.05 9.7
9/11/2021 2:00:00 PM 16.62 61.916 0.074 6.86 10 9.68
9/11/2021 2:15:00 PM 16.67 62.006 0.074 6.85 10.06 9.65
9/11/2021 2:30:00 PM 16.59 61.862 0.074 6.86 10.11 9.65
9/11/2021 2:45:00 PM 16.68 62.024 0.075 6.86 10.08 9.61
9/11/2021 3:00:00 PM 16.72 62.096 0.074 6.87 10.02 9.62
9/11/2021 3:15:00 PM 16.82 62.276 0.074 6.86 10.09 9.6
9/11/2021 3:30:00 PM 16.86 62.348 0.074 6.9 10.05 9.6
9/11/2021 3:45:00 PM 16.81 62.258 0.074 6.87 10.06 9.6
9/11/2021 4:00:00 PM 16.82 62.276 0.075 6.89 10.09 9.61
9/11/2021 4:15:00 PM 16.78 62.204 0.075 6.92 10.07 9.61
9/11/2021 4:30:00 PM 16.73 62.114 0.075 6.86 10.06 9.58
9/11/2021 4:45:00 PM 16.66 61.988 0.075 6.87 10.15 9.54
9/11/2021 5:00:00 PM 16.56 61.808 0.075 6.86 10.09 9.5
9/11/2021 5:15:00 PM 16.51 61.718 0.075 6.86 10.1 9.48
9/11/2021 5:30:00 PM 16.44 61.592 0.075 6.84 10.07 9.45
9/11/2021 5:45:00 PM 16.4 61.52 0.075 6.83 10.06 9.41
9/11/2021 6:00:00 PM 16.36 61.448 0.075 6.83 10.08 9.4
9/11/2021 6:15:00 PM 16.33 61.394 0.075 6.82 10.08 9.37
9/11/2021 6:30:00 PM 16.3 61.34 0.075 6.81 10.03 9.34
9/11/2021 6:45:00 PM 16.28 61.304 0.075 6.8 10.09 9.33
9/11/2021 7:00:00 PM 16.24 61.232 0.075 6.79 10.15 9.31
9/11/2021 7:15:00 PM 16.21 61.178 0.075 6.78 10.13 9.26
9/11/2021 7:30:00 PM 16.17 61.106 0.075 6.77 10.29 9.24
9/11/2021 7:45:00 PM 16.14 61.052 0.076 6.75 10.13 9.19
9/11/2021 8:00:00 PM 16.08 60.944 0.076 6.76 10.17 9.17
9/11/2021 8:15:00 PM 16.04 60.872 0.076 6.73 10.13 9.14
9/11/2021 8:30:00 PM 15.98 60.764 0.076 6.74 10.22 9.18
9/11/2021 8:45:00 PM 15.93 60.674 0.076 6.75 10.1 9.14
9/11/2021 9:00:00 PM 15.89 60.602 0.076 6.72 10.19 9.15
9/11/2021 9:15:00 PM 15.86 60.548 0.076 6.73 10.16 9.15
9/11/2021 9:30:00 PM 15.82 60.476 0.076 6.72 10.2 9.18
9/11/2021 9:45:00 PM 15.78 60.404 0.076 6.73 10.19 9.18
9/11/2021 10:00:00 PM 15.74 60.332 0.076 6.72 10.22 9.17
9/11/2021 10:15:00 PM 15.68 60.224 0.076 6.74 10.23 9.21
9/11/2021 10:30:00 PM 15.63 60.134 0.076 6.72 10.16 9.19
9/11/2021 10:45:00 PM 15.59 60.062 0.076 6.72 10.15 9.21
9/11/2021 11:00:00 PM 15.54 59.972 0.076 6.71 10.19 9.19
9/11/2021 11:15:00 PM 15.49 59.882 0.076 6.71 10.14 9.21
9/11/2021 11:30:00 PM 15.44 59.792 0.076 6.74 10.22 9.23
9/11/2021 11:45:00 PM 15.4 59.72 0.076 6.72 10.2 9.23
9/12/2021 12:00:00 AM 15.36 59.648 0.076 6.69 10.19 9.24
9/12/2021 12:15:00 AM 15.32 59.576 0.076 6.72 10.2 9.24
9/12/2021 12:30:00 AM 15.28 59.504 0.076 6.72 10.36 9.27
9/12/2021 12:45:00 AM 15.25 59.45 0.076 6.71 10.26 9.27
9/12/2021 1:00:00 AM 15.21 59.378 0.076 6.73 10.38 9.3
9/12/2021 1:15:00 AM 15.17 59.306 0.076 6.7 10.21 9.29
9/12/2021 1:30:00 AM 15.13 59.234 0.076 6.71 10.22 9.32
9/12/2021 1:45:00 AM 15.09 59.162 0.076 6.72 10.25 9.33
9/12/2021 2:00:00 AM 15.06 59.108 0.076 6.71 10.34 9.33
9/12/2021 2:15:00 AM 15.03 59.054 0.076 6.71 10.19 9.33
9/12/2021 2:30:00 AM 15.01 59.018 0.076 6.7 10.27 9.35
9/12/2021 2:45:00 AM 15 59 0.076 6.7 10.21 9.31
9/12/2021 3:00:00 AM 14.96 58.928 0.076 6.71 10.23 9.34
9/12/2021 3:15:00 AM 14.96 58.928 0.076 6.71 10.31 9.35
9/12/2021 3:30:00 AM 14.94 58.892 0.076 6.73 10.22 9.35
9/12/2021 3:45:00 AM 14.93 58.874 0.076 6.7 10.26 9.37
9/12/2021 4:00:00 AM 14.93 58.874 0.076 6.72 10.23 9.37
9/12/2021 4:15:00 AM 14.92 58.856 0.076 6.7 10.24 9.34
9/12/2021 4:30:00 AM 14.91 58.838 0.076 6.7 10.25 9.32
9/12/2021 4:45:00 AM 14.91 58.838 0.076 6.71 10.25 9.37
9/12/2021 5:00:00 AM 14.91 58.838 0.076 6.7 10.35 9.36
9/12/2021 5:15:00 AM 14.91 58.838 0.076 6.69 10.21 9.36
9/12/2021 5:30:00 AM 14.9 58.82 0.076 6.71 10.25 9.36
9/12/2021 5:45:00 AM 14.91 58.838 0.076 6.71 10.2 9.32
9/12/2021 6:00:00 AM 14.91 58.838 0.076 6.68 10.28 9.37
9/12/2021 6:15:00 AM 14.9 58.82 0.076 6.72 10.24 9.36
9/12/2021 6:30:00 AM 14.88 58.784 0.076 6.69 10.22 9.35
9/12/2021 6:45:00 AM 14.87 58.766 0.076 6.7 10.18 9.36
9/12/2021 7:00:00 AM 14.85 58.73 0.076 6.7 10.32 9.37
9/12/2021 7:15:00 AM 14.86 58.748 0.076 6.71 10.27 9.37
9/12/2021 7:30:00 AM 14.87 58.766 0.076 6.67 10.28 9.4
9/12/2021 7:45:00 AM 14.89 58.802 0.076 6.7 10.33 9.45
9/12/2021 8:00:00 AM 14.91 58.838 0.076 6.71 10.26 9.53
9/12/2021 8:15:00 AM 14.95 58.91 0.076 6.72 10.24 9.58
9/12/2021 8:30:00 AM 15.01 59.018 0.076 6.74 10.24 9.65
9/12/2021 8:45:00 AM 15.08 59.144 0.076 6.75 10.24 9.69
9/12/2021 9:00:00 AM 15.1 59.18 0.075 6.75 10.27 9.66
9/12/2021 9:15:00 AM 15.13 59.234 0.076 6.75 10.29 9.66
9/12/2021 9:30:00 AM 15.15 59.27 0.075 6.76 10.26 9.63
9/12/2021 9:45:00 AM 15.2 59.36 0.075 6.74 10.26 9.63
9/12/2021 10:00:00 AM 15.24 59.432 0.075 6.8 10.27 9.71
9/12/2021 10:15:00 AM 15.31 59.558 0.075 6.75 10.27 9.69
9/12/2021 10:30:00 AM 15.37 59.666 0.075 6.8 10.31 9.73
9/12/2021 10:45:00 AM 15.42 59.756 0.075 6.78 10.26 9.76
9/12/2021 11:00:00 AM 15.46 59.828 0.075 6.81 10.23 9.73
9/12/2021 11:15:00 AM 15.49 59.882 0.075 6.8 10.29 9.75
9/12/2021 11:30:00 AM 15.55 59.99 0.075 6.84 10.21 9.81
9/12/2021 11:45:00 AM 15.63 60.134 0.075 6.82 10.24 9.79
9/12/2021 12:00:00 PM 15.71 60.278 0.075 6.83 10.25 9.74
9/12/2021 12:15:00 PM 15.82 60.476 0.075 6.81 10.26 9.77
9/12/2021 12:30:00 PM 15.97 60.746 0.075 6.84 10.22 9.77
9/12/2021 12:45:00 PM 16.01 60.818 0.075 6.82 10.23 9.73
9/12/2021 1:00:00 PM 16.12 61.016 0.075 6.83 10.28 9.74
9/12/2021 1:15:00 PM 16.22 61.196 0.075 6.86 10.22 9.76
9/12/2021 1:30:00 PM 16.31 61.358 0.075 6.85 10.19 9.73
9/12/2021 1:45:00 PM 16.4 61.52 0.075 6.87 10.23 9.72
9/12/2021 2:00:00 PM 16.51 61.718 0.075 6.87 10.23 9.71
9/12/2021 2:15:00 PM 16.66 61.988 0.075 6.82 10.15 9.67
9/12/2021 2:30:00 PM 16.8 62.24 0.075 6.84 10.34 9.63
9/12/2021 2:45:00 PM 16.95 62.51 0.075 6.87 10.13 9.64
9/12/2021 3:00:00 PM 16.99 62.582 0.075 6.84 10.15 9.61
9/12/2021 3:15:00 PM 17.12 62.816 0.075 6.86 10.12 9.61
9/12/2021 3:30:00 PM 17.15 62.87 0.075 6.86 10.14 9.57
9/12/2021 3:45:00 PM 17.16 62.888 0.075 6.89 10.15 9.6
9/12/2021 4:00:00 PM 17.22 62.996 0.074 6.9 10.17 9.59
9/12/2021 4:15:00 PM 17.29 63.122 0.075 6.88 10.17 9.55
9/12/2021 4:30:00 PM 17.32 63.176 0.075 6.89 10.16 9.54
9/12/2021 4:45:00 PM 17.35 63.23 0.075 6.89 10.12 9.51
9/12/2021 5:00:00 PM 17.34 63.212 0.075 6.89 10.14 9.47
9/12/2021 5:15:00 PM 17.32 63.176 0.075 6.86 10.17 9.44
9/12/2021 5:30:00 PM 17.32 63.176 0.075 6.85 10.13 9.39
9/12/2021 5:45:00 PM 17.31 63.158 0.075 6.87 10.19 9.38
9/12/2021 6:00:00 PM 17.3 63.14 0.075 6.82 10.15 9.33
9/12/2021 6:15:00 PM 17.3 63.14 0.075 6.84 7.17 9.29
9/12/2021 6:30:00 PM 17.28 63.104 0.075 6.82 7.25 9.26
9/12/2021 6:45:00 PM 17.25 63.05 0.075 6.81 7.18 9.22
9/12/2021 7:00:00 PM 17.22 62.996 0.075 6.78 7.04 9.14
9/12/2021 7:15:00 PM 17.19 62.942 0.075 6.78 7.08 9.08
9/12/2021 7:30:00 PM 17.16 62.888 0.076 6.74 7.14 9.01
9/12/2021 7:45:00 PM 17.12 62.816 0.076 6.76 7.13 8.97
9/12/2021 8:00:00 PM 17.09 62.762 0.076 6.71 7.1 8.94
9/12/2021 8:15:00 PM 17.08 62.744 0.076 6.73 7.21 8.95
9/12/2021 8:30:00 PM 17.08 62.744 0.076 6.72 7.31 8.89
9/12/2021 8:45:00 PM 17.06 62.708 0.076 6.72 7.17 8.91
9/12/2021 9:00:00 PM 17.04 62.672 0.076 6.71 7.15 8.9
9/12/2021 9:15:00 PM 17.01 62.618 0.076 6.71 7.13 8.9
9/12/2021 9:30:00 PM 16.99 62.582 0.076 6.71 7.2 8.93
9/12/2021 9:45:00 PM 16.97 62.546 0.076 6.7 7.35 8.91
9/12/2021 10:00:00 PM 16.93 62.474 0.076 6.71 7.13 8.92
9/12/2021 10:15:00 PM 16.91 62.438 0.076 6.68 7.15 8.93
9/12/2021 10:30:00 PM 16.89 62.402 0.077 6.69 7.21 8.93
9/12/2021 10:45:00 PM 16.88 62.384 0.077 6.68 7.18 8.9
9/12/2021 11:00:00 PM 16.86 62.348 0.077 6.7 7.18 8.92
9/12/2021 11:15:00 PM 16.82 62.276 0.077 6.7 7.16 8.94
9/12/2021 11:30:00 PM 16.8 62.24 0.077 6.67 7.18 8.94
9/12/2021 11:45:00 PM 16.77 62.186 0.077 6.68 7.24 8.94
9/13/2021 12:00:00 AM 16.77 62.186 0.077 6.67 7.19 8.92
9/13/2021 12:15:00 AM 16.74 62.132 0.077 6.68 7.17 8.95
9/13/2021 12:30:00 AM 16.74 62.132 0.077 6.67 7.2 8.9
9/13/2021 12:45:00 AM 16.72 62.096 0.077 6.68 7.17 8.93
9/13/2021 1:00:00 AM 16.71 62.078 0.077 6.66 7.21 8.91
9/13/2021 1:15:00 AM 16.7 62.06 0.077 6.67 7.23 8.94
9/13/2021 1:30:00 AM 16.7 62.06 0.077 6.69 7.2 8.86
9/13/2021 1:45:00 AM 16.69 62.042 0.077 6.67 7.16 8.95
9/13/2021 2:00:00 AM 16.68 62.024 0.077 6.66 7.19 8.95
9/13/2021 2:15:00 AM 16.68 62.024 0.077 6.66 7.22 8.88
9/13/2021 2:30:00 AM 16.68 62.024 0.077 6.66 7.17 8.93
9/13/2021 2:45:00 AM 16.67 62.006 0.077 6.7 7.21 8.96
9/13/2021 3:00:00 AM 16.67 62.006 0.077 6.66 7.23 8.93
9/13/2021 3:15:00 AM 16.67 62.006 0.077 6.68 7.24 8.92
9/13/2021 3:30:00 AM 16.66 61.988 0.077 6.65 7.24 8.94
9/13/2021 3:45:00 AM 16.65 61.97 0.077 6.67 7.26 8.96
9/13/2021 4:00:00 AM 16.65 61.97 0.077 6.65 7.21 8.92
9/13/2021 4:15:00 AM 16.62 61.916 0.077 6.66 7.25 8.95
9/13/2021 4:30:00 AM 16.62 61.916 0.077 6.66 7.22 8.94
9/13/2021 4:45:00 AM 16.6 61.88 0.077 6.65 7.25 8.92
9/13/2021 5:00:00 AM 16.59 61.862 0.077 6.68 7.34 8.96
9/13/2021 5:15:00 AM 16.58 61.844 0.077 6.65 7.26 8.9
9/13/2021 5:30:00 AM 16.55 61.79 0.077 6.65 7.22 8.98
9/13/2021 5:45:00 AM 16.54 61.772 0.077 6.65 7.21 8.96
9/13/2021 6:00:00 AM 16.53 61.754 0.077 6.64 7.22 8.93
9/13/2021 6:15:00 AM 16.52 61.736 0.077 6.64 7.28 8.94
9/13/2021 6:30:00 AM 16.51 61.718 0.077 6.65 7.32 8.95
9/13/2021 6:45:00 AM 16.51 61.718 0.077 6.65 7.3 8.9
9/13/2021 7:00:00 AM 16.5 61.7 0.077 6.65 7.37 8.95
9/13/2021 7:15:00 AM 16.5 61.7 0.077 6.64 7.24 8.95
9/13/2021 7:30:00 AM 16.5 61.7 0.077 6.65 7.26 8.99
9/13/2021 7:45:00 AM 16.5 61.7 0.077 6.66 7.21 9.01
9/13/2021 8:00:00 AM 16.52 61.736 0.077 6.65 7.22 9.06
9/13/2021 8:15:00 AM 16.52 61.736 0.077 6.67 7.24 9.15
9/13/2021 8:30:00 AM 16.55 61.79 0.077 6.7 7.21 9.24
9/13/2021 8:45:00 AM 16.57 61.826 0.077 6.72 7.2 9.21
9/13/2021 9:00:00 AM 16.59 61.862 0.077 6.72 7.25 9.26
9/13/2021 9:15:00 AM 16.63 61.934 0.077 6.75 7.23 9.31
9/13/2021 9:30:00 AM 16.67 62.006 0.077 6.71 7.21 9.3
9/13/2021 9:45:00 AM 16.7 62.06 0.077 6.74 7.19 9.33
9/13/2021 10:00:00 AM 16.72 62.096 0.076 6.75 7.17 9.34
9/13/2021 10:15:00 AM 16.72 62.096 0.076 6.75 7.15 9.32
9/13/2021 10:30:00 AM 16.75 62.15 0.076 6.76 7.17 9.28
9/13/2021 10:45:00 AM 16.76 62.168 0.076 6.74 7.16 9.29
9/13/2021 11:00:00 AM 16.8 62.24 0.076 6.75 7.25 9.36
9/13/2021 11:15:00 AM 16.86 62.348 0.076 6.76 7.23 9.4
9/13/2021 11:30:00 AM 16.94 62.492 0.076 6.77 7.17 9.45
9/13/2021 11:45:00 AM 16.99 62.582 0.076 6.76 7.27 9.41
9/13/2021 12:00:00 PM 17.05 62.69 0.076 6.76 7.18 9.38
9/13/2021 12:15:00 PM 17.14 62.852 0.076 6.79 7.13 9.42
9/13/2021 12:30:00 PM 17.32 63.176 0.076 6.81 7.17 9.43
9/13/2021 12:45:00 PM 17.43 63.374 0.076 6.83 7.17 9.45
9/13/2021 1:00:00 PM 17.47 63.446 0.076 6.81 7.43 9.47
9/13/2021 1:15:00 PM 17.59 63.662 0.076 6.83 7.34 9.48
9/13/2021 1:30:00 PM 17.79 64.022 0.076 6.84 7.19 9.43
9/13/2021 1:45:00 PM 17.91 64.238 0.076 6.84 7.21 9.42
9/13/2021 2:00:00 PM 18.03 64.454 0.076 6.84 7.17 9.46
9/13/2021 2:15:00 PM 18.09 64.562 0.076 6.86 7.19 9.41
9/13/2021 2:30:00 PM 18.15 64.67 0.076 6.85 7.11 9.4
9/13/2021 2:45:00 PM 18.29 64.922 0.076 6.86 7.2 9.38
9/13/2021 3:00:00 PM 18.38 65.084 0.075 6.87 7.15 9.37
9/13/2021 3:15:00 PM 18.34 65.012 0.075 6.87 7.15 9.33
9/13/2021 3:30:00 PM 18.34 65.012 0.075 6.87 7.13 9.32
9/13/2021 3:45:00 PM 18.37 65.066 0.075 6.87 7.14 9.27
9/13/2021 4:00:00 PM 18.39 65.102 0.075 6.86 7.19 9.24
9/13/2021 4:15:00 PM 18.41 65.138 0.075 6.87 7.14 9.22
9/13/2021 4:30:00 PM 18.46 65.228 0.075 6.88 7.11 9.25
9/13/2021 4:45:00 PM 18.46 65.228 0.075 6.84 7.14 9.2
9/13/2021 5:00:00 PM 18.46 65.228 0.075 6.85 7.19 9.12
9/13/2021 5:15:00 PM 18.45 65.21 0.075 6.83 7.18 9.09
9/13/2021 5:30:00 PM 18.44 65.192 0.076 6.82 7.15 9.01
9/13/2021 5:45:00 PM 18.41 65.138 0.076 6.83 7.16 9.04
9/13/2021 6:00:00 PM 18.37 65.066 0.076 6.78 7.23 9.01
9/13/2021 6:15:00 PM 18.35 65.03 0.076 6.78 7.19 8.93
9/13/2021 6:30:00 PM 18.3 64.94 0.076 6.75 6.95 8.87
9/13/2021 6:45:00 PM 18.41 65.138 0.075 6.77 7.23 8.81
9/13/2021 7:00:00 PM 18.37 65.066 0.076 6.79 8.02 8.66
9/13/2021 7:15:00 PM 18.32 64.976 0.076 6.77 7.55 8.65
9/13/2021 7:30:00 PM 18.27 64.886 0.076 6.75 7.18 8.63
9/13/2021 7:45:00 PM 18.22 64.796 0.076 6.76 7.1 8.62
9/13/2021 8:00:00 PM 18.17 64.706 0.076 6.73 7 8.58
9/13/2021 8:15:00 PM 18.1 64.58 0.076 6.73 6.97 8.57
9/13/2021 8:30:00 PM 18.06 64.508 0.076 6.71 6.95 8.58
9/13/2021 8:45:00 PM 18.03 64.454 0.076 6.72 7.03 8.62
9/13/2021 9:00:00 PM 17.99 64.382 0.076 6.71 6.97 8.61
9/13/2021 9:15:00 PM 17.94 64.292 0.076 6.71 6.9 8.59
9/13/2021 9:30:00 PM 17.9 64.22 0.076 6.7 7.26 8.6
9/13/2021 9:45:00 PM 17.87 64.166 0.076 6.7 7.05 8.64
9/13/2021 10:00:00 PM 17.84 64.112 0.076 6.69 7.06 8.62
9/13/2021 10:15:00 PM 17.8 64.04 0.077 6.69 7.01 8.63
9/13/2021 10:30:00 PM 17.76 63.968 0.076 6.69 6.94 8.66
9/13/2021 10:45:00 PM 17.73 63.914 0.076 6.71 6.93 8.68
9/13/2021 11:00:00 PM 17.7 63.86 0.076 6.7 6.99 8.68
9/13/2021 11:15:00 PM 17.68 63.824 0.076 6.7 7 8.71
9/13/2021 11:30:00 PM 17.65 63.77 0.076 6.72 7 8.71
9/13/2021 11:45:00 PM 17.62 63.716 0.076 6.71 7.07 8.72
9/14/2021 12:00:00 AM 17.59 63.662 0.076 6.69 7.09 8.72
9/14/2021 12:15:00 AM 17.56 63.608 0.076 6.7 7.18 8.72
9/14/2021 12:30:00 AM 17.52 63.536 0.076 6.69 7.2 8.74
9/14/2021 12:45:00 AM 17.5 63.5 0.076 6.71 7.18 8.75
9/14/2021 1:00:00 AM 17.49 63.482 0.076 6.7 7.16 8.77
9/14/2021 1:15:00 AM 17.47 63.446 0.076 6.71 7.08 8.78
9/14/2021 1:30:00 AM 17.45 63.41 0.076 6.69 7.09 8.8
9/14/2021 1:45:00 AM 17.44 63.392 0.076 6.69 7.05 8.79
9/14/2021 2:00:00 AM 17.42 63.356 0.076 6.68 7.08 8.78
9/14/2021 2:15:00 AM 17.41 63.338 0.076 6.7 7.04 8.77
9/14/2021 2:30:00 AM 17.39 63.302 0.076 6.7 7.09 8.81
9/14/2021 2:45:00 AM 17.38 63.284 0.077 6.69 7.07 8.79
9/14/2021 3:00:00 AM 17.36 63.248 0.077 6.71 7.07 8.79
9/14/2021 3:15:00 AM 17.35 63.23 0.077 6.69 7.06 8.79
9/14/2021 3:30:00 AM 17.33 63.194 0.077 6.7 7.03 8.79
9/14/2021 3:45:00 AM 17.32 63.176 0.077 6.7 7.04 8.78
9/14/2021 4:00:00 AM 17.31 63.158 0.077 6.67 7.04 8.79
9/14/2021 4:15:00 AM 17.3 63.14 0.078 6.68 7.05 8.78
9/14/2021 4:30:00 AM 17.28 63.104 0.078 6.71 7.05 8.82
9/14/2021 4:45:00 AM 17.27 63.086 0.078 6.7 7.07 8.79
9/14/2021 5:00:00 AM 17.26 63.068 0.078 6.69 7.01 8.8
9/14/2021 5:15:00 AM 17.26 63.068 0.078 6.67 7.04 8.79
9/14/2021 5:30:00 AM 17.25 63.05 0.078 6.69 7.02 8.8
9/14/2021 5:45:00 AM 17.23 63.014 0.078 6.68 7.04 8.82
9/14/2021 6:00:00 AM 17.23 63.014 0.078 6.69 7.18 8.81
9/14/2021 6:15:00 AM 17.21 62.978 0.078 6.69 7.13 8.79
9/14/2021 6:30:00 AM 17.21 62.978 0.079 6.68 7.05 8.79
9/14/2021 6:45:00 AM 17.2 62.96 0.079 6.71 7.33 8.8
9/14/2021 7:00:00 AM 17.19 62.942 0.079 6.69 7.27 8.79
9/14/2021 7:15:00 AM 17.18 62.924 0.079 6.69 7.12 8.82
9/14/2021 7:30:00 AM 17.17 62.906 0.079 6.71 7.07 8.82
9/14/2021 7:45:00 AM 17.18 62.924 0.079 6.68 7.1 8.87
9/14/2021 8:00:00 AM 17.18 62.924 0.079 6.7 7.11 8.93
9/14/2021 8:15:00 AM 17.2 62.96 0.079 6.74 7.07 8.97
9/14/2021 8:30:00 AM 17.21 62.978 0.079 6.74 7.02 9.02
9/14/2021 8:45:00 AM 17.23 63.014 0.079 6.74 7 9.03
9/14/2021 9:00:00 AM 17.25 63.05 0.079 6.75 6.96 9.09
9/14/2021 9:15:00 AM 17.28 63.104 0.079 6.76 7 9.14
9/14/2021 9:30:00 AM 17.3 63.14 0.078 6.78 6.99 9.18
9/14/2021 9:45:00 AM 17.36 63.248 0.078 6.78 7.02 9.23
9/14/2021 10:00:00 AM 17.44 63.392 0.078 6.78 6.96 9.29
9/14/2021 10:15:00 AM 17.59 63.662 0.078 6.81 6.96 9.3
9/14/2021 10:30:00 AM 17.75 63.95 0.078 6.79 6.95 9.28
9/14/2021 10:45:00 AM 17.97 64.346 0.078 6.78 6.94 9.28
9/14/2021 11:00:00 AM 18.16 64.688 0.078 6.77 6.93 9.26
9/14/2021 11:15:00 AM 18.27 64.886 0.078 6.8 7 9.31
9/14/2021 11:30:00 AM 18.26 64.868 0.078 6.84 6.92 9.35
9/14/2021 11:45:00 AM 18.43 65.174 0.077 6.83 6.9 9.31
9/14/2021 12:00:00 PM 18.48 65.264 0.077 6.84 6.89 9.33
9/14/2021 12:15:00 PM 18.54 65.372 0.078 6.86 6.88 9.31
9/14/2021 12:30:00 PM 18.58 65.444 0.078 6.86 6.84 9.28
9/14/2021 12:45:00 PM 18.59 65.462 0.077 6.85 6.85 9.27
9/14/2021 1:00:00 PM 18.71 65.67799 0.077 6.85 6.86 9.23
9/14/2021 1:15:00 PM 18.77 65.786 0.077 6.88 6.92 9.24
9/14/2021 1:30:00 PM 18.97 66.146 0.077 6.85 6.88 9.19
9/14/2021 1:45:00 PM 19.06 66.308 0.077 6.85 6.88 9.15
9/14/2021 2:00:00 PM 19.17 66.506 0.077 6.87 6.9 9.16
9/14/2021 2:15:00 PM 19.21 66.578 0.077 6.89 6.86 9.15
9/14/2021 2:30:00 PM 19.3 66.74 0.077 6.89 6.81 9.1
9/14/2021 2:45:00 PM 19.36 66.848 0.077 6.88 6.86 9.14
9/14/2021 3:00:00 PM 19.37 66.866 0.077 6.89 6.88 9.1
9/14/2021 3:15:00 PM 19.41 66.938 0.077 6.88 6.87 9.09
9/14/2021 3:30:00 PM 19.45 67.01 0.077 6.89 6.85 9.1
9/14/2021 3:45:00 PM 19.48 67.064 0.077 6.9 6.83 9.08
9/14/2021 4:00:00 PM 19.48 67.064 0.077 6.93 6.88 9.08
9/14/2021 4:15:00 PM 19.48 67.064 0.077 6.89 6.94 9.02
9/14/2021 4:30:00 PM 19.43 66.974 0.077 6.87 6.85 8.93
9/14/2021 4:45:00 PM 19.42 66.956 0.077 6.87 6.97 8.99
9/14/2021 5:00:00 PM 19.4 66.92 0.077 6.86 6.96 8.95
9/14/2021 5:15:00 PM 19.37 66.866 0.077 6.87 6.95 8.95
9/14/2021 5:30:00 PM 19.35 66.83 0.077 6.83 6.94 8.84
9/14/2021 5:45:00 PM 19.31 66.758 0.077 6.84 6.91 8.87
9/14/2021 6:00:00 PM 19.25 66.65 0.077 6.85 6.93 8.85
9/14/2021 6:15:00 PM 19.21 66.578 0.077 6.82 6.91 8.78
9/14/2021 6:30:00 PM 19.14 66.452 0.077 6.82 6.9 8.76
9/14/2021 6:45:00 PM 19.09 66.362 0.078 6.81 6.95 8.72
9/14/2021 7:00:00 PM 19.04 66.272 0.078 6.77 6.98 8.66
9/14/2021 7:15:00 PM 18.97 66.146 0.078 6.76 7.03 8.58
9/14/2021 7:30:00 PM 18.91 66.038 0.078 6.76 6.94 8.55
9/14/2021 7:45:00 PM 18.86 65.948 0.078 6.74 6.93 8.53
9/14/2021 8:00:00 PM 18.8 65.84 0.078 6.71 6.93 8.49
9/14/2021 8:15:00 PM 18.74 65.732 0.078 6.7 6.97 8.47
9/14/2021 8:30:00 PM 18.69 65.642 0.078 6.7 6.98 8.48
9/14/2021 8:45:00 PM 18.64 65.552 0.078 6.71 6.98 8.47
9/14/2021 9:00:00 PM 18.58 65.444 0.078 6.72 7.04 8.47
9/14/2021 9:15:00 PM 18.55 65.39 0.078 6.7 6.97 8.46
9/14/2021 9:30:00 PM 18.5 65.3 0.078 6.71 6.98 8.44
9/14/2021 9:45:00 PM 18.45 65.21 0.078 6.7 6.99 8.46
9/14/2021 10:00:00 PM 18.4 65.12 0.079 6.71 6.99 8.47
9/14/2021 10:15:00 PM 18.35 65.03 0.079 6.72 6.97 8.5
9/14/2021 10:30:00 PM 18.3 64.94 0.079 6.71 7 8.51
9/14/2021 10:45:00 PM 18.26 64.868 0.079 6.69 6.98 8.5
9/14/2021 11:00:00 PM 18.21 64.778 0.079 6.71 6.95 8.51
9/14/2021 11:15:00 PM 18.16 64.688 0.079 6.71 6.99 8.5
9/14/2021 11:30:00 PM 18.11 64.598 0.079 6.7 6.96 8.53
9/14/2021 11:45:00 PM 18.06 64.508 0.079 6.7 6.99 8.53
9/15/2021 12:00:00 AM 18.03 64.454 0.078 6.67 6.98 8.52
9/15/2021 12:15:00 AM 17.99 64.382 0.079 6.69 6.95 8.5
9/15/2021 12:30:00 AM 17.96 64.328 0.079 6.69 7.05 8.5
9/15/2021 12:45:00 AM 17.9 64.22 0.079 6.69 6.92 8.54
9/15/2021 1:00:00 AM 17.87 64.166 0.079 6.67 7.04 8.55
9/15/2021 1:15:00 AM 17.83 64.094 0.079 6.69 7.02 8.54
9/15/2021 1:30:00 AM 17.79 64.022 0.079 6.7 7.1 8.57
9/15/2021 1:45:00 AM 17.75 63.95 0.079 6.69 7.05 8.57
9/15/2021 2:00:00 AM 17.71 63.878 0.079 6.68 7.01 8.54
9/15/2021 2:15:00 AM 17.68 63.824 0.079 6.67 7.03 8.6
9/15/2021 2:30:00 AM 17.64 63.752 0.079 6.67 7.05 8.59
9/15/2021 2:45:00 AM 17.62 63.716 0.079 6.68 7.06 8.58
9/15/2021 3:00:00 AM 17.58 63.644 0.079 6.67 7.09 8.57
9/15/2021 3:15:00 AM 17.56 63.608 0.079 6.64 7.07 8.56
9/15/2021 3:30:00 AM 17.53 63.554 0.079 6.65 7.19 8.56
9/15/2021 3:45:00 AM 17.5 63.5 0.079 6.66 7.04 8.59
9/15/2021 4:00:00 AM 17.46 63.428 0.079 6.65 7.02 8.6
9/15/2021 4:15:00 AM 17.44 63.392 0.079 6.66 7.03 8.61
9/15/2021 4:30:00 AM 17.4 63.32 0.079 6.67 7.04 8.57
9/15/2021 4:45:00 AM 17.38 63.284 0.079 6.65 7.03 8.63
9/15/2021 5:00:00 AM 17.34 63.212 0.079 6.67 7.04 8.62
9/15/2021 5:15:00 AM 17.31 63.158 0.079 6.65 7.12 8.63
9/15/2021 5:30:00 AM 17.29 63.122 0.079 6.67 7.04 8.64
9/15/2021 5:45:00 AM 17.27 63.086 0.079 6.68 7.02 8.66
9/15/2021 6:00:00 AM 17.25 63.05 0.079 6.65 7.02 8.66
9/15/2021 6:15:00 AM 17.24 63.032 0.079 6.66 7.07 8.67
9/15/2021 6:30:00 AM 17.22 62.996 0.079 6.69 7.05 8.65
9/15/2021 6:45:00 AM 17.2 62.96 0.078 6.69 7.04 8.68
9/15/2021 7:00:00 AM 17.19 62.942 0.079 6.65 7.54 8.69
9/15/2021 7:15:00 AM 17.17 62.906 0.078 6.66 7.02 8.7
9/15/2021 7:30:00 AM 17.16 62.888 0.078 6.66 6.99 8.76
9/15/2021 7:45:00 AM 17.16 62.888 0.079 6.68 6.98 8.81
9/15/2021 8:00:00 AM 17.15 62.87 0.078 6.7 6.98 8.86
9/15/2021 8:15:00 AM 17.15 62.87 0.078 6.69 7.08 8.85
9/15/2021 8:30:00 AM 17.18 62.924 0.078 6.71 7.02 8.94
9/15/2021 8:45:00 AM 17.21 62.978 0.078 6.76 6.99 9.08
9/15/2021 9:00:00 AM 17.25 63.05 0.078 6.76 6.99 9.12
9/15/2021 9:15:00 AM 17.31 63.158 0.078 6.75 6.98 9.21
9/15/2021 9:30:00 AM 17.43 63.374 0.078 6.78 6.95 9.22
9/15/2021 9:45:00 AM 17.59 63.662 0.078 6.77 6.98 9.23
9/15/2021 10:00:00 AM 17.65 63.77 0.078 6.81 7.01 9.23
9/15/2021 10:15:00 AM 17.68 63.824 0.077 6.83 6.98 9.26
9/15/2021 10:30:00 AM 17.75 63.95 0.078 6.82 7 9.28
9/15/2021 10:45:00 AM 17.73 63.914 0.078 6.76 6.94 9.14
9/15/2021 11:00:00 AM 17.72 63.896 0.077 6.78 7.13 9.12
9/15/2021 11:15:00 AM 17.74 63.932 0.077 6.78 7.06 9.14
9/15/2021 11:30:00 AM 17.78 64.004 0.077 6.78 7.07 9.17
9/15/2021 11:45:00 AM 17.82 64.076 0.077 6.81 7.1 9.16
9/15/2021 12:00:00 PM 17.86 64.148 0.077 6.78 7.07 9.13
9/15/2021 12:15:00 PM 17.86 64.148 0.077 6.81 7.06 9.11
9/15/2021 12:30:00 PM 17.85 64.13 0.077 6.77 7.06 9.08
9/15/2021 12:45:00 PM 17.86 64.148 0.077 6.76 7.18 8.97
9/15/2021 1:00:00 PM 17.85 64.13 0.077 6.78 7.37 8.9
9/15/2021 1:15:00 PM 17.85 64.13 0.076 6.77 7.21 8.9
9/15/2021 1:30:00 PM 17.85 64.13 0.076 6.75 7.14 8.9
9/15/2021 1:45:00 PM 17.89 64.202 0.076 6.77 7.05 8.94
9/15/2021 2:00:00 PM 17.94 64.292 0.076 6.78 7.07 9.01
9/15/2021 2:15:00 PM 17.95 64.31 0.076 6.79 7.34 8.99
9/15/2021 2:30:00 PM 17.95 64.31 0.076 6.77 7.31 9.01
9/15/2021 2:45:00 PM 17.99 64.382 0.076 6.77 7.2 9.03
9/15/2021 3:00:00 PM 18.04 64.472 0.076 6.79 7.12 9.08
9/15/2021 3:15:00 PM 18.06 64.508 0.076 6.79 7.07 9.07
9/15/2021 3:30:00 PM 18.12 64.616 0.076 6.8 7.1 9.11
9/15/2021 3:45:00 PM 18.11 64.598 0.076 6.79 7.06 9.05
9/15/2021 4:00:00 PM 18.1 64.58 0.076 6.81 7.07 8.92
9/15/2021 4:15:00 PM 18.05 64.49 0.076 6.78 7.18 8.93
9/15/2021 4:30:00 PM 17.99 64.382 0.075 6.8 7.21 8.86
9/15/2021 4:45:00 PM 17.96 64.328 0.075 6.79 7.26 8.87
9/15/2021 5:00:00 PM 17.93 64.274 0.074 6.78 7.28 8.84
9/15/2021 5:15:00 PM 17.9 64.22 0.074 6.77 7.32 8.9
9/15/2021 5:30:00 PM 17.88 64.184 0.075 6.78 7.37 8.83
9/15/2021 5:45:00 PM 17.85 64.13 0.075 6.8 7.62 8.92
9/15/2021 6:00:00 PM 17.82 64.076 0.075 6.77 7.92 8.95
9/15/2021 6:15:00 PM 17.77 63.986 0.074 6.79 8.01 8.96
9/15/2021 6:30:00 PM 17.73 63.914 0.074 6.79 7.94 8.97
9/15/2021 6:45:00 PM 17.69 63.842 0.074 6.82 7.8 9.04
9/15/2021 7:00:00 PM 17.66 63.788 0.074 6.82 7.79 9.01
9/15/2021 7:15:00 PM 17.62 63.716 0.074 6.82 7.96 9.01
9/15/2021 7:30:00 PM 17.59 63.662 0.074 6.81 8.03 9.02
9/15/2021 7:45:00 PM 17.56 63.608 0.075 6.81 7.86 8.99
9/15/2021 8:00:00 PM 17.51 63.518 0.075 6.83 8.18 9.03
9/15/2021 8:15:00 PM 17.46 63.428 0.075 6.85 8.64 9.03
9/15/2021 8:30:00 PM 17.42 63.356 0.076 6.85 9.01 9.03
9/15/2021 8:45:00 PM 17.39 63.302 0.075 6.83 8.95 9.04
9/15/2021 9:00:00 PM 17.35 63.23 0.075 6.84 8.79 9.05
9/15/2021 9:15:00 PM 17.31 63.158 0.076 6.85 8.69 9.06
9/15/2021 9:30:00 PM 17.27 63.086 0.076 6.87 8.48 9.08
9/15/2021 9:45:00 PM 17.23 63.014 0.076 6.83 8.49 9.1
9/15/2021 10:00:00 PM 17.2 62.96 0.077 6.84 8.56 9.1
9/15/2021 10:15:00 PM 17.17 62.906 0.077 6.84 8.43 9.12
9/15/2021 10:30:00 PM 17.14 62.852 0.078 6.83 8.36 9.12
9/15/2021 10:45:00 PM 17.11 62.798 0.079 6.83 8.34 9.14
9/15/2021 11:00:00 PM 17.09 62.762 0.079 6.83 8.28 9.14
9/15/2021 11:15:00 PM 17.07 62.726 0.079 6.81 8.27 9.14
9/15/2021 11:30:00 PM 17.05 62.69 0.079 6.81 8.16 9.15
9/15/2021 11:45:00 PM 17.03 62.654 0.079 6.8 8.22 9.15
9/16/2021 12:00:00 AM 17 62.6 0.079 6.82 8.24 9.17
9/16/2021 12:15:00 AM 16.98 62.564 0.079 6.79 8.22 9.16
9/16/2021 12:30:00 AM 16.95 62.51 0.079 6.8 8.16 9.16
9/16/2021 12:45:00 AM 16.93 62.474 0.079 6.79 8.17 9.17
9/16/2021 1:00:00 AM 16.91 62.438 0.079 6.81 8.11 9.17
9/16/2021 1:15:00 AM 16.9 62.42 0.08 6.81 8.11 9.16
9/16/2021 1:30:00 AM 16.87 62.366 0.08 6.79 8.03 9.17
9/16/2021 1:45:00 AM 16.85 62.33 0.08 6.79 7.96 9.18
9/16/2021 2:00:00 AM 16.83 62.294 0.08 6.79 7.93 9.18
9/16/2021 2:15:00 AM 16.81 62.258 0.08 6.78 7.84 9.18
9/16/2021 2:30:00 AM 16.8 62.24 0.08 6.79 7.84 9.18
9/16/2021 2:45:00 AM 16.78 62.204 0.08 6.79 7.71 9.18
9/16/2021 3:00:00 AM 16.76 62.168 0.08 6.79 7.67 9.18
9/16/2021 3:15:00 AM 16.74 62.132 0.08 6.8 7.71 9.17
9/16/2021 3:30:00 AM 16.72 62.096 0.08 6.78 7.69 9.19
9/16/2021 3:45:00 AM 16.7 62.06 0.08 6.8 7.65 9.18
9/16/2021 4:00:00 AM 16.67 62.006 0.08 6.8 7.64 9.2
9/16/2021 4:15:00 AM 16.65 61.97 0.08 6.77 7.66 9.2
9/16/2021 4:30:00 AM 16.63 61.934 0.079 6.78 7.62 9.22
9/16/2021 4:45:00 AM 16.62 61.916 0.08 6.79 7.54 9.19
9/16/2021 5:00:00 AM 16.58 61.844 0.08 6.79 7.58 9.2
9/16/2021 5:15:00 AM 16.55 61.79 0.08 6.79 7.57 9.21
9/16/2021 5:30:00 AM 16.53 61.754 0.079 6.77 7.6 9.21
9/16/2021 5:45:00 AM 16.51 61.718 0.079 6.77 7.55 9.21
9/16/2021 6:00:00 AM 16.48 61.664 0.079 6.79 7.64 9.22
9/16/2021 6:15:00 AM 16.45 61.61 0.079 6.79 7.57 9.25
9/16/2021 6:30:00 AM 16.43 61.574 0.079 6.77 7.58 9.24
9/16/2021 6:45:00 AM 16.4 61.52 0.079 6.78 7.59 9.25
9/16/2021 7:00:00 AM 16.37 61.466 0.079 6.79 7.49 9.25
9/16/2021 7:15:00 AM 16.35 61.43 0.079 6.79 7.79 9.26
9/16/2021 7:30:00 AM 16.34 61.412 0.079 6.77 7.57 9.3
9/16/2021 7:45:00 AM 16.33 61.394 0.079 6.81 7.34 9.37
9/16/2021 8:00:00 AM 16.32 61.376 0.079 6.81 7.71 9.43
9/16/2021 8:15:00 AM 16.33 61.394 0.079 6.85 13.01 9.48
9/16/2021 8:30:00 AM 16.34 61.412 0.078 6.84 29 9.5
9/16/2021 8:45:00 AM 16.35 61.43 0.078 6.86 9.6 9.52
9/16/2021 9:00:00 AM 16.36 61.448 0.078 6.85 8.1 9.57
9/16/2021 9:15:00 AM 16.4 61.52 0.078 6.86 7.82 9.59
9/16/2021 9:30:00 AM 16.41 61.538 0.078 6.89 7.92 9.63
9/16/2021 9:45:00 AM 16.45 61.61 0.078 6.89 7.91 9.65
9/16/2021 10:00:00 AM 16.51 61.718 0.078 6.89 7.74 9.68
9/16/2021 10:15:00 AM 16.56 61.808 0.078 6.92 7.67 9.7
9/16/2021 10:30:00 AM 16.66 61.988 0.078 6.91 7.91 9.73
9/16/2021 10:45:00 AM 16.78 62.204 0.078 6.93 8.71 9.71
9/16/2021 11:00:00 AM 16.84 62.312 0.078 6.94 7.81 9.72
9/16/2021 11:15:00 AM 16.95 62.51 0.078 6.92 7.79 9.72
9/16/2021 11:30:00 AM 17.03 62.654 0.077 6.95 7.87 9.71
9/16/2021 11:45:00 AM 17.12 62.816 0.077 6.94 7.87 9.71
9/16/2021 12:00:00 PM 17.18 62.924 0.077 6.96 7.76 9.69
9/16/2021 12:15:00 PM 17.23 63.014 0.078 6.93 7.81 9.65
9/16/2021 12:30:00 PM 17.3 63.14 0.078 6.94 7.74 9.64
9/16/2021 12:45:00 PM 17.36 63.248 0.077 6.94 7.8 9.64
9/16/2021 1:00:00 PM 17.43 63.374 0.077 6.94 7.6 9.63
9/16/2021 1:15:00 PM 17.5 63.5 0.077 6.97 7.69 9.64
9/16/2021 1:30:00 PM 17.64 63.752 0.077 6.94 7.71 9.62
9/16/2021 1:45:00 PM 17.82 64.076 0.077 6.97 8.88 9.59
9/16/2021 2:00:00 PM 17.89 64.202 0.077 6.94 7.73 9.58
9/16/2021 2:15:00 PM 17.89 64.202 0.077 6.93 7.69 9.54
9/16/2021 2:30:00 PM 17.98 64.364 0.077 6.95 7.66 9.55
9/16/2021 2:45:00 PM 18.24 64.832 0.077 6.94 7.58 9.49
9/16/2021 3:00:00 PM 18.38 65.084 0.077 6.95 7.86 9.47
9/16/2021 3:15:00 PM 18.41 65.138 0.077 6.97 7.6 9.45
9/16/2021 3:30:00 PM 18.29 64.922 0.077 6.97 7.89 9.42
9/16/2021 3:45:00 PM 18.2 64.76 0.077 6.95 8.48 9.37
9/16/2021 4:00:00 PM 18.15 64.67 0.077 6.92 9.06 9.35
9/16/2021 4:15:00 PM 18.16 64.688 0.077 6.92 7.82 9.36
9/16/2021 4:30:00 PM 18.17 64.706 0.077 6.92 7.62 9.36
9/16/2021 4:45:00 PM 18.19 64.742 0.077 6.93 7.44 9.35
9/16/2021 5:00:00 PM 18.16 64.688 0.077 6.92 7.48 9.34
9/16/2021 5:15:00 PM 18.16 64.688 0.077 6.93 7.54 9.34
9/16/2021 5:30:00 PM 18.11 64.598 0.077 6.93 7.59 9.27
9/16/2021 5:45:00 PM 18.06 64.508 0.077 6.91 7.42 9.22
9/16/2021 6:00:00 PM 18.01 64.418 0.078 6.9 7.41 9.17
9/16/2021 6:15:00 PM 17.96 64.328 0.078 6.86 13.21 9.1
9/16/2021 6:30:00 PM 17.91 64.238 0.078 6.83 8.11 9.05
9/16/2021 6:45:00 PM 17.88 64.184 0.078 6.81 7.6 9.02
9/16/2021 7:00:00 PM 17.84 64.112 0.078 6.82 7.54 8.97
9/16/2021 7:15:00 PM 17.79 64.022 0.078 6.8 7.55 8.96
9/16/2021 7:30:00 PM 17.76 63.968 0.078 6.77 7.55 8.92
9/16/2021 7:45:00 PM 17.72 63.896 0.078 6.76 7.48 8.9
9/16/2021 8:00:00 PM 17.67 63.806 0.078 6.78 7.47 8.9
9/16/2021 8:15:00 PM 17.64 63.752 0.078 6.75 7.47 8.9
9/16/2021 8:30:00 PM 17.59 63.662 0.078 6.74 7.42 8.89
9/16/2021 8:45:00 PM 17.56 63.608 0.079 6.74 7.92 8.89
9/16/2021 9:00:00 PM 17.52 63.536 0.079 6.72 7.61 8.91
9/16/2021 9:15:00 PM 17.5 63.5 0.079 6.73 7.81 8.89
9/16/2021 9:30:00 PM 17.47 63.446 0.079 6.74 7.72 8.9
9/16/2021 9:45:00 PM 17.45 63.41 0.079 6.74 7.65 8.9
9/16/2021 10:00:00 PM 17.42 63.356 0.079 6.74 7.61 8.9
9/16/2021 10:15:00 PM 17.4 63.32 0.079 6.71 7.62 8.89
9/16/2021 10:30:00 PM 17.38 63.284 0.079 6.72 7.77 8.91
9/16/2021 10:45:00 PM 17.36 63.248 0.079 6.74 7.61 8.9
9/16/2021 11:00:00 PM 17.34 63.212 0.079 6.73 7.5 8.91
9/16/2021 11:15:00 PM 17.31 63.158 0.079 6.74 7.61 8.91
9/16/2021 11:30:00 PM 17.29 63.122 0.079 6.71 7.52 8.89
9/16/2021 11:45:00 PM 17.25 63.05 0.079 6.71 7.45 8.9
9/17/2021 12:00:00 AM 17.23 63.014 0.079 6.73 7.48 8.93
9/17/2021 12:15:00 AM 17.22 62.996 0.079 6.71 7.63 8.91
9/17/2021 12:30:00 AM 17.18 62.924 0.079 6.72 7.54 8.91
9/17/2021 12:45:00 AM 17.17 62.906 0.079 6.71 7.55 8.9
9/17/2021 1:00:00 AM 17.14 62.852 0.079 6.73 7.59 8.93
9/17/2021 1:15:00 AM 17.12 62.816 0.079 6.73 7.83 8.92
9/17/2021 1:30:00 AM 17.1 62.78 0.079 6.73 7.68 8.93
9/17/2021 1:45:00 AM 17.08 62.744 0.079 6.73 7.61 8.93
9/17/2021 2:00:00 AM 17.07 62.726 0.079 6.69 7.48 8.93
9/17/2021 2:15:00 AM 17.04 62.672 0.079 6.71 7.45 8.94
9/17/2021 2:30:00 AM 17.03 62.654 0.079 6.73 7.45 8.94
9/17/2021 2:45:00 AM 17.02 62.636 0.079 6.71 7.47 8.94
9/17/2021 3:00:00 AM 17.01 62.618 0.079 6.7 7.56 8.94
9/17/2021 3:15:00 AM 17 62.6 0.079 6.7 7.42 8.94
9/17/2021 3:30:00 AM 16.98 62.564 0.079 6.7 7.44 8.93
9/17/2021 3:45:00 AM 16.97 62.546 0.079 6.7 7.5 8.94
9/17/2021 4:00:00 AM 16.95 62.51 0.079 6.73 7.5 8.97
9/17/2021 4:15:00 AM 16.93 62.474 0.079 6.69 7.44 8.94
9/17/2021 4:30:00 AM 16.91 62.438 0.079 6.7 7.43 8.95
9/17/2021 4:45:00 AM 16.91 62.438 0.079 6.72 7.4 8.94
9/17/2021 5:00:00 AM 16.9 62.42 0.079 6.72 7.42 8.96
9/17/2021 5:15:00 AM 16.9 62.42 0.079 6.72 7.38 8.96
9/17/2021 5:30:00 AM 16.9 62.42 0.079 6.68 7.37 8.94
9/17/2021 5:45:00 AM 16.89 62.402 0.079 6.69 7.43 8.94
9/17/2021 6:00:00 AM 16.88 62.384 0.079 6.72 7.41 8.96
9/17/2021 6:15:00 AM 16.88 62.384 0.079 6.7 7.4 8.97
9/17/2021 6:30:00 AM 16.86 62.348 0.079 6.7 7.38 8.97
9/17/2021 6:45:00 AM 16.86 62.348 0.079 6.69 7.41 8.97
9/17/2021 7:00:00 AM 16.86 62.348 0.079 6.68 7.36 8.94
9/17/2021 7:15:00 AM 16.85 62.33 0.079 6.69 7.66 8.98
9/17/2021 7:30:00 AM 16.85 62.33 0.079 6.7 7.33 8.96
9/17/2021 7:45:00 AM 16.86 62.348 0.079 6.68 7.36 8.98
9/17/2021 8:00:00 AM 16.86 62.348 0.079 6.71 7.38 9.01
9/17/2021 8:15:00 AM 16.87 62.366 0.079 6.72 7.4 9.1
9/17/2021 8:30:00 AM 16.89 62.402 0.079 6.72 7.53 9.11
9/17/2021 8:45:00 AM 16.89 62.402 0.079 6.73 7.43 9.15
9/17/2021 9:00:00 AM 16.91 62.438 0.079 6.74 7.39 9.19
9/17/2021 9:15:00 AM 16.94 62.492 0.079 6.72 7.35 9.23
9/17/2021 9:30:00 AM 16.99 62.582 0.078 6.75 7.39 9.3
9/17/2021 9:45:00 AM 17.02 62.636 0.078 6.77 7.46 9.32
9/17/2021 10:00:00 AM 17.06 62.708 0.078 6.76 7.39 9.37
9/17/2021 10:15:00 AM 17.11 62.798 0.078 6.77 7.38 9.4
9/17/2021 10:30:00 AM 17.19 62.942 0.078 6.8 7.37 9.45
9/17/2021 10:45:00 AM 17.26 63.068 0.078 6.82 7.4 9.45
9/17/2021 11:00:00 AM 17.35 63.23 0.078 6.84 7.36 9.45
9/17/2021 11:15:00 AM 17.49 63.482 0.078 6.85 7.37 9.51
9/17/2021 11:30:00 AM 17.64 63.752 0.078 6.85 7.35 9.47
9/17/2021 11:45:00 AM 17.73 63.914 0.078 6.84 7.34 9.44
9/17/2021 12:00:00 PM 17.79 64.022 0.078 6.87 7.3 9.45
9/17/2021 12:15:00 PM 18.02 64.436 0.078 6.86 7.37 9.45
9/17/2021 12:30:00 PM 18.18 64.724 0.078 6.87 7.33 9.42
9/17/2021 12:45:00 PM 18.24 64.832 0.078 6.83 7.28 9.36
9/17/2021 1:00:00 PM 18.34 65.012 0.078 6.86 7.33 9.4
9/17/2021 1:15:00 PM 18.31 64.958 0.078 6.89 7.38 9.4
9/17/2021 1:30:00 PM 18.32 64.976 0.078 6.9 7.33 9.4
9/17/2021 1:45:00 PM 18.43 65.174 0.078 6.89 7.56 9.39
9/17/2021 2:00:00 PM 18.6 65.48 0.078 6.89 7.34 9.37
9/17/2021 2:15:00 PM 18.73 65.714 0.078 6.89 7.35 9.37
9/17/2021 2:30:00 PM 18.88 65.984 0.078 6.89 7.67 9.33
9/17/2021 2:45:00 PM 18.99 66.182 0.078 6.89 7.28 9.28
9/17/2021 3:00:00 PM 19 66.2 0.078 6.91 7.33 9.27
9/17/2021 3:15:00 PM 19.03 66.254 0.078 6.89 7.29 9.24
9/17/2021 3:30:00 PM 19.02 66.236 0.078 6.92 7.33 9.2
9/17/2021 3:45:00 PM 18.89 66.002 0.078 6.91 7.31 9.15
9/17/2021 4:00:00 PM 18.92 66.056 0.078 6.92 7.24 9.19
9/17/2021 4:15:00 PM 18.9 66.02 0.078 6.91 7.32 9.15
9/17/2021 4:30:00 PM 18.86 65.948 0.078 6.88 7.86 9.12
9/17/2021 4:45:00 PM 18.81 65.858 0.078 6.89 7.35 9.09
9/17/2021 5:00:00 PM 18.77 65.786 0.078 6.87 7.36 9.02
9/17/2021 5:15:00 PM 18.72 65.696 0.078 6.84 7.32 9.03
9/17/2021 5:30:00 PM 18.71 65.67799 0.078 6.84 7.33 9.01
9/17/2021 5:45:00 PM 18.7 65.66 0.078 6.86 7.33 8.98
9/17/2021 6:00:00 PM 18.64 65.552 0.078 6.81 7.43 8.93
9/17/2021 6:15:00 PM 18.6 65.48 0.078 6.82 7.34 8.91
9/17/2021 6:30:00 PM 18.55 65.39 0.078 6.8 7.4 8.85
9/17/2021 6:45:00 PM 18.51 65.318 0.078 6.78 7.35 8.81
9/17/2021 7:00:00 PM 18.46 65.228 0.079 6.76 7.38 8.76
9/17/2021 7:15:00 PM 18.41 65.138 0.079 6.77 7.49 8.73
9/17/2021 7:30:00 PM 18.36 65.048 0.079 6.76 7.39 8.71
9/17/2021 7:45:00 PM 18.32 64.976 0.079 6.75 7.38 8.65
9/17/2021 8:00:00 PM 18.26 64.868 0.079 6.73 7.41 8.65
9/17/2021 8:15:00 PM 18.22 64.796 0.079 6.71 7.43 8.61
9/17/2021 8:30:00 PM 18.18 64.724 0.079 6.71 7.39 8.6
9/17/2021 8:45:00 PM 18.14 64.652 0.079 6.7 7.4 8.6
9/17/2021 9:00:00 PM 18.1 64.58 0.079 6.7 7.4 8.61
9/17/2021 9:15:00 PM 18.06 64.508 0.079 6.72 7.39 8.63
9/17/2021 9:30:00 PM 18.01 64.418 0.079 6.69 7.41 8.63
9/17/2021 9:45:00 PM 17.98 64.364 0.08 6.71 7.44 8.61
9/17/2021 10:00:00 PM 17.94 64.292 0.08 6.69 7.4 8.63
9/17/2021 10:15:00 PM 17.92 64.256 0.079 6.71 7.38 8.61
9/17/2021 10:30:00 PM 17.9 64.22 0.079 6.72 7.36 8.63
9/17/2021 10:45:00 PM 17.87 64.166 0.08 6.73 7.35 8.65
9/17/2021 11:00:00 PM 17.85 64.13 0.08 6.72 7.39 8.65
9/17/2021 11:15:00 PM 17.83 64.094 0.08 6.71 7.36 8.64
9/17/2021 11:30:00 PM 17.78 64.004 0.079 6.72 7.37 8.68
9/17/2021 11:45:00 PM 17.77 63.986 0.08 6.69 7.38 8.65
9/18/2021 12:00:00 AM 17.73 63.914 0.08 6.71 7.41 8.66
9/18/2021 12:15:00 AM 17.71 63.878 0.08 6.73 7.39 8.67
9/18/2021 12:30:00 AM 17.69 63.842 0.08 6.69 7.44 8.66
9/18/2021 12:45:00 AM 17.67 63.806 0.08 6.71 7.4 8.65
9/18/2021 1:00:00 AM 17.64 63.752 0.08 6.71 7.48 8.67
9/18/2021 1:15:00 AM 17.62 63.716 0.08 6.68 7.45 8.66
9/18/2021 1:30:00 AM 17.59 63.662 0.08 6.69 7.45 8.7
9/18/2021 1:45:00 AM 17.57 63.626 0.08 6.7 7.42 8.69
9/18/2021 2:00:00 AM 17.56 63.608 0.08 6.67 7.5 8.67
9/18/2021 2:15:00 AM 17.53 63.554 0.08 6.7 7.46 8.68
9/18/2021 2:30:00 AM 17.52 63.536 0.08 6.7 7.43 8.67
9/18/2021 2:45:00 AM 17.5 63.5 0.08 6.69 7.38 8.68
9/18/2021 3:00:00 AM 17.48 63.464 0.08 6.7 7.37 8.67
9/18/2021 3:15:00 AM 17.45 63.41 0.08 6.7 7.39 8.72
9/18/2021 3:30:00 AM 17.43 63.374 0.08 6.69 7.38 8.72
9/18/2021 3:45:00 AM 17.42 63.356 0.08 6.69 7.41 8.71
9/18/2021 4:00:00 AM 17.41 63.338 0.08 6.7 7.47 8.7
9/18/2021 4:15:00 AM 17.4 63.32 0.08 6.68 7.46 8.7
9/18/2021 4:30:00 AM 17.39 63.302 0.08 6.67 7.41 8.69
9/18/2021 4:45:00 AM 17.37 63.266 0.08 6.67 7.4 8.71
9/18/2021 5:00:00 AM 17.35 63.23 0.08 6.68 7.42 8.72
9/18/2021 5:15:00 AM 17.33 63.194 0.079 6.68 7.43 8.71
9/18/2021 5:30:00 AM 17.33 63.194 0.079 6.69 7.48 8.72
9/18/2021 5:45:00 AM 17.32 63.176 0.079 6.67 7.41 8.69
9/18/2021 6:00:00 AM 17.3 63.14 0.079 6.69 7.41 8.72
9/18/2021 6:15:00 AM 17.3 63.14 0.079 6.68 7.42 8.71
9/18/2021 6:30:00 AM 17.28 63.104 0.079 6.7 7.42 8.74
9/18/2021 6:45:00 AM 17.28 63.104 0.079 6.69 7.46 8.72
9/18/2021 7:00:00 AM 17.27 63.086 0.079 6.7 7.42 8.72
9/18/2021 7:15:00 AM 17.26 63.068 0.079 6.67 7.4 8.76
9/18/2021 7:30:00 AM 17.25 63.05 0.079 6.68 7.42 8.75
9/18/2021 7:45:00 AM 17.24 63.032 0.079 6.7 7.41 8.78
9/18/2021 8:00:00 AM 17.24 63.032 0.079 6.7 7.44 8.81
9/18/2021 8:15:00 AM 17.25 63.05 0.079 6.71 7.43 8.83
9/18/2021 8:30:00 AM 17.25 63.05 0.079 6.71 7.46 8.91
9/18/2021 8:45:00 AM 17.25 63.05 0.079 6.71 7.39 8.95
9/18/2021 9:00:00 AM 17.26 63.068 0.079 6.73 7.42 9.01
9/18/2021 9:15:00 AM 17.35 63.23 0.078 6.76 7.43 9.15
9/18/2021 9:30:00 AM 17.47 63.446 0.078 6.76 7.45 9.17
9/18/2021 9:45:00 AM 17.63 63.734 0.078 6.77 7.37 9.21
9/18/2021 10:00:00 AM 17.82 64.076 0.078 6.8 7.39 9.2
9/18/2021 10:15:00 AM 18 64.4 0.078 6.8 7.38 9.23
9/18/2021 10:30:00 AM 18.17 64.706 0.078 6.77 7.33 9.17
9/18/2021 10:45:00 AM 18.35 65.03 0.079 6.77 7.32 9.19
9/18/2021 11:00:00 AM 18.54 65.372 0.078 6.79 7.35 9.19
9/18/2021 11:15:00 AM 18.69 65.642 0.078 6.8 7.33 9.17
9/18/2021 11:30:00 AM 18.84 65.912 0.078 6.78 7.27 9.13
9/18/2021 11:45:00 AM 18.98 66.164 0.078 6.79 7.27 9.13
9/18/2021 12:00:00 PM 19.02 66.236 0.078 6.82 7.33 9.14
9/18/2021 12:15:00 PM 19.05 66.29 0.078 6.81 7.25 9.1
9/18/2021 12:30:00 PM 19.09 66.362 0.078 6.82 7.24 9.11
9/18/2021 12:45:00 PM 19.16 66.488 0.078 6.83 7.19 9.13
9/18/2021 1:00:00 PM 19.25 66.65 0.078 6.84 7.21 9.12
9/18/2021 1:15:00 PM 19.39 66.902 0.078 6.82 7.25 9.07
9/18/2021 1:30:00 PM 19.47 67.046 0.078 6.84 7.22 9.06
9/18/2021 1:45:00 PM 19.53 67.154 0.078 6.84 7.22 9.02
9/18/2021 2:00:00 PM 19.47 67.046 0.078 6.85 7.19 9.02
9/18/2021 2:15:00 PM 19.47 67.046 0.078 6.86 7.27 9.02
9/18/2021 2:30:00 PM 19.39 66.902 0.078 6.85 7.22 8.93
9/18/2021 2:45:00 PM 19.4 66.92 0.078 6.85 7.3 8.9
9/18/2021 3:00:00 PM 19.56 67.208 0.078 6.87 7.22 8.96
9/18/2021 3:15:00 PM 19.65 67.37 0.078 6.87 7.34 8.95
9/18/2021 3:30:00 PM 19.72 67.496 0.078 6.84 7.24 8.95
9/18/2021 3:45:00 PM 19.72 67.496 0.078 6.86 7.23 8.93
9/18/2021 4:00:00 PM 19.69 67.442 0.078 6.84 7.23 8.91
9/18/2021 4:15:00 PM 19.61 67.298 0.078 6.84 7.28 8.86
9/18/2021 4:30:00 PM 19.59 67.262 0.078 6.87 7.25 8.89
9/18/2021 4:45:00 PM 19.52 67.136 0.078 6.83 7.26 8.86
9/18/2021 5:00:00 PM 19.46 67.028 0.078 6.85 7.23 8.81
9/18/2021 5:15:00 PM 19.42 66.956 0.078 6.84 7.27 8.78
9/18/2021 5:30:00 PM 19.37 66.866 0.078 6.81 7.32 8.76
9/18/2021 5:45:00 PM 19.34 66.812 0.078 6.8 7.24 8.73
9/18/2021 6:00:00 PM 19.31 66.758 0.078 6.79 7.26 8.67
9/18/2021 6:15:00 PM 19.28 66.704 0.078 6.78 7.28 8.62
9/18/2021 6:30:00 PM 19.26 66.668 0.078 6.78 7.26 8.6
9/18/2021 6:45:00 PM 19.2 66.56 0.078 6.76 7.32 8.6
9/18/2021 7:00:00 PM 19.16 66.488 0.078 6.76 7.31 8.53
9/18/2021 7:15:00 PM 19.11 66.398 0.079 6.72 7.33 8.48
9/18/2021 7:30:00 PM 19.04 66.272 0.079 6.74 7.29 8.43
9/18/2021 7:45:00 PM 18.98 66.164 0.079 6.72 7.36 8.4
9/18/2021 8:00:00 PM 18.92 66.056 0.079 6.72 7.39 8.38
9/18/2021 8:15:00 PM 18.86 65.948 0.079 6.71 7.45 8.36
9/18/2021 8:30:00 PM 18.79 65.82201 0.079 6.72 7.37 8.37
9/18/2021 8:45:00 PM 18.73 65.714 0.079 6.69 7.33 8.34
9/18/2021 9:00:00 PM 18.69 65.642 0.079 6.68 7.44 8.31
9/18/2021 9:15:00 PM 18.62 65.516 0.079 6.68 7.33 8.34
9/18/2021 9:30:00 PM 18.58 65.444 0.079 6.7 7.35 8.34
9/18/2021 9:45:00 PM 18.52 65.336 0.079 6.7 7.47 8.39
9/18/2021 10:00:00 PM 18.46 65.228 0.079 6.69 7.37 8.36
9/18/2021 10:15:00 PM 18.42 65.156 0.079 6.66 7.46 8.36
9/18/2021 10:30:00 PM 18.37 65.066 0.079 6.68 7.36 8.35
9/18/2021 10:45:00 PM 18.3 64.94 0.079 6.69 7.38 8.38
9/18/2021 11:00:00 PM 18.24 64.832 0.079 6.67 7.52 8.38
9/18/2021 11:15:00 PM 18.19 64.742 0.08 6.67 7.43 8.38
9/18/2021 11:30:00 PM 18.1 64.58 0.079 6.69 7.43 8.44
9/18/2021 11:45:00 PM 18.05 64.49 0.08 6.66 7.4 8.43
9/19/2021 12:00:00 AM 17.98 64.364 0.079 6.7 7.41 8.45
9/19/2021 12:15:00 AM 17.92 64.256 0.079 6.67 7.41 8.46
9/19/2021 12:30:00 AM 17.86 64.148 0.079 6.65 7.4 8.44
9/19/2021 12:45:00 AM 17.8 64.04 0.08 6.67 7.39 8.48
9/19/2021 1:00:00 AM 17.75 63.95 0.08 6.67 7.53 8.42
9/19/2021 1:15:00 AM 17.7 63.86 0.079 6.64 7.36 8.47
9/19/2021 1:30:00 AM 17.67 63.806 0.08 6.64 7.45 8.42
9/19/2021 1:45:00 AM 17.62 63.716 0.08 6.67 7.45 8.46
9/19/2021 2:00:00 AM 17.59 63.662 0.08 6.67 7.41 8.45
9/19/2021 2:15:00 AM 17.55 63.59 0.08 6.63 7.45 8.47
9/19/2021 2:30:00 AM 17.49 63.482 0.08 6.68 7.43 8.52
9/19/2021 2:45:00 AM 17.46 63.428 0.08 6.64 7.52 8.52
9/19/2021 3:00:00 AM 17.43 63.374 0.08 6.65 7.43 8.54
9/19/2021 3:15:00 AM 17.39 63.302 0.08 6.67 7.42 8.54
9/19/2021 3:30:00 AM 17.37 63.266 0.08 6.68 7.53 8.55
9/19/2021 3:45:00 AM 17.32 63.176 0.079 6.65 7.45 8.6
9/19/2021 4:00:00 AM 17.31 63.158 0.08 6.68 7.42 8.66
9/19/2021 4:15:00 AM 17.28 63.104 0.079 6.69 7.41 8.6
9/19/2021 4:30:00 AM 17.25 63.05 0.079 6.67 7.67 8.58
9/19/2021 4:45:00 AM 17.23 63.014 0.079 6.68 7.47 8.61
9/19/2021 5:00:00 AM 17.21 62.978 0.079 6.69 7.48 8.6
9/19/2021 5:15:00 AM 17.18 62.924 0.08 6.64 7.42 8.61
9/19/2021 5:30:00 AM 17.13 62.834 0.079 6.66 7.5 8.63
9/19/2021 5:45:00 AM 17.11 62.798 0.079 6.7 7.48 8.65
9/19/2021 6:00:00 AM 17.07 62.726 0.079 6.69 7.41 8.67
9/19/2021 6:15:00 AM 17.04 62.672 0.079 6.68 7.56 8.68
9/19/2021 6:30:00 AM 17.02 62.636 0.079 6.66 7.46 8.7
9/19/2021 6:45:00 AM 16.98 62.564 0.079 6.68 7.48 8.66
9/19/2021 7:00:00 AM 16.93 62.474 0.079 6.7 7.49 8.73
9/19/2021 7:15:00 AM 16.91 62.438 0.079 6.67 7.55 8.74
9/19/2021 7:30:00 AM 16.87 62.366 0.079 6.71 7.56 8.78
9/19/2021 7:45:00 AM 16.85 62.33 0.079 6.69 7.52 8.77
9/19/2021 8:00:00 AM 16.82 62.276 0.079 6.71 7.52 8.83
9/19/2021 8:15:00 AM 16.8 62.24 0.079 6.7 7.5 8.82
9/19/2021 8:30:00 AM 16.77 62.186 0.079 6.73 7.53 8.87
9/19/2021 8:45:00 AM 16.75 62.15 0.079 6.73 7.5 8.95
9/19/2021 9:00:00 AM 16.75 62.15 0.079 6.73 7.45 9.01
9/19/2021 9:15:00 AM 16.74 62.132 0.079 6.7 7.46 9.06
9/19/2021 9:30:00 AM 16.73 62.114 0.079 6.72 7.44 9.07
9/19/2021 9:45:00 AM 16.73 62.114 0.079 6.76 7.47 9.13
9/19/2021 10:00:00 AM 16.74 62.132 0.078 6.73 7.5 9.21
9/19/2021 10:15:00 AM 16.76 62.168 0.078 6.81 7.5 9.32
9/19/2021 10:30:00 AM 16.8 62.24 0.078 6.75 7.59 9.3
9/19/2021 10:45:00 AM 16.84 62.312 0.078 6.78 7.49 9.3
9/19/2021 11:00:00 AM 16.92 62.456 0.078 6.8 7.47 9.36
9/19/2021 11:15:00 AM 17.11 62.798 0.078 6.83 7.43 9.43
9/19/2021 11:30:00 AM 17.44 63.392 0.078 6.8 7.38 9.38
9/19/2021 11:45:00 AM 17.75 63.95 0.078 6.82 7.38 9.34
9/19/2021 12:00:00 PM 17.94 64.292 0.078 6.84 7.34 9.31
9/19/2021 12:15:00 PM 18.05 64.49 0.078 6.82 7.29 9.29
9/19/2021 12:30:00 PM 18.09 64.562 0.078 6.83 7.33 9.27
9/19/2021 12:45:00 PM 18.1 64.58 0.078 6.8 7.31 9.17
9/19/2021 1:00:00 PM 18.05 64.49 0.078 6.82 7.33 9.23
9/19/2021 1:15:00 PM 18.11 64.598 0.078 6.76 7.27 9.15
9/19/2021 1:30:00 PM 18.14 64.652 0.078 6.78 7.31 9.1
9/19/2021 1:45:00 PM 18.2 64.76 0.078 6.81 7.3 9.07
9/19/2021 2:00:00 PM 18.3 64.94 0.078 6.76 7.33 9.04
9/19/2021 2:15:00 PM 18.36 65.048 0.078 6.8 7.32 9.03
9/19/2021 2:30:00 PM 18.42 65.156 0.078 6.76 7.35 8.98
9/19/2021 2:45:00 PM 18.44 65.192 0.078 6.79 7.34 9
9/19/2021 3:00:00 PM 18.48 65.264 0.078 6.79 7.33 8.96
9/19/2021 3:15:00 PM 18.49 65.282 0.078 6.78 7.34 8.96
9/19/2021 3:30:00 PM 18.44 65.192 0.078 6.8 7.33 8.94
9/19/2021 3:45:00 PM 18.39 65.102 0.078 6.81 7.36 8.92
9/19/2021 4:00:00 PM 18.38 65.084 0.078 6.77 7.41 8.87
9/19/2021 4:15:00 PM 18.34 65.012 0.078 6.81 7.43 8.92
9/19/2021 4:30:00 PM 18.31 64.958 0.078 6.8 7.39 8.9
9/19/2021 4:45:00 PM 18.22 64.796 0.078 6.81 7.37 8.93
9/19/2021 5:00:00 PM 18.14 64.652 0.078 6.8 7.39 8.87
9/19/2021 5:15:00 PM 18.07 64.526 0.078 6.77 7.37 8.81
9/19/2021 5:30:00 PM 18.02 64.436 0.078 6.77 7.38 8.8
9/19/2021 5:45:00 PM 17.98 64.364 0.078 6.76 7.45 8.77
9/19/2021 6:00:00 PM 17.93 64.274 0.079 6.74 7.43 8.76
9/19/2021 6:15:00 PM 17.91 64.238 0.078 6.73 7.5 8.71
9/19/2021 6:30:00 PM 17.86 64.148 0.078 6.76 7.48 8.7
9/19/2021 6:45:00 PM 17.82 64.076 0.078 6.75 7.54 8.69
9/19/2021 7:00:00 PM 17.78 64.004 0.079 6.73 7.41 8.66
9/19/2021 7:15:00 PM 17.75 63.95 0.079 6.72 7.4 8.59
9/19/2021 7:30:00 PM 17.69 63.842 0.079 6.69 7.49 8.61
9/19/2021 7:45:00 PM 17.63 63.734 0.079 6.68 7.42 8.6
9/19/2021 8:00:00 PM 17.58 63.644 0.079 6.67 7.45 8.56
9/19/2021 8:15:00 PM 17.51 63.518 0.079 6.68 7.49 8.56
9/19/2021 8:30:00 PM 17.45 63.41 0.079 6.68 7.57 8.57
9/19/2021 8:45:00 PM 17.4 63.32 0.079 6.67 7.49 8.52
9/19/2021 9:00:00 PM 17.33 63.194 0.079 6.68 7.48 8.56
9/19/2021 9:15:00 PM 17.26 63.068 0.079 6.67 7.49 8.61
9/19/2021 9:30:00 PM 17.21 62.978 0.079 6.66 7.47 8.52
9/19/2021 9:45:00 PM 17.13 62.834 0.079 6.69 7.44 8.59
9/19/2021 10:00:00 PM 17.06 62.708 0.079 6.66 7.51 8.57
9/19/2021 10:15:00 PM 16.99 62.582 0.079 6.68 7.47 8.61
9/19/2021 10:30:00 PM 16.92 62.456 0.079 6.68 7.45 8.64
9/19/2021 10:45:00 PM 16.86 62.348 0.079 6.69 7.49 8.66
9/19/2021 11:00:00 PM 16.8 62.24 0.079 6.67 7.48 8.7
9/19/2021 11:15:00 PM 16.76 62.168 0.08 6.65 7.48 8.69
9/19/2021 11:30:00 PM 16.7 62.06 0.08 6.66 7.49 8.71
9/19/2021 11:45:00 PM 16.64 61.952 0.08 6.67 7.57 8.67
9/20/2021 12:00:00 AM 16.61 61.898 0.08 6.69 7.49 8.69
9/20/2021 12:15:00 AM 16.55 61.79 0.08 6.68 7.51 8.72
9/20/2021 12:30:00 AM 16.51 61.718 0.08 6.68 7.52 8.75
9/20/2021 12:45:00 AM 16.45 61.61 0.08 6.66 8.02 8.79
9/20/2021 1:00:00 AM 16.39 61.502 0.079 6.68 7.52 8.82
9/20/2021 1:15:00 AM 16.34 61.412 0.079 6.69 7.47 8.88
9/20/2021 1:30:00 AM 16.31 61.358 0.08 6.68 7.49 8.85
9/20/2021 1:45:00 AM 16.27 61.286 0.079 6.7 7.56 8.87
9/20/2021 2:00:00 AM 16.24 61.232 0.08 6.69 7.49 8.88
9/20/2021 2:15:00 AM 16.19 61.142 0.079 6.7 7.52 8.87
9/20/2021 2:30:00 AM 16.17 61.106 0.08 6.66 7.52 8.83
9/20/2021 2:45:00 AM 16.11 60.998 0.08 6.7 7.49 8.85
9/20/2021 3:00:00 AM 16.06 60.908 0.08 6.7 7.47 8.9
9/20/2021 3:15:00 AM 16.03 60.854 0.08 6.69 7.45 8.9
9/20/2021 3:30:00 AM 15.99 60.782 0.08 6.7 7.38 8.92
9/20/2021 3:45:00 AM 15.97 60.746 0.08 6.66 7.47 8.83
9/20/2021 4:00:00 AM 15.9 60.62 0.08 6.69 7.41 8.85
9/20/2021 4:15:00 AM 15.86 60.548 0.08 6.66 7.37 8.92
9/20/2021 4:30:00 AM 15.8 60.44 0.08 6.67 7.48 8.91
9/20/2021 4:45:00 AM 15.75 60.35 0.08 6.67 7.39 8.94
9/20/2021 5:00:00 AM 15.71 60.278 0.08 6.69 7.42 8.97
9/20/2021 5:15:00 AM 15.67 60.206 0.079 6.69 7.38 8.97
9/20/2021 5:30:00 AM 15.63 60.134 0.079 6.7 7.36 9
9/20/2021 5:45:00 AM 15.61 60.098 0.08 6.64 7.4 8.99
9/20/2021 6:00:00 AM 15.56 60.008 0.08 6.66 7.41 8.94
9/20/2021 6:15:00 AM 15.51 59.918 0.08 6.65 7.67 8.95
9/20/2021 6:30:00 AM 15.47 59.846 0.08 6.68 7.47 8.97
9/20/2021 6:45:00 AM 15.41 59.738 0.08 6.66 7.38 9.02
9/20/2021 7:00:00 AM 15.35 59.63 0.079 6.68 7.38 9.06
9/20/2021 7:15:00 AM 15.33 59.594 0.08 6.68 7.37 9.06
9/20/2021 7:30:00 AM 15.28 59.504 0.08 6.67 7.42 9.11
9/20/2021 7:45:00 AM 15.25 59.45 0.079 6.71 7.5 9.11
9/20/2021 8:00:00 AM 15.23 59.414 0.079 6.7 7.42 9.2
9/20/2021 8:15:00 AM 15.22 59.396 0.079 6.74 7.41 9.28
9/20/2021 8:30:00 AM 15.2 59.36 0.079 6.74 7.43 9.37
9/20/2021 8:45:00 AM 15.21 59.378 0.079 6.74 7.4 9.4
9/20/2021 9:00:00 AM 15.26 59.468 0.079 6.74 7.39 9.46
9/20/2021 9:15:00 AM 15.32 59.576 0.079 6.76 7.4 9.51
9/20/2021 9:30:00 AM 15.36 59.648 0.078 6.8 7.36 9.6
9/20/2021 9:45:00 AM 15.47 59.846 0.078 6.8 7.42 9.64
9/20/2021 10:00:00 AM 15.65 60.17 0.078 6.82 7.38 9.63
9/20/2021 10:15:00 AM 15.82 60.476 0.078 6.78 7.4 9.62
9/20/2021 10:30:00 AM 16.02 60.836 0.078 6.8 7.33 9.66
9/20/2021 10:45:00 AM 16.25 61.25 0.078 6.79 7.3 9.59
9/20/2021 11:00:00 AM 16.47 61.646 0.078 6.81 7.29 9.62
9/20/2021 11:15:00 AM 16.67 62.006 0.078 6.79 7.3 9.55
9/20/2021 11:30:00 AM 16.9 62.42 0.078 6.8 7.35 9.58
9/20/2021 11:45:00 AM 17.03 62.654 0.078 6.76 7.37 9.45
9/20/2021 12:00:00 PM 17.15 62.87 0.078 6.8 7.26 9.48
9/20/2021 12:15:00 PM 17.27 63.086 0.078 6.83 7.25 9.48
9/20/2021 12:30:00 PM 17.34 63.212 0.078 6.82 7.22 9.44
9/20/2021 12:45:00 PM 17.39 63.302 0.078 6.82 7.2 9.41
9/20/2021 1:00:00 PM 17.42 63.356 0.078 6.82 7.21 9.44
9/20/2021 1:15:00 PM 17.43 63.374 0.078 6.85 7.22 9.48
9/20/2021 1:30:00 PM 17.49 63.482 0.078 6.88 7.17 9.48
9/20/2021 1:45:00 PM 17.56 63.608 0.078 6.86 7.17 9.46
9/20/2021 2:00:00 PM 17.6 63.68 0.078 6.84 7.26 9.44
9/20/2021 2:15:00 PM 17.79 64.022 0.078 6.83 7.23 9.36
9/20/2021 2:30:00 PM 17.91 64.238 0.078 6.85 7.17 9.32
9/20/2021 2:45:00 PM 17.91 64.238 0.078 6.86 7.2 9.31
9/20/2021 3:00:00 PM 17.96 64.328 0.078 6.87 7.21 9.32
9/20/2021 3:15:00 PM 17.97 64.346 0.077 6.87 7.39 9.29
9/20/2021 3:30:00 PM 18.01 64.418 0.077 6.86 7.73 9.3
9/20/2021 3:45:00 PM 18 64.4 0.077 6.86 7.41 9.3
9/20/2021 4:00:00 PM 18.03 64.454 0.077 6.86 7.38 9.3
9/20/2021 4:15:00 PM 18.06 64.508 0.077 6.88 7.35 9.35
9/20/2021 4:30:00 PM 18.05 64.49 0.077 6.87 7.41 9.29
9/20/2021 4:45:00 PM 18.02 64.436 0.077 6.85 7.27 9.22
9/20/2021 5:00:00 PM 18.03 64.454 0.077 6.85 7.29 9.16
9/20/2021 5:15:00 PM 18.04 64.472 0.077 6.83 7.24 9.16
9/20/2021 5:30:00 PM 18.01 64.418 0.078 6.82 7.21 9.09
9/20/2021 5:45:00 PM 17.97 64.346 0.077 6.83 7.38 9.07
9/20/2021 6:00:00 PM 17.96 64.328 0.078 6.82 7.28 9
9/20/2021 6:15:00 PM 17.92 64.256 0.078 6.81 7.26 8.95
9/20/2021 6:30:00 PM 17.9 64.22 0.078 6.75 7.28 8.91
9/20/2021 6:45:00 PM 17.86 64.148 0.078 6.79 7.29 8.86
9/20/2021 7:00:00 PM 17.81 64.058 0.078 6.79 7.28 8.81
9/20/2021 7:15:00 PM 17.76 63.968 0.079 6.75 7.3 8.77
9/20/2021 7:30:00 PM 17.71 63.878 0.079 6.73 7.3 8.71
9/20/2021 7:45:00 PM 17.66 63.788 0.079 6.69 7.33 8.66
9/20/2021 8:00:00 PM 17.6 63.68 0.079 6.68 7.35 8.63
9/20/2021 8:15:00 PM 17.55 63.59 0.079 6.7 7.3 8.63
9/20/2021 8:30:00 PM 17.51 63.518 0.079 6.7 7.28 8.57
9/20/2021 8:45:00 PM 17.44 63.392 0.079 6.7 7.31 8.61
9/20/2021 9:00:00 PM 17.39 63.302 0.079 6.65 7.32 8.57
9/20/2021 9:15:00 PM 17.34 63.212 0.079 6.69 7.36 8.55
9/20/2021 9:30:00 PM 17.29 63.122 0.08 6.65 7.32 8.52
9/20/2021 9:45:00 PM 17.22 62.996 0.079 6.65 7.32 8.59
9/20/2021 10:00:00 PM 17.17 62.906 0.079 6.66 7.34 8.59
9/20/2021 10:15:00 PM 17.12 62.816 0.08 6.66 7.41 8.61
9/20/2021 10:30:00 PM 17.09 62.762 0.08 6.65 7.43 8.57
9/20/2021 10:45:00 PM 17.03 62.654 0.08 6.66 7.45 8.61
9/20/2021 11:00:00 PM 16.99 62.582 0.08 6.65 7.4 8.58
9/20/2021 11:15:00 PM 16.95 62.51 0.08 6.65 7.43 8.61
9/20/2021 11:30:00 PM 16.92 62.456 0.08 6.63 7.41 8.61
9/20/2021 11:45:00 PM 16.87 62.366 0.08 6.65 7.39 8.61
9/21/2021 12:00:00 AM 16.81 62.258 0.08 6.67 7.38 8.67
9/21/2021 12:15:00 AM 16.76 62.168 0.08 6.66 7.43 8.66
9/21/2021 12:30:00 AM 16.71 62.078 0.08 6.63 7.43 8.69
9/21/2021 12:45:00 AM 16.68 62.024 0.08 6.66 7.4 8.67
9/21/2021 1:00:00 AM 16.63 61.934 0.08 6.65 7.43 8.7
9/21/2021 1:15:00 AM 16.6 61.88 0.08 6.66 7.42 8.69
9/21/2021 1:30:00 AM 16.55 61.79 0.08 6.62 7.43 8.69
9/21/2021 1:45:00 AM 16.49 61.682 0.08 6.65 7.4 8.75
9/21/2021 2:00:00 AM 16.45 61.61 0.08 6.65 7.45 8.77
9/21/2021 2:15:00 AM 16.42 61.556 0.08 6.66 7.57 8.69
9/21/2021 2:30:00 AM 16.38 61.484 0.08 6.63 7.42 8.74
9/21/2021 2:45:00 AM 16.35 61.43 0.08 6.68 7.44 8.78
9/21/2021 3:00:00 AM 16.34 61.412 0.079 6.67 7.44 8.77
9/21/2021 3:15:00 AM 16.34 61.412 0.079 6.62 7.49 8.77
9/21/2021 3:30:00 AM 16.33 61.394 0.079 6.67 7.46 8.76
9/21/2021 3:45:00 AM 16.31 61.358 0.079 6.64 7.51 8.81
9/21/2021 4:00:00 AM 16.31 61.358 0.08 6.66 7.38 8.79
9/21/2021 4:15:00 AM 16.3 61.34 0.08 6.66 7.43 8.8
9/21/2021 4:30:00 AM 16.28 61.304 0.08 6.67 7.45 8.87
9/21/2021 4:45:00 AM 16.26 61.268 0.08 6.64 7.56 8.82
9/21/2021 5:00:00 AM 16.25 61.25 0.08 6.67 7.42 8.84
9/21/2021 5:15:00 AM 16.25 61.25 0.08 6.68 7.39 8.85
9/21/2021 5:30:00 AM 16.23 61.214 0.079 6.67 7.42 8.9
9/21/2021 5:45:00 AM 16.23 61.214 0.079 6.69 7.38 8.91
9/21/2021 6:00:00 AM 16.23 61.214 0.079 6.69 7.35 8.92
9/21/2021 6:15:00 AM 16.2 61.16 0.079 6.67 7.4 8.87
9/21/2021 6:30:00 AM 16.22 61.196 0.08 6.68 7.4 8.84
9/21/2021 6:45:00 AM 16.2 61.16 0.08 6.64 7.42 8.85
9/21/2021 7:00:00 AM 16.19 61.142 0.08 6.65 7.4 8.86
9/21/2021 7:15:00 AM 16.2 61.16 0.08 6.67 7.46 8.85
9/21/2021 7:30:00 AM 16.18 61.124 0.08 6.65 7.45 8.85
9/21/2021 7:45:00 AM 16.18 61.124 0.08 6.68 7.4 8.88
9/21/2021 8:00:00 AM 16.18 61.124 0.08 6.7 7.45 9
9/21/2021 8:15:00 AM 16.18 61.124 0.079 6.72 7.46 9
9/21/2021 8:30:00 AM 16.18 61.124 0.079 6.7 7.43 9.04
9/21/2021 8:45:00 AM 16.2 61.16 0.079 6.69 7.43 9.11
9/21/2021 9:00:00 AM 16.22 61.196 0.079 6.72 7.46 9.17
9/21/2021 9:15:00 AM 16.26 61.268 0.079 6.75 7.45 9.23
9/21/2021 9:30:00 AM 16.37 61.466 0.079 6.77 7.53 9.28
9/21/2021 9:45:00 AM 16.44 61.592 0.079 6.79 7.39 9.38
9/21/2021 10:00:00 AM 16.62 61.916 0.078 6.77 7.39 9.36
9/21/2021 10:15:00 AM 16.85 62.33 0.078 6.79 7.4 9.46
9/21/2021 10:30:00 AM 16.9 62.42 0.078 6.82 7.41 9.46
9/21/2021 10:45:00 AM 16.86 62.348 0.078 6.83 7.39 9.54
9/21/2021 11:00:00 AM 17 62.6 0.078 6.85 7.42 9.55
9/21/2021 11:15:00 AM 17.05 62.69 0.078 6.86 7.34 9.52
9/21/2021 11:30:00 AM 17.01 62.618 0.078 6.87 7.43 9.52
9/21/2021 11:45:00 AM 17.01 62.618 0.078 6.86 7.37 9.48
9/21/2021 12:00:00 PM 17.11 62.798 0.078 6.86 7.35 9.51
9/21/2021 12:15:00 PM 17.15 62.87 0.078 6.83 7.32 9.44
9/21/2021 12:30:00 PM 17.18 62.924 0.078 6.8 7.34 9.37
9/21/2021 12:45:00 PM 17.2 62.96 0.078 6.8 7.47 9.37
9/21/2021 1:00:00 PM 17.24 63.032 0.078 6.85 7.33 9.39
9/21/2021 1:15:00 PM 17.27 63.086 0.078 6.83 7.3 9.31
9/21/2021 1:30:00 PM 17.3 63.14 0.078 6.83 7.34 9.36
9/21/2021 1:45:00 PM 17.3 63.14 0.077 6.85 7.34 9.35
9/21/2021 2:00:00 PM 17.32 63.176 0.077 6.82 7.29 9.35
9/21/2021 2:15:00 PM 17.34 63.212 0.077 6.83 7.32 9.37
9/21/2021 2:30:00 PM 17.42 63.356 0.077 6.85 7.29 9.36
9/21/2021 2:45:00 PM 17.43 63.374 0.078 6.82 7.33 9.33
9/21/2021 3:00:00 PM 17.44 63.392 0.078 6.85 7.39 9.32
9/21/2021 3:15:00 PM 17.46 63.428 0.078 6.82 7.34 9.28
9/21/2021 3:30:00 PM 17.51 63.518 0.078 6.83 7.32 9.31
9/21/2021 3:45:00 PM 17.51 63.518 0.078 6.81 7.36 9.29
9/21/2021 4:00:00 PM 17.52 63.536 0.078 6.84 7.35 9.28
9/21/2021 4:15:00 PM 17.54 63.572 0.078 6.86 7.36 9.3
9/21/2021 4:30:00 PM 17.58 63.644 0.078 6.86 7.32 9.27
9/21/2021 4:45:00 PM 17.59 63.662 0.078 6.86 7.37 9.29
9/21/2021 5:00:00 PM 17.59 63.662 0.078 6.84 7.39 9.21
9/21/2021 5:15:00 PM 17.59 63.662 0.078 6.83 7.33 9.2
9/21/2021 5:30:00 PM 17.6 63.68 0.078 6.83 7.38 9.17
9/21/2021 5:45:00 PM 17.58 63.644 0.078 6.81 7.28 9.13
9/21/2021 6:00:00 PM 17.56 63.608 0.078 6.81 7.33 9.15
9/21/2021 6:15:00 PM 17.55 63.59 0.078 6.81 7.3 9.11
9/21/2021 6:30:00 PM 17.52 63.536 0.078 6.82 7.35 9.05
9/21/2021 6:45:00 PM 17.5 63.5 0.078 6.79 7.45 8.94
9/21/2021 7:00:00 PM 17.47 63.446 0.078 6.76 7.3 8.82
9/21/2021 7:15:00 PM 17.45 63.41 0.078 6.73 7.34 8.75
9/21/2021 7:30:00 PM 17.41 63.338 0.079 6.73 7.56 8.76
9/21/2021 7:45:00 PM 17.38 63.284 0.079 6.72 7.36 8.71
9/21/2021 8:00:00 PM 17.36 63.248 0.079 6.69 7.33 8.68
9/21/2021 8:15:00 PM 17.35 63.23 0.079 6.68 7.32 8.6
9/21/2021 8:30:00 PM 17.33 63.194 0.079 6.7 7.4 8.57
9/21/2021 8:45:00 PM 17.32 63.176 0.079 6.65 7.35 8.47
9/21/2021 9:00:00 PM 17.31 63.158 0.079 6.65 7.33 8.54
9/21/2021 9:15:00 PM 17.3 63.14 0.079 6.62 7.54 8.4
9/21/2021 9:30:00 PM 17.29 63.122 0.079 6.61 7.42 8.39
9/21/2021 9:45:00 PM 17.28 63.104 0.079 6.65 7.6 8.43
9/21/2021 10:00:00 PM 17.25 63.05 0.079 6.65 7.41 8.45
9/21/2021 10:15:00 PM 17.25 63.05 0.079 6.64 7.37 8.38
9/21/2021 10:30:00 PM 17.23 63.014 0.079 6.65 7.4 8.41
9/21/2021 10:45:00 PM 17.21 62.978 0.079 6.64 7.5 8.43
9/21/2021 11:00:00 PM 17.21 62.978 0.079 6.63 7.67 8.45
9/21/2021 11:15:00 PM 17.19 62.942 0.078 6.65 7.5 8.52
9/21/2021 11:30:00 PM 17.21 62.978 0.079 6.62 7.53 8.42
9/21/2021 11:45:00 PM 17.18 62.924 0.078 6.65 7.7 8.47
9/22/2021 12:00:00 AM 17.17 62.906 0.078 6.64 7.45 8.48
9/22/2021 12:15:00 AM 17.15 62.87 0.078 6.63 7.6 8.56
9/22/2021 12:30:00 AM 17.12 62.816 0.078 6.65 7.51 8.61
9/22/2021 12:45:00 AM 17.12 62.816 0.078 6.68 7.43 8.61
9/22/2021 1:00:00 AM 17.12 62.816 0.078 6.66 7.41 8.6
9/22/2021 1:15:00 AM 17.11 62.798 0.078 6.65 7.46 8.58
9/22/2021 1:30:00 AM 17.1 62.78 0.078 6.69 7.38 8.6
9/22/2021 1:45:00 AM 17.1 62.78 0.078 6.64 7.47 8.57
9/22/2021 2:00:00 AM 17.09 62.762 0.078 6.68 7.38 8.57
9/22/2021 2:15:00 AM 17.1 62.78 0.078 6.64 7.39 8.54
9/22/2021 2:30:00 AM 17.08 62.744 0.078 6.69 7.33 8.54
9/22/2021 2:45:00 AM 17.07 62.726 0.078 6.68 7.45 8.59
9/22/2021 3:00:00 AM 17.05 62.69 0.078 6.66 7.33 8.67
9/22/2021 3:15:00 AM 17.05 62.69 0.078 6.69 7.31 8.64
9/22/2021 3:30:00 AM 17.04 62.672 0.078 6.7 7.33 8.64
9/22/2021 3:45:00 AM 17.04 62.672 0.078 6.69 7.33 8.64
9/22/2021 4:00:00 AM 17.02 62.636 0.078 6.7 7.32 8.64
9/22/2021 4:15:00 AM 17.01 62.618 0.078 6.69 7.38 8.7
9/22/2021 4:30:00 AM 17 62.6 0.078 6.72 7.36 8.72
9/22/2021 4:45:00 AM 16.98 62.564 0.078 6.69 8.14 8.74
9/22/2021 5:00:00 AM 16.96 62.528 0.078 6.7 7.34 8.76
9/22/2021 5:15:00 AM 16.95 62.51 0.078 6.7 7.46 8.71
9/22/2021 5:30:00 AM 16.95 62.51 0.078 6.7 7.47 8.72
9/22/2021 5:45:00 AM 16.94 62.492 0.078 6.73 7.47 8.75
9/22/2021 6:00:00 AM 16.94 62.492 0.078 6.72 7.46 8.72
9/22/2021 6:15:00 AM 16.94 62.492 0.078 6.72 7.4 8.73
9/22/2021 6:30:00 AM 16.92 62.456 0.078 6.72 7.42 8.77
9/22/2021 6:45:00 AM 16.92 62.456 0.078 6.7 7.43 8.74
9/22/2021 7:00:00 AM 16.92 62.456 0.078 6.69 7.47 8.71
9/22/2021 7:15:00 AM 16.91 62.438 0.078 6.69 7.46 8.73
9/22/2021 7:30:00 AM 16.91 62.438 0.078 6.72 7.4 8.74
9/22/2021 7:45:00 AM 16.9 62.42 0.078 6.73 7.74 8.75
9/22/2021 8:00:00 AM 16.91 62.438 0.078 6.71 7.29 8.78
9/22/2021 8:15:00 AM 16.93 62.474 0.078 6.69 7.29 8.75
9/22/2021 8:30:00 AM 16.93 62.474 0.079 6.69 7.27 8.74
9/22/2021 8:45:00 AM 16.93 62.474 0.078 6.73 7.22 8.8
9/22/2021 9:00:00 AM 16.93 62.474 0.079 6.73 7.15 8.81
9/22/2021 9:15:00 AM 16.93 62.474 0.079 6.75 7.27 8.87
9/22/2021 9:30:00 AM 16.95 62.51 0.078 6.76 7.22 8.92
9/22/2021 9:45:00 AM 16.98 62.564 0.078 6.75 7.24 9
9/22/2021 10:00:00 AM 17.03 62.654 0.078 6.79 7.24 9.05
9/22/2021 10:15:00 AM 17.09 62.762 0.079 6.76 7.23 9.07
9/22/2021 10:30:00 AM 17.13 62.834 0.079 6.76 7.22 9.07
9/22/2021 10:45:00 AM 17.16 62.888 0.079 6.77 7.22 9.09
9/22/2021 11:00:00 AM 17.17 62.906 0.079 6.79 7.2 9.1
9/22/2021 11:15:00 AM 17.23 63.014 0.079 6.81 7.17 9.16
9/22/2021 11:30:00 AM 17.27 63.086 0.079 6.83 7.2 9.17
9/22/2021 11:45:00 AM 17.29 63.122 0.079 6.84 7.21 9.18
9/22/2021 12:00:00 PM 17.32 63.176 0.079 6.82 7.21 9.2
9/22/2021 12:15:00 PM 17.38 63.284 0.078 6.83 7.23 9.2
9/22/2021 12:30:00 PM 17.44 63.392 0.078 6.85 7.21 9.28
9/22/2021 12:45:00 PM 17.47 63.446 0.078 6.87 7.24 9.29
9/22/2021 1:00:00 PM 17.56 63.608 0.078 6.88 7.2 9.28
9/22/2021 1:15:00 PM 17.59 63.662 0.078 6.86 7.29 9.21
9/22/2021 1:30:00 PM 17.58 63.644 0.078 6.83 7.31 9.18
9/22/2021 1:45:00 PM 17.58 63.644 0.078 6.84 7.53 9.15
9/22/2021 2:00:00 PM 17.59 63.662 0.078 6.86 7.44 9.15
9/22/2021 2:15:00 PM 17.66 63.788 0.078 6.86 7.42 9.16
9/22/2021 2:30:00 PM 17.7 63.86 0.078 6.89 7.39 9.22
9/22/2021 2:45:00 PM 17.81 64.058 0.078 6.9 7.46 9.28
9/22/2021 3:00:00 PM 17.92 64.256 0.078 6.88 7.42 9.27
9/22/2021 3:15:00 PM 17.99 64.382 0.078 6.92 7.47 9.25
9/22/2021 3:30:00 PM 18.02 64.436 0.078 6.93 7.61 9.25
9/22/2021 3:45:00 PM 17.99 64.382 0.078 6.91 8.46 9.23
9/22/2021 4:00:00 PM 18 64.4 0.078 6.89 7.73 9.19
9/22/2021 4:15:00 PM 17.99 64.382 0.078 6.89 7.97 9.12
9/22/2021 4:30:00 PM 17.99 64.382 0.078 6.87 7.73 9.06
9/22/2021 4:45:00 PM 17.99 64.382 0.078 6.9 7.73 9.07
9/22/2021 5:00:00 PM 18.01 64.418 0.078 6.92 7.48 9.07
9/22/2021 5:15:00 PM 18.03 64.454 0.078 6.9 7.59 9.06
9/22/2021 5:30:00 PM 18.02 64.436 0.078 6.91 7.57 9.04
9/22/2021 5:45:00 PM 17.99 64.382 0.078 6.87 43.05 9.01
9/22/2021 6:00:00 PM 17.98 64.364 0.078 6.88 8.22 9
9/22/2021 6:15:00 PM 17.95 64.31 0.078 6.85 8.23 8.93
9/22/2021 6:30:00 PM 17.92 64.256 0.078 6.85 10.79 8.9
9/22/2021 6:45:00 PM 17.91 64.238 0.078 6.85 10.96 8.86
9/22/2021 7:00:00 PM 17.91 64.238 0.078 6.83 9.67 8.83
9/22/2021 7:15:00 PM 17.88 64.184 0.078 6.82 8.41 8.82
9/22/2021 7:30:00 PM 17.87 64.166 0.079 6.83 7.75 8.8
9/22/2021 7:45:00 PM 17.87 64.166 0.078 6.82 14.57 8.79
9/22/2021 8:00:00 PM 17.87 64.166 0.078 6.84 10.85 8.78
9/22/2021 8:15:00 PM 17.85 64.13 0.079 6.82 10.71 8.78
9/22/2021 8:30:00 PM 17.85 64.13 0.079 6.82 8.76 8.8
9/22/2021 8:45:00 PM 17.85 64.13 0.079 6.83 9.23 8.78
9/22/2021 9:00:00 PM 17.85 64.13 0.079 6.82 8.15 8.79
9/22/2021 9:15:00 PM 17.86 64.148 0.079 6.82 10.09 8.78
9/22/2021 9:30:00 PM 17.86 64.148 0.079 6.78 15.81 8.79
9/22/2021 9:45:00 PM 17.84 64.112 0.079 6.79 9.33 8.77
9/22/2021 10:00:00 PM 17.83 64.094 0.079 6.79 9.6 8.76
9/22/2021 10:15:00 PM 17.84 64.112 0.079 6.79 9.66 8.78
9/22/2021 10:30:00 PM 17.78 64.004 0.079 6.8 16.87 8.78
9/22/2021 10:45:00 PM 17.73 63.914 0.079 6.78 8.4 8.82
9/22/2021 11:00:00 PM 17.69 63.842 0.079 6.79 8.29 8.84
9/22/2021 11:15:00 PM 17.67 63.806 0.079 6.77 7.9 8.86
9/22/2021 11:30:00 PM 17.63 63.734 0.079 6.74 7.86 8.84
9/22/2021 11:45:00 PM 17.59 63.662 0.078 6.77 7.9 8.88
9/23/2021 12:00:00 AM 17.54 63.572 0.078 6.77 7.99 8.89
9/23/2021 12:15:00 AM 17.5 63.5 0.078 6.77 8.01 8.89
9/23/2021 12:30:00 AM 17.45 63.41 0.078 6.8 7.87 8.92
9/23/2021 12:45:00 AM 17.41 63.338 0.078 6.8 8.15 8.96
9/23/2021 1:00:00 AM 17.36 63.248 0.077 6.82 8.32 8.99
9/23/2021 1:15:00 AM 17.33 63.194 0.077 6.81 8.83 8.97
9/23/2021 1:30:00 AM 17.28 63.104 0.077 6.84 9.72 8.97
9/23/2021 1:45:00 AM 17.22 62.996 0.076 6.84 10.58 9
9/23/2021 2:00:00 AM 17.18 62.924 0.075 6.85 10.77 9.02
9/23/2021 2:15:00 AM 17.13 62.834 0.075 6.86 11.06 9.06
9/23/2021 2:30:00 AM 17.08 62.744 0.075 6.88 12.14 9.1
9/23/2021 2:45:00 AM 17.02 62.636 0.074 6.89 14.52 9.15
9/23/2021 3:00:00 AM 16.96 62.528 0.074 6.89 18.2 9.18
9/23/2021 3:15:00 AM 16.9 62.42 0.073 6.87 20.56 9.2
9/23/2021 3:30:00 AM 16.82 62.276 0.071 6.87 29.4 9.24
9/23/2021 3:45:00 AM 16.75 62.15 0.071 6.87 34.14 9.29
9/23/2021 4:00:00 AM 16.7 62.06 0.072 6.84 37.74 9.31
9/23/2021 4:15:00 AM 16.65 61.97 0.073 6.82 41.69 9.34
9/23/2021 4:30:00 AM 16.59 61.862 0.072 6.84 48.17 9.37
9/23/2021 4:45:00 AM 16.52 61.736 0.072 6.8 56.52 9.4
9/23/2021 5:00:00 AM 16.47 61.646 0.07 6.75 66.48 9.42
9/23/2021 5:15:00 AM 16.41 61.538 0.069 6.71 78.59 9.43
9/23/2021 5:30:00 AM 16.36 61.448 0.068 6.68 79.82 9.45
9/23/2021 5:45:00 AM 16.31 61.358 0.066 6.65 81.41 9.47
9/23/2021 6:00:00 AM 16.26 61.268 0.063 6.6 93.47 9.5
9/23/2021 6:15:00 AM 16.22 61.196 0.061 6.56 95.44 9.5
9/23/2021 6:30:00 AM 16.18 61.124 0.059 6.55 99.33 9.48
9/23/2021 6:45:00 AM 16.14 61.052 0.057 6.5 100.68 9.51
9/23/2021 7:00:00 AM 16.11 60.998 0.055 6.5 94.75 9.51
9/23/2021 7:15:00 AM 16.06 60.908 0.054 6.45 91.92 9.57
9/23/2021 7:30:00 AM 16.03 60.854 0.053 6.41 649.01 9.58
9/23/2021 7:45:00 AM 16 60.8 0.051 6.45 149.6 9.59
9/23/2021 8:00:00 AM 15.97 60.746 0.05 6.41 119.8 9.6
9/23/2021 8:15:00 AM 15.95 60.71 0.048 6.44 116.2 9.52
9/23/2021 8:30:00 AM 15.94 60.692 0.047 6.38 113.65 9.38
9/23/2021 8:45:00 AM 15.93 60.674 0.047 6.34 106.41 9.54
9/23/2021 9:00:00 AM 15.91 60.638 0.046 6.32 106.76 9.63
9/23/2021 9:15:00 AM 15.91 60.638 0.046 6.34 90.2 9.61
9/23/2021 9:30:00 AM 15.9 60.62 0.046 6.31 81.62 9.61
9/23/2021 9:45:00 AM 15.89 60.602 0.045 6.31 68.36 9.6
9/23/2021 10:00:00 AM 15.88 60.584 0.045 6.31 63.22 9.61
9/23/2021 10:15:00 AM 15.88 60.584 0.045 6.35 60.11 9.58
9/23/2021 10:30:00 AM 15.88 60.584 0.045 6.34 54.07 9.59
9/23/2021 10:45:00 AM 15.91 60.638 0.045 6.36 50.04 9.48
9/23/2021 11:00:00 AM 15.89 60.602 0.044 6.34 47.06 9.48
9/23/2021 11:15:00 AM 15.88 60.584 0.044 6.33 42.08 9.49
9/23/2021 11:30:00 AM 15.89 60.602 0.045 6.31 39.08 9.5
9/23/2021 11:45:00 AM 15.89 60.602 0.045 6.35 36.63 9.53
9/23/2021 12:00:00 PM 15.89 60.602 0.045 6.37 34.77 9.41
9/23/2021 12:15:00 PM 15.9 60.62 0.045 6.36 35.24 9.48
9/23/2021 12:30:00 PM 15.92 60.656 0.045 6.39 30.51 9.38
9/23/2021 12:45:00 PM 15.95 60.71 0.045 6.42 29.67 9.32
9/23/2021 1:00:00 PM 15.96 60.728 0.045 6.38 27.79 9.42
9/23/2021 1:15:00 PM 15.95 60.71 0.045 6.41 26.75 9.39
9/23/2021 1:30:00 PM 15.92 60.656 0.045 6.4 26.38 9.45
9/23/2021 1:45:00 PM 15.9 60.62 0.045 6.4 26.19 9.39
9/23/2021 2:00:00 PM 15.87 60.566 0.046 6.42 23.89 9.45
9/23/2021 2:15:00 PM 15.85 60.53 0.046 6.46 23.99 9.39
9/23/2021 2:30:00 PM 15.8 60.44 0.046 6.46 22.67 9.39
9/23/2021 2:45:00 PM 15.78 60.404 0.046 6.46 22.26 9.45
9/23/2021 3:00:00 PM 15.75 60.35 0.046 6.46 21.13 9.5
9/23/2021 3:15:00 PM 15.71 60.278 0.046 6.45 21.08 9.51
9/23/2021 3:30:00 PM 15.68 60.224 0.046 6.44 20.27 9.54
9/23/2021 3:45:00 PM 15.63 60.134 0.046 6.49 19.73 9.54
9/23/2021 4:00:00 PM 15.57 60.026 0.046 6.48 19.42 9.57
9/23/2021 4:15:00 PM 15.52 59.936 0.047 6.49 19.54 9.48
9/23/2021 4:30:00 PM 15.46 59.828 0.047 6.46 20.06 9.63
9/23/2021 4:45:00 PM 15.41 59.738 0.047 6.46 19.37 9.6
9/23/2021 5:00:00 PM 15.35 59.63 0.047 6.47 18.54 9.59
9/23/2021 5:15:00 PM 15.28 59.504 0.047 6.48 17.48 9.67
9/23/2021 5:30:00 PM 15.22 59.396 0.047 6.48 17.58 9.68
9/23/2021 5:45:00 PM 15.15 59.27 0.047 6.5 17.03 9.69
9/23/2021 6:00:00 PM 15.09 59.162 0.047 6.51 16.94 9.68
9/23/2021 6:15:00 PM 15.03 59.054 0.047 6.52 16.21 9.73
9/23/2021 6:30:00 PM 14.95 58.91 0.047 6.44 17.02 9.72
9/23/2021 6:45:00 PM 14.88 58.784 0.047 6.52 18.64 9.71
9/23/2021 7:00:00 PM 14.81 58.658 0.047 6.51 16.63 9.71
9/23/2021 7:15:00 PM 14.74 58.532 0.047 6.52 15.96 9.76
9/23/2021 7:30:00 PM 14.67 58.406 0.047 6.53 15.87 9.81
9/23/2021 7:45:00 PM 14.61 58.298 0.047 6.48 15.99 9.81
9/23/2021 8:00:00 PM 14.54 58.172 0.047 6.51 15.2 9.83
9/23/2021 8:15:00 PM 14.47 58.046 0.047 6.52 15.13 9.84
9/23/2021 8:30:00 PM 14.41 57.938 0.047 6.52 14.78 9.86
9/23/2021 8:45:00 PM 14.35 57.83 0.047 6.48 15.29 9.85
9/23/2021 9:00:00 PM 14.29 57.722 0.047 6.48 15.02 9.88
9/23/2021 9:15:00 PM 14.24 57.632 0.047 6.48 14.81 9.9
9/23/2021 9:30:00 PM 14.19 57.542 0.048 6.54 14.48 9.9
9/23/2021 9:45:00 PM 14.14 57.452 0.048 6.5 15.39 9.94
9/23/2021 10:00:00 PM 14.09 57.362 0.048 6.51 14.42 9.95
9/23/2021 10:15:00 PM 14.03 57.254 0.048 6.51 14.41 9.95
9/23/2021 10:30:00 PM 13.98 57.164 0.048 6.53 14.56 9.96
9/23/2021 10:45:00 PM 13.93 57.074 0.048 6.48 14.37 9.97
9/23/2021 11:00:00 PM 14.06 57.308 0.048 6.48 13.93 9.92
9/23/2021 11:15:00 PM 14.01 57.218 0.048 6.5 14.13 9.94
9/23/2021 11:30:00 PM 13.97 57.146 0.048 6.5 14.48 9.95
9/23/2021 11:45:00 PM 13.93 57.074 0.048 6.5 13.93 9.98
9/24/2021 12:00:00 AM 13.9 57.02 0.048 6.5 13.53 9.97
9/24/2021 12:15:00 AM 13.86 56.948 0.048 6.51 13.16 9.99
9/24/2021 12:30:00 AM 13.82 56.876 0.048 6.53 13.88 10
9/24/2021 12:45:00 AM 13.77 56.786 0.048 6.55 13.54 10
9/24/2021 1:00:00 AM 13.73 56.714 0.048 6.49 13.28 10.03
9/24/2021 1:15:00 AM 13.69 56.642 0.048 6.56 13.2 10.02
9/24/2021 1:30:00 AM 13.64 56.552 0.048 6.54 13.43 10.04
9/24/2021 1:45:00 AM 13.61 56.498 0.048 6.52 13.37 10.06
9/24/2021 2:00:00 AM 13.57 56.426 0.048 6.55 13.18 10.07
9/24/2021 2:15:00 AM 13.53 56.354 0.048 6.54 12.92 10.08
9/24/2021 2:30:00 AM 13.5 56.3 0.048 6.53 13.01 10.08
9/24/2021 2:45:00 AM 13.47 56.246 0.048 6.55 12.82 10.1
9/24/2021 3:00:00 AM 13.44 56.192 0.048 6.55 12.98 10.11
9/24/2021 3:15:00 AM 13.41 56.138 0.048 6.47 12.77 10.11
9/24/2021 3:30:00 AM 13.37 56.066 0.048 6.5 12.92 10.11
9/24/2021 3:45:00 AM 13.34 56.012 0.048 6.53 12.54 10.12
9/24/2021 4:00:00 AM 13.31 55.958 0.048 6.55 12.82 10.14
9/24/2021 4:15:00 AM 13.27 55.886 0.048 6.55 12.46 10.15
9/24/2021 4:30:00 AM 13.24 55.832 0.048 6.54 12.54 10.15
9/24/2021 4:45:00 AM 13.2 55.76 0.048 6.56 12.18 10.16
9/24/2021 5:00:00 AM 13.17 55.706 0.048 6.55 12.28 10.16
9/24/2021 5:15:00 AM 13.13 55.634 0.048 6.5 12.15 10.18
9/24/2021 5:30:00 AM 13.1 55.58 0.048 6.56 12.25 10.19
9/24/2021 5:45:00 AM 13.06 55.508 0.048 6.49 12.11 10.19
9/24/2021 6:00:00 AM 13.01 55.418 0.048 6.53 11.56 10.2
9/24/2021 6:15:00 AM 12.97 55.346 0.048 6.54 11.74 10.22
9/24/2021 6:30:00 AM 12.93 55.274 0.048 6.51 11.83 10.23
9/24/2021 6:45:00 AM 12.89 55.202 0.048 6.53 11.82 10.23
9/24/2021 7:00:00 AM 12.85 55.13 0.048 6.51 11.92 10.24
9/24/2021 7:15:00 AM 12.81 55.058 0.048 6.53 11.62 10.25
9/24/2021 7:30:00 AM 12.78 55.004 0.048 6.54 12.01 10.27
9/24/2021 7:45:00 AM 12.76 54.968 0.048 6.55 11.57 10.26
9/24/2021 8:00:00 AM 12.74 54.932 0.048 6.55 11.45 10.28
9/24/2021 8:15:00 AM 12.72 54.896 0.048 6.57 11.58 10.29
9/24/2021 8:30:00 AM 12.72 54.896 0.048 6.51 11.34 10.32
9/24/2021 8:45:00 AM 12.72 54.896 0.048 6.57 11.46 10.32
9/24/2021 9:00:00 AM 12.72 54.896 0.048 6.56 11.23 10.33
9/24/2021 9:15:00 AM 12.74 54.932 0.048 6.51 10.88 10.32
9/24/2021 9:30:00 AM 12.76 54.968 0.048 6.54 11.54 10.32
9/24/2021 9:45:00 AM 12.78 55.004 0.049 6.56 10.99 10.3
9/24/2021 10:00:00 AM 12.83 55.094 0.048 6.58 10.94 10.3
9/24/2021 10:15:00 AM 12.87 55.166 0.049 6.59 11.05 10.31
9/24/2021 10:30:00 AM 12.92 55.256 0.049 6.6 10.73 10.28
9/24/2021 10:45:00 AM 12.98 55.364 0.049 6.57 11.05 10.29
9/24/2021 11:00:00 AM 13.05 55.49 0.049 6.59 10.96 10.28
9/24/2021 11:15:00 AM 13.11 55.598 0.049 6.55 10.86 10.25
9/24/2021 11:30:00 AM 13.19 55.742 0.049 6.56 10.61 10.24
9/24/2021 11:45:00 AM 13.26 55.868 0.049 6.61 10.82 10.23
9/24/2021 12:00:00 PM 13.32 55.976 0.049 6.56 10.54 10.21
9/24/2021 12:15:00 PM 13.38 56.084 0.049 6.6 10.5 10.21
9/24/2021 12:30:00 PM 13.44 56.192 0.049 6.55 10.58 10.19
9/24/2021 12:45:00 PM 13.5 56.3 0.049 6.59 10.44 10.17
9/24/2021 1:00:00 PM 13.56 56.408 0.049 6.61 10.42 10.13
9/24/2021 1:15:00 PM 13.59 56.462 0.049 6.56 10.19 10.13
9/24/2021 1:30:00 PM 13.65 56.57 0.049 6.61 10.22 10.13
9/24/2021 1:45:00 PM 13.69 56.642 0.049 6.61 10.07 10.11
9/24/2021 2:00:00 PM 13.77 56.786 0.049 6.59 10.13 10.08
9/24/2021 2:15:00 PM 13.82 56.876 0.049 6.61 10.28 10.07
9/24/2021 2:30:00 PM 13.91 57.038 0.049 6.6 10.16 10.06
9/24/2021 2:45:00 PM 13.96 57.128 0.049 6.62 10.2 10.05
9/24/2021 3:00:00 PM 13.99 57.182 0.049 6.56 10.35 10.04
9/24/2021 3:15:00 PM 14.03 57.254 0.049 6.59 9.97 10.02
9/24/2021 3:30:00 PM 14.02 57.236 0.049 6.58 10.46 10.01
9/24/2021 3:45:00 PM 14.04 57.272 0.049 6.6 9.98 10.01
9/24/2021 4:00:00 PM 14.08 57.344 0.049 6.61 9.95 9.99
9/24/2021 4:15:00 PM 14.1 57.38 0.049 6.61 9.77 9.99
9/24/2021 4:30:00 PM 14.1 57.38 0.049 6.55 9.87 9.98
9/24/2021 4:45:00 PM 14.1 57.38 0.049 6.61 9.61 9.96
9/24/2021 5:00:00 PM 14.1 57.38 0.049 6.58 9.84 9.97
9/24/2021 5:15:00 PM 14.11 57.398 0.049 6.56 9.75 9.98
9/24/2021 5:30:00 PM 14.11 57.398 0.049 6.6 9.74 9.95
9/24/2021 5:45:00 PM 14.1 57.38 0.049 6.57 9.9 9.95
9/24/2021 6:00:00 PM 14.09 57.362 0.049 6.57 9.8 9.95
9/24/2021 6:15:00 PM 14.09 57.362 0.049 6.6 10.22 9.95
9/24/2021 6:30:00 PM 14.07 57.326 0.049 6.57 9.64 9.94
9/24/2021 6:45:00 PM 14.05 57.29 0.049 6.56 9.58 9.92
9/24/2021 7:00:00 PM 14.03 57.254 0.049 6.59 9.49 9.94
9/24/2021 7:15:00 PM 14 57.2 0.049 6.59 9.34 9.92
9/24/2021 7:30:00 PM 13.97 57.146 0.049 6.59 9.49 9.96
9/24/2021 7:45:00 PM 13.94 57.092 0.049 6.58 9.27 9.97
9/24/2021 8:00:00 PM 13.92 57.056 0.049 6.59 9.84 9.97
9/24/2021 8:15:00 PM 13.88 56.984 0.049 6.59 9.61 9.98
9/24/2021 8:30:00 PM 13.85 56.93 0.049 6.58 9.58 9.99
9/24/2021 8:45:00 PM 13.82 56.876 0.049 6.59 9.47 9.98
9/24/2021 9:00:00 PM 13.78 56.804 0.049 6.56 9.56 9.99
9/24/2021 9:15:00 PM 13.74 56.732 0.05 6.54 10.24 9.98
9/24/2021 9:30:00 PM 13.7 56.66 0.05 6.55 9.54 10.02
9/24/2021 9:45:00 PM 13.65 56.57 0.05 6.55 9.77 10.04
9/24/2021 10:00:00 PM 13.61 56.498 0.05 6.59 9.99 10.05
9/24/2021 10:15:00 PM 13.56 56.408 0.05 6.57 9.81 10.02
9/24/2021 10:30:00 PM 13.51 56.318 0.05 6.58 9.83 10.07
9/24/2021 10:45:00 PM 13.46 56.228 0.05 6.56 9.51 10.07
9/24/2021 11:00:00 PM 13.41 56.138 0.05 6.57 9.77 10.1
9/24/2021 11:15:00 PM 13.37 56.066 0.05 6.53 9.44 10.06
9/24/2021 11:30:00 PM 13.31 55.958 0.05 6.56 9.52 10.11
9/24/2021 11:45:00 PM 13.27 55.886 0.05 6.53 9.49 10.13
9/25/2021 12:00:00 AM 13.22 55.796 0.05 6.54 9.69 10.13
9/25/2021 12:15:00 AM 13.18 55.724 0.05 6.57 9.6 10.15
9/25/2021 12:30:00 AM 13.13 55.634 0.05 6.57 9.73 10.15
9/25/2021 12:45:00 AM 13.08 55.544 0.05 6.53 9.51 10.17
9/25/2021 1:00:00 AM 13.02 55.436 0.05 6.58 9.55 10.17
9/25/2021 1:15:00 AM 12.97 55.346 0.05 6.58 9.62 10.2
9/25/2021 1:30:00 AM 12.93 55.274 0.05 6.57 9.25 10.19
9/25/2021 1:45:00 AM 12.88 55.184 0.05 6.58 9.42 10.21
9/25/2021 2:00:00 AM 12.83 55.094 0.05 6.57 9.52 10.23
9/25/2021 2:15:00 AM 12.78 55.004 0.05 6.57 9.38 10.25
9/25/2021 2:30:00 AM 12.73 54.914 0.05 6.55 9.13 10.25
9/25/2021 2:45:00 AM 12.69 54.842 0.05 6.52 9.26 10.26
9/25/2021 3:00:00 AM 12.65 54.77 0.05 6.56 9.35 10.26
9/25/2021 3:15:00 AM 12.61 54.698 0.05 6.57 9.18 10.29
9/25/2021 3:30:00 AM 12.57 54.626 0.05 6.56 9.24 10.3
9/25/2021 3:45:00 AM 12.53 54.554 0.05 6.56 9.23 10.3
9/25/2021 4:00:00 AM 12.49 54.482 0.05 6.57 9.05 10.3
9/25/2021 4:15:00 AM 12.45 54.41 0.05 6.59 8.89 10.33
9/25/2021 4:30:00 AM 12.41 54.338 0.05 6.56 8.96 10.31
9/25/2021 4:45:00 AM 12.38 54.284 0.05 6.51 9.03 10.34
9/25/2021 5:00:00 AM 12.34 54.212 0.05 6.54 9.23 10.33
9/25/2021 5:15:00 AM 12.31 54.158 0.05 6.53 8.88 10.33
9/25/2021 5:30:00 AM 12.28 54.104 0.05 6.58 9.1 10.34
9/25/2021 5:45:00 AM 12.25 54.05 0.05 6.51 9.01 10.37
9/25/2021 6:00:00 AM 12.22 53.996 0.05 6.59 8.99 10.35
9/25/2021 6:15:00 AM 12.19 53.942 0.05 6.5 8.9 10.38
9/25/2021 6:30:00 AM 12.16 53.888 0.05 6.59 8.68 10.38
9/25/2021 6:45:00 AM 12.14 53.852 0.05 6.59 8.81 10.4
9/25/2021 7:00:00 AM 12.11 53.798 0.05 6.53 8.93 10.4
9/25/2021 7:15:00 AM 12.09 53.762 0.051 6.57 9.06 10.39
9/25/2021 7:30:00 AM 12.07 53.726 0.051 6.57 8.72 10.39
9/25/2021 7:45:00 AM 12.05 53.69 0.051 6.57 9.06 10.42
9/25/2021 8:00:00 AM 12.04 53.672 0.051 6.51 9.09 10.41
9/25/2021 8:15:00 AM 12.02 53.636 0.051 6.58 8.68 10.42
9/25/2021 8:30:00 AM 12.01 53.618 0.051 6.52 9.01 10.44
9/25/2021 8:45:00 AM 12.01 53.618 0.051 6.55 8.57 10.44
9/25/2021 9:00:00 AM 12.02 53.636 0.051 6.58 8.87 10.46
9/25/2021 9:15:00 AM 12.03 53.654 0.051 6.6 8.7 10.46
9/25/2021 9:30:00 AM 12.04 53.672 0.051 6.58 8.82 10.45
9/25/2021 9:45:00 AM 12.07 53.726 0.051 6.59 8.61 10.48
9/25/2021 10:00:00 AM 12.1 53.78 0.051 6.54 8.63 10.44
9/25/2021 10:15:00 AM 12.15 53.87 0.051 6.58 9.08 10.47
9/25/2021 10:30:00 AM 12.25 54.05 0.051 6.57 8.94 10.47
9/25/2021 10:45:00 AM 12.31 54.158 0.051 6.57 8.96 10.44
9/25/2021 11:00:00 AM 12.39 54.302 0.051 6.59 9.15 10.39
9/25/2021 11:15:00 AM 12.47 54.446 0.051 6.62 8.71 10.41
9/25/2021 11:30:00 AM 12.57 54.626 0.051 6.56 8.63 10.38
9/25/2021 11:45:00 AM 12.67 54.806 0.051 6.61 8.94 10.35
9/25/2021 12:00:00 PM 12.75 54.95 0.051 6.55 8.68 10.34
9/25/2021 12:15:00 PM 12.83 55.094 0.051 6.58 8.8 10.31
9/25/2021 12:30:00 PM 12.92 55.256 0.051 6.62 9.01 10.28
9/25/2021 12:45:00 PM 13.01 55.418 0.051 6.59 8.47 10.27
9/25/2021 1:00:00 PM 13.11 55.598 0.051 6.59 8.88 10.26
9/25/2021 1:15:00 PM 13.18 55.724 0.051 6.63 8.69 10.22
9/25/2021 1:30:00 PM 13.24 55.832 0.051 6.63 8.73 10.22
9/25/2021 1:45:00 PM 13.31 55.958 0.051 6.62 8.42 10.19
9/25/2021 2:00:00 PM 13.38 56.084 0.051 6.62 8.56 10.18
9/25/2021 2:15:00 PM 13.44 56.192 0.051 6.58 8.51 10.14
9/25/2021 2:30:00 PM 13.49 56.282 0.051 6.61 8.44 10.13
9/25/2021 2:45:00 PM 13.53 56.354 0.051 6.58 8.27 10.1
9/25/2021 3:00:00 PM 13.56 56.408 0.051 6.64 8.34 10.11
9/25/2021 3:15:00 PM 13.61 56.498 0.051 6.62 8.45 10.09
9/25/2021 3:30:00 PM 13.65 56.57 0.051 6.61 8.64 10.06
9/25/2021 3:45:00 PM 13.67 56.606 0.051 6.63 8.68 10.07
9/25/2021 4:00:00 PM 13.69 56.642 0.051 6.59 8.97 9.97
9/25/2021 4:15:00 PM 13.7 56.66 0.051 6.64 8.72 10.02
9/25/2021 4:30:00 PM 13.72 56.696 0.051 6.59 8.96 10.05
9/25/2021 4:45:00 PM 13.74 56.732 0.051 6.61 9.05 10.02
9/25/2021 5:00:00 PM 13.76 56.768 0.051 6.61 8.92 10.01
9/25/2021 5:15:00 PM 13.76 56.768 0.051 6.62 9.01 10.01
9/25/2021 5:30:00 PM 13.76 56.768 0.051 6.61 8.95 9.98
9/25/2021 5:45:00 PM 13.76 56.768 0.051 6.57 9.15 9.96
9/25/2021 6:00:00 PM 13.75 56.75 0.051 6.59 8.99 9.95
9/25/2021 6:15:00 PM 13.75 56.75 0.052 6.62 8.97 9.97
9/25/2021 6:30:00 PM 13.74 56.732 0.052 6.56 9.08 9.95
9/25/2021 6:45:00 PM 13.72 56.696 0.052 6.62 9.2 9.96
9/25/2021 7:00:00 PM 13.71 56.678 0.052 6.61 9.06 9.94
9/25/2021 7:15:00 PM 13.7 56.66 0.052 6.6 9.2 9.95
9/25/2021 7:30:00 PM 13.7 56.66 0.052 6.57 9.22 9.93
9/25/2021 7:45:00 PM 13.7 56.66 0.052 6.6 9.17 9.94
9/25/2021 8:00:00 PM 13.7 56.66 0.052 6.59 9.1 9.97
9/25/2021 8:15:00 PM 13.69 56.642 0.052 6.56 9.33 9.95
9/25/2021 8:30:00 PM 13.68 56.624 0.052 6.57 9.33 9.95
9/25/2021 8:45:00 PM 13.68 56.624 0.052 6.56 9.32 9.94
9/25/2021 9:00:00 PM 13.67 56.606 0.052 6.57 9.27 9.93
9/25/2021 9:15:00 PM 13.66 56.588 0.052 6.6 9.22 9.94
9/25/2021 9:30:00 PM 13.66 56.588 0.052 6.54 9.3 9.95
9/25/2021 9:45:00 PM 13.65 56.57 0.052 6.61 9.21 9.91
9/25/2021 10:00:00 PM 13.65 56.57 0.052 6.59 9.3 9.93
9/25/2021 10:15:00 PM 13.64 56.552 0.052 6.58 9.2 9.95
9/25/2021 10:30:00 PM 13.63 56.534 0.052 6.57 9.48 9.95
9/25/2021 10:45:00 PM 13.63 56.534 0.052 6.57 9.41 9.94
9/25/2021 11:00:00 PM 13.62 56.516 0.052 6.59 9.38 9.93
9/25/2021 11:15:00 PM 13.6 56.48 0.052 6.59 9.35 9.94
9/25/2021 11:30:00 PM 13.58 56.444 0.052 6.61 9.4 9.93
9/25/2021 11:45:00 PM 13.56 56.408 0.052 6.6 9.52 9.96
9/26/2021 12:00:00 AM 13.53 56.354 0.052 6.62 9.42 9.98
9/26/2021 12:15:00 AM 13.5 56.3 0.052 6.61 9.41 9.99
9/26/2021 12:30:00 AM 13.46 56.228 0.052 6.57 9.61 9.98
9/26/2021 12:45:00 AM 13.43 56.174 0.052 6.56 9.6 10.02
9/26/2021 1:00:00 AM 13.38 56.084 0.052 6.62 9.57 9.99
9/26/2021 1:15:00 AM 13.34 56.012 0.052 6.6 9.41 10
9/26/2021 1:30:00 AM 13.29 55.922 0.052 6.56 9.44 10.02
9/26/2021 1:45:00 AM 13.25 55.85 0.052 6.61 9.51 10.06
9/26/2021 2:00:00 AM 13.2 55.76 0.052 6.61 9.47 10.06
9/26/2021 2:15:00 AM 13.15 55.67 0.052 6.59 9.67 10.06
9/26/2021 2:30:00 AM 13.1 55.58 0.052 6.58 9.52 10.05
9/26/2021 2:45:00 AM 13.05 55.49 0.052 6.56 9.46 10.07
9/26/2021 3:00:00 AM 13 55.4 0.052 6.57 9.53 10.11
9/26/2021 3:15:00 AM 12.95 55.31 0.052 6.6 9.6 10.11
9/26/2021 3:30:00 AM 12.88 55.184 0.052 6.6 9.56 10.1
9/26/2021 3:45:00 AM 12.83 55.094 0.052 6.54 9.52 10.12
9/26/2021 4:00:00 AM 12.77 54.986 0.052 6.59 9.48 10.11
9/26/2021 4:15:00 AM 12.71 54.878 0.053 6.59 9.64 10.11
9/26/2021 4:30:00 AM 12.67 54.806 0.053 6.6 9.73 10.13
9/26/2021 4:45:00 AM 12.61 54.698 0.053 6.59 9.75 10.17
9/26/2021 5:00:00 AM 12.57 54.626 0.053 6.6 9.55 10.19
9/26/2021 5:15:00 AM 12.53 54.554 0.053 6.54 9.72 10.18
9/26/2021 5:30:00 AM 12.49 54.482 0.053 6.6 9.65 10.2
9/26/2021 5:45:00 AM 12.45 54.41 0.053 6.58 9.58 10.23
9/26/2021 6:00:00 AM 12.41 54.338 0.053 6.58 9.64 10.22
9/26/2021 6:15:00 AM 12.36 54.248 0.053 6.58 9.66 10.24
9/26/2021 6:30:00 AM 12.31 54.158 0.053 6.57 10.03 10.21
9/26/2021 6:45:00 AM 12.26 54.068 0.053 6.53 8.32 10.25
9/26/2021 7:00:00 AM 12.21 53.978 0.053 6.55 8.07 10.27
9/26/2021 7:15:00 AM 12.17 53.906 0.053 6.58 8.23 10.31
9/26/2021 7:30:00 AM 12.13 53.834 0.053 6.6 8.43 10.3
9/26/2021 7:45:00 AM 12.1 53.78 0.053 6.59 8.06 10.34
9/26/2021 8:00:00 AM 12.09 53.762 0.053 6.6 8.14 10.33
9/26/2021 8:15:00 AM 12.08 53.744 0.053 6.58 8.06 10.36
9/26/2021 8:30:00 AM 12.07 53.726 0.053 6.54 8.13 10.34
9/26/2021 8:45:00 AM 12.06 53.708 0.053 6.58 7.92 10.4
9/26/2021 9:00:00 AM 12.05 53.69 0.053 6.57 8.18 10.43
9/26/2021 9:15:00 AM 12.06 53.708 0.053 6.6 8.04 10.4
9/26/2021 9:30:00 AM 12.08 53.744 0.053 6.61 8.12 10.41
9/26/2021 9:45:00 AM 12.14 53.852 0.053 6.62 7.99 10.38
9/26/2021 10:00:00 AM 12.21 53.978 0.053 6.62 8.07 10.39
9/26/2021 10:15:00 AM 12.29 54.122 0.053 6.61 8.05 10.37
9/26/2021 10:30:00 AM 12.38 54.284 0.053 6.59 8.04 10.34
9/26/2021 10:45:00 AM 12.48 54.464 0.053 6.64 7.92 10.35
9/26/2021 11:00:00 AM 12.57 54.626 0.053 6.62 7.83 10.34
9/26/2021 11:15:00 AM 12.66 54.788 0.053 6.58 7.95 10.33
9/26/2021 11:30:00 AM 12.76 54.968 0.053 6.63 7.85 10.27
9/26/2021 11:45:00 AM 12.81 55.058 0.053 6.58 7.99 10.26
9/26/2021 12:00:00 PM 12.84 55.112 0.053 6.63 7.84 10.24
9/26/2021 12:15:00 PM 12.89 55.202 0.053 6.6 7.83 10.22
9/26/2021 12:30:00 PM 12.99 55.382 0.053 6.61 7.85 10.21
9/26/2021 12:45:00 PM 13.1 55.58 0.053 6.63 7.79 10.16
9/26/2021 1:00:00 PM 13.17 55.706 0.053 6.62 7.76 10.21
9/26/2021 1:15:00 PM 13.24 55.832 0.053 6.61 7.71 10.15
9/26/2021 1:30:00 PM 13.32 55.976 0.053 6.63 7.77 10.14
9/26/2021 1:45:00 PM 13.38 56.084 0.053 6.6 7.67 10.14
9/26/2021 2:00:00 PM 13.46 56.228 0.053 6.63 7.72 10.13
9/26/2021 2:15:00 PM 13.49 56.282 0.053 6.6 7.72 10.09
9/26/2021 2:30:00 PM 13.54 56.372 0.053 6.64 7.76 10.1
9/26/2021 2:45:00 PM 13.56 56.408 0.053 6.63 7.83 10.08
9/26/2021 3:00:00 PM 13.58 56.444 0.053 6.64 7.8 10.04
9/26/2021 3:15:00 PM 13.58 56.444 0.053 6.63 7.8 10.01
9/26/2021 3:30:00 PM 13.58 56.444 0.053 6.66 7.79 10.04
9/26/2021 3:45:00 PM 13.59 56.462 0.053 6.65 7.85 10
9/26/2021 4:00:00 PM 13.59 56.462 0.053 6.61 7.95 9.97
9/26/2021 4:15:00 PM 13.62 56.516 0.053 6.62 7.79 10.02
9/26/2021 4:30:00 PM 13.65 56.57 0.053 6.62 7.84 10.02
9/26/2021 4:45:00 PM 13.69 56.642 0.053 6.62 7.83 9.97
9/26/2021 5:00:00 PM 13.71 56.678 0.053 6.65 7.78 9.96
9/26/2021 5:15:00 PM 13.71 56.678 0.053 6.62 7.81 9.99
9/26/2021 5:30:00 PM 13.71 56.678 0.054 6.6 7.75 9.98
9/26/2021 5:45:00 PM 13.7 56.66 0.053 6.63 7.79 9.93
9/26/2021 6:00:00 PM 13.67 56.606 0.054 6.63 7.85 9.95
9/26/2021 6:15:00 PM 13.64 56.552 0.054 6.61 7.81 9.96
9/26/2021 6:30:00 PM 13.62 56.516 0.054 6.57 7.75 9.97
9/26/2021 6:45:00 PM 13.61 56.498 0.054 6.58 7.8 9.95
9/26/2021 7:00:00 PM 13.59 56.462 0.054 6.58 7.69 9.97
9/26/2021 7:15:00 PM 13.57 56.426 0.054 6.58 7.79 9.92
9/26/2021 7:30:00 PM 13.56 56.408 0.054 6.58 7.84 9.92
9/26/2021 7:45:00 PM 13.54 56.372 0.054 6.61 8 9.92
9/26/2021 8:00:00 PM 13.52 56.336 0.054 6.61 7.76 9.91
9/26/2021 8:15:00 PM 13.5 56.3 0.054 6.57 7.7 9.93
9/26/2021 8:30:00 PM 13.47 56.246 0.054 6.6 7.73 9.94
9/26/2021 8:45:00 PM 13.45 56.21 0.054 6.62 7.81 9.98
9/26/2021 9:00:00 PM 13.43 56.174 0.054 6.55 7.75 9.98
9/26/2021 9:15:00 PM 13.41 56.138 0.054 6.61 7.96 9.96
9/26/2021 9:30:00 PM 13.4 56.12 0.054 6.6 7.74 9.99
9/26/2021 9:45:00 PM 13.39 56.102 0.054 6.6 7.72 9.96
9/26/2021 10:00:00 PM 13.36 56.048 0.054 6.59 7.67 9.96
9/26/2021 10:15:00 PM 13.35 56.03 0.054 6.59 7.76 9.98
9/26/2021 10:30:00 PM 13.32 55.976 0.054 6.61 7.61 9.96
9/26/2021 10:45:00 PM 13.29 55.922 0.054 6.6 7.48 9.98
9/26/2021 11:00:00 PM 13.26 55.868 0.054 6.58 7.61 9.99
9/26/2021 11:15:00 PM 13.23 55.814 0.054 6.58 7.68 10
9/26/2021 11:30:00 PM 13.19 55.742 0.054 6.59 7.74 9.97
9/26/2021 11:45:00 PM 13.16 55.688 0.054 6.57 7.7 10.01
9/27/2021 12:00:00 AM 13.12 55.616 0.054 6.62 7.78 10.06
9/27/2021 12:15:00 AM 13.08 55.544 0.054 6.6 7.64 10.01
9/27/2021 12:30:00 AM 13.05 55.49 0.054 6.6 7.66 10.05
9/27/2021 12:45:00 AM 13.01 55.418 0.054 6.56 7.61 10.02
9/27/2021 1:00:00 AM 12.97 55.346 0.054 6.59 7.66 10.08
9/27/2021 1:15:00 AM 12.93 55.274 0.054 6.56 7.7 10.05
9/27/2021 1:30:00 AM 12.89 55.202 0.054 6.57 8.04 10.04
9/27/2021 1:45:00 AM 12.85 55.13 0.054 6.62 7.74 10.06
9/27/2021 2:00:00 AM 12.81 55.058 0.054 6.54 7.8 10.08
9/27/2021 2:15:00 AM 12.77 54.986 0.054 6.61 7.62 10.09
9/27/2021 2:30:00 AM 12.73 54.914 0.054 6.58 7.66 10.09
9/27/2021 2:45:00 AM 12.69 54.842 0.054 6.58 7.67 10.12
9/27/2021 3:00:00 AM 12.65 54.77 0.054 6.58 7.7 10.13
9/27/2021 3:15:00 AM 12.61 54.698 0.054 6.56 7.76 10.12
9/27/2021 3:30:00 AM 12.58 54.644 0.054 6.56 7.78 10.15
9/27/2021 3:45:00 AM 12.56 54.608 0.054 6.61 7.68 10.13
9/27/2021 4:00:00 AM 12.53 54.554 0.054 6.54 7.68 10.13
9/27/2021 4:15:00 AM 12.51 54.518 0.054 6.6 7.66 10.12
9/27/2021 4:30:00 AM 12.5 54.5 0.054 6.56 7.67 10.19
9/27/2021 4:45:00 AM 12.48 54.464 0.054 6.57 7.64 10.14
9/27/2021 5:00:00 AM 12.46 54.428 0.055 6.56 7.64 10.18
9/27/2021 5:15:00 AM 12.45 54.41 0.055 6.59 7.78 10.16
9/27/2021 5:30:00 AM 12.44 54.392 0.055 6.57 7.57 10.17
9/27/2021 5:45:00 AM 12.43 54.374 0.055 6.56 7.58 10.16
9/27/2021 6:00:00 AM 12.42 54.356 0.055 6.58 7.6 10.19
9/27/2021 6:15:00 AM 12.4 54.32 0.055 6.6 7.61 10.18
9/27/2021 6:30:00 AM 12.38 54.284 0.055 6.59 7.55 10.21
9/27/2021 6:45:00 AM 12.37 54.266 0.055 6.6 7.63 10.21
9/27/2021 7:00:00 AM 12.35 54.23 0.055 6.59 7.6 10.21
9/27/2021 7:15:00 AM 12.33 54.194 0.055 6.6 7.59 10.24
9/27/2021 7:30:00 AM 12.32 54.176 0.055 6.59 7.59 10.2
9/27/2021 7:45:00 AM 12.3 54.14 0.055 6.59 7.55 10.24
9/27/2021 8:00:00 AM 12.29 54.122 0.055 6.56 7.56 10.25
9/27/2021 8:15:00 AM 12.28 54.104 0.055 6.62 7.58 10.28
9/27/2021 8:30:00 AM 12.3 54.14 0.055 6.59 7.54 10.26
9/27/2021 8:45:00 AM 12.32 54.176 0.055 6.63 7.63 10.3
9/27/2021 9:00:00 AM 12.35 54.23 0.055 6.6 7.51 10.25
9/27/2021 9:15:00 AM 12.38 54.284 0.055 6.59 7.49 10.27
9/27/2021 9:30:00 AM 12.44 54.392 0.055 6.61 7.46 10.17
9/27/2021 9:45:00 AM 12.53 54.554 0.055 6.6 7.46 10.22
9/27/2021 10:00:00 AM 12.63 54.734 0.055 6.6 7.49 10.26
9/27/2021 10:15:00 AM 12.74 54.932 0.055 6.65 7.53 10.21
9/27/2021 10:30:00 AM 12.83 55.094 0.055 6.64 7.53 10.24
9/27/2021 10:45:00 AM 12.93 55.274 0.055 6.64 7.6 10.17
9/27/2021 11:00:00 AM 13.03 55.454 0.055 6.65 7.62 10.17
9/27/2021 11:15:00 AM 13.14 55.652 0.055 6.66 7.66 10.19
9/27/2021 11:30:00 AM 13.25 55.85 0.055 6.65 7.61 10.17
9/27/2021 11:45:00 AM 13.35 56.03 0.055 6.66 7.54 10.08
9/27/2021 12:00:00 PM 13.46 56.228 0.055 6.66 7.57 10.12
9/27/2021 12:15:00 PM 13.58 56.444 0.055 6.68 7.64 10.04
9/27/2021 12:30:00 PM 13.68 56.624 0.055 6.6 7.6 10.05
9/27/2021 12:45:00 PM 13.77 56.786 0.055 6.66 7.52 10.05
9/27/2021 1:00:00 PM 13.87 56.966 0.055 6.64 7.48 10
9/27/2021 1:15:00 PM 13.98 57.164 0.055 6.71 10.06 9.99
9/27/2021 1:30:00 PM 14.05 57.29 0.055 6.61 7.67 9.91
9/27/2021 1:45:00 PM 14.13 57.434 0.055 6.65 7.7 9.96
9/27/2021 2:00:00 PM 14.2 57.56 0.055 6.67 7.65 9.9
9/27/2021 2:15:00 PM 14.26 57.668 0.055 6.68 7.58 9.88
9/27/2021 2:30:00 PM 14.31 57.758 0.055 6.64 7.58 9.88
9/27/2021 2:45:00 PM 14.34 57.812 0.056 6.67 7.6 9.82
9/27/2021 3:00:00 PM 14.37 57.866 0.056 6.68 7.63 9.83
9/27/2021 3:15:00 PM 14.4 57.92 0.056 6.67 7.66 9.87
9/27/2021 3:30:00 PM 14.42 57.956 0.056 6.68 7.57 9.82
9/27/2021 3:45:00 PM 14.44 57.992 0.056 6.65 7.58 9.78
9/27/2021 4:00:00 PM 14.47 58.046 0.056 6.63 7.68 9.79
9/27/2021 4:15:00 PM 14.49 58.082 0.056 6.68 7.58 9.76
9/27/2021 4:30:00 PM 14.52 58.136 0.056 6.67 7.54 9.78
9/27/2021 4:45:00 PM 14.55 58.19 0.056 6.66 7.53 9.8
9/27/2021 5:00:00 PM 14.57 58.226 0.056 6.67 7.66 9.76
9/27/2021 5:15:00 PM 14.57 58.226 0.056 6.67 7.58 9.78
9/27/2021 5:30:00 PM 14.57 58.226 0.056 6.61 7.58 9.73
9/27/2021 5:45:00 PM 14.56 58.208 0.056 6.66 7.61 9.7
9/27/2021 6:00:00 PM 14.55 58.19 0.056 6.64 7.97 9.66
9/27/2021 6:15:00 PM 14.52 58.136 0.056 6.63 7.55 9.64
9/27/2021 6:30:00 PM 14.49 58.082 0.056 6.6 7.67 9.64
9/27/2021 6:45:00 PM 14.46 58.028 0.056 6.63 7.64 9.65
9/27/2021 7:00:00 PM 14.42 57.956 0.056 6.61 7.62 9.55
9/27/2021 7:15:00 PM 14.39 57.902 0.056 6.63 7.65 9.46
9/27/2021 7:30:00 PM 14.36 57.848 0.056 6.57 7.57 9.62
9/27/2021 7:45:00 PM 14.33 57.794 0.056 6.6 7.58 9.62
9/27/2021 8:00:00 PM 14.3 57.74 0.056 6.58 7.75 9.58
9/27/2021 8:15:00 PM 14.27 57.686 0.056 6.61 7.6 9.58
9/27/2021 8:30:00 PM 14.24 57.632 0.056 6.57 7.56 9.59
9/27/2021 8:45:00 PM 14.22 57.596 0.056 6.58 7.68 9.57
9/27/2021 9:00:00 PM 14.2 57.56 0.056 6.6 7.66 9.59
9/27/2021 9:15:00 PM 14.17 57.506 0.056 6.59 7.56 9.59
9/27/2021 9:30:00 PM 14.15 57.47 0.056 6.6 7.65 9.62
9/27/2021 9:45:00 PM 14.13 57.434 0.056 6.6 7.54 9.7
9/27/2021 10:00:00 PM 14.11 57.398 0.056 6.58 7.63 9.69
9/27/2021 10:15:00 PM 14.09 57.362 0.056 6.6 7.59 9.66
9/27/2021 10:30:00 PM 14.07 57.326 0.056 6.59 7.57 9.64
9/27/2021 10:45:00 PM 14.05 57.29 0.056 6.64 7.59 9.63
9/27/2021 11:00:00 PM 14.03 57.254 0.056 6.61 7.55 9.6
9/27/2021 11:15:00 PM 14 57.2 0.056 6.61 7.52 9.64
9/27/2021 11:30:00 PM 13.98 57.164 0.056 6.61 7.57 9.58
9/27/2021 11:45:00 PM 13.96 57.128 0.056 6.61 7.46 9.67
9/28/2021 12:00:00 AM 13.94 57.092 0.056 6.6 7.58 9.57
9/28/2021 12:15:00 AM 13.92 57.056 0.056 6.62 7.52 9.58
9/28/2021 12:30:00 AM 13.9 57.02 0.056 6.56 7.45 9.58
9/28/2021 12:45:00 AM 13.88 56.984 0.056 6.61 7.54 9.64
9/28/2021 1:00:00 AM 13.87 56.966 0.056 6.57 7.49 9.62
9/28/2021 1:15:00 AM 13.85 56.93 0.056 6.58 7.51 9.68
9/28/2021 1:30:00 AM 13.84 56.912 0.056 6.57 7.51 9.63
9/28/2021 1:45:00 AM 13.83 56.894 0.057 6.62 7.42 9.59
9/28/2021 2:00:00 AM 13.82 56.876 0.056 6.61 7.5 9.62
9/28/2021 2:15:00 AM 13.81 56.858 0.057 6.6 7.43 9.5
9/28/2021 2:30:00 AM 13.8 56.84 0.057 6.6 7.65 9.77
9/28/2021 2:45:00 AM 13.79 56.822 0.057 6.6 7.36 9.78
9/28/2021 3:00:00 AM 13.78 56.804 0.057 6.59 7.43 9.68
9/28/2021 3:15:00 AM 13.77 56.786 0.057 6.57 7.61 9.75
9/28/2021 3:30:00 AM 13.76 56.768 0.057 6.57 7.45 9.69
9/28/2021 3:45:00 AM 13.75 56.75 0.057 6.6 7.4 9.59
9/28/2021 4:00:00 AM 13.74 56.732 0.057 6.56 7.38 9.62
9/28/2021 4:15:00 AM 13.72 56.696 0.057 6.6 7.39 9.78
9/28/2021 4:30:00 AM 13.72 56.696 0.057 6.59 7.41 9.71
9/28/2021 4:45:00 AM 13.7 56.66 0.057 6.6 7.42 9.56
9/28/2021 5:00:00 AM 13.7 56.66 0.058 6.53 7.42 9.69
9/28/2021 5:15:00 AM 13.69 56.642 0.058 6.6 7.5 9.66
9/28/2021 5:30:00 AM 13.68 56.624 0.058 6.59 7.34 9.7
9/28/2021 5:45:00 AM 13.67 56.606 0.058 6.58 7.29 9.7
9/28/2021 6:00:00 AM 13.65 56.57 0.058 6.59 7.42 9.58
9/28/2021 6:15:00 AM 13.64 56.552 0.058 6.59 7.46 9.6
9/28/2021 6:30:00 AM 13.63 56.534 0.059 6.59 7.41 9.65
9/28/2021 6:45:00 AM 13.63 56.534 0.059 6.58 7.47 9.76
9/28/2021 7:00:00 AM 13.63 56.534 0.059 6.59 7.42 9.8
9/28/2021 7:15:00 AM 13.63 56.534 0.059 6.59 7.43 9.64
9/28/2021 7:30:00 AM 13.64 56.552 0.059 6.53 7.42 9.69
9/28/2021 7:45:00 AM 13.64 56.552 0.059 6.55 7.42 9.74
9/28/2021 8:00:00 AM 13.65 56.57 0.059 6.6 7.36 9.76
9/28/2021 8:15:00 AM 13.66 56.588 0.059 6.59 7.33 9.79
9/28/2021 8:30:00 AM 13.67 56.606 0.059 6.54 7.34 9.73
9/28/2021 8:45:00 AM 13.68 56.624 0.059 6.6 7.31 9.75
9/28/2021 9:00:00 AM 13.69 56.642 0.059 6.59 7.57 9.76
9/28/2021 9:15:00 AM 13.7 56.66 0.059 6.57 7.4 9.68
9/28/2021 9:30:00 AM 13.71 56.678 0.059 6.57 7.37 9.76
9/28/2021 9:45:00 AM 13.73 56.714 0.059 6.57 7.36 9.77
9/28/2021 10:00:00 AM 13.74 56.732 0.059 6.54 7.3 9.77
9/28/2021 10:15:00 AM 13.75 56.75 0.059 6.58 7.37 9.65
9/28/2021 10:30:00 AM 13.77 56.786 0.06 6.55 7.55 9.8
9/28/2021 10:45:00 AM 13.78 56.804 0.059 6.59 7.33 9.77
9/28/2021 11:00:00 AM 13.81 56.858 0.059 6.54 7.38 9.83
9/28/2021 11:15:00 AM 13.87 56.966 0.059 6.61 7.48 9.9
9/28/2021 11:30:00 AM 13.96 57.128 0.059 6.58 7.33 9.89
9/28/2021 11:45:00 AM 14 57.2 0.059 6.63 7.33 9.82
9/28/2021 12:00:00 PM 14.03 57.254 0.059 6.64 7.34 9.89
9/28/2021 12:15:00 PM 14.08 57.344 0.059 6.64 7.3 9.85
9/28/2021 12:30:00 PM 14.28 57.704 0.059 6.67 7.2 9.87
9/28/2021 12:45:00 PM 14.36 57.848 0.06 6.66 7.27 9.8
9/28/2021 1:00:00 PM 14.45 58.01 0.059 6.68 7.26 9.82
9/28/2021 1:15:00 PM 14.55 58.19 0.06 6.7 7.2 9.8
9/28/2021 1:30:00 PM 14.7 58.46 0.06 6.71 7.24 9.81
9/28/2021 1:45:00 PM 14.86 58.748 0.06 6.7 7.2 9.79
9/28/2021 2:00:00 PM 14.76 58.568 0.06 6.66 7.24 9.73
9/28/2021 2:15:00 PM 14.82 58.676 0.06 6.71 7.23 9.68
9/28/2021 2:30:00 PM 14.83 58.694 0.06 6.65 7.37 9.71
9/28/2021 2:45:00 PM 14.92 58.856 0.06 6.68 7.18 9.7
9/28/2021 3:00:00 PM 14.92 58.856 0.06 6.71 7.27 9.62
9/28/2021 3:15:00 PM 14.92 58.856 0.06 6.7 8.08 9.66
9/28/2021 3:30:00 PM 14.92 58.856 0.06 6.72 8.07 9.71
9/28/2021 3:45:00 PM 14.9 58.82 0.06 6.69 8.08 9.63
9/28/2021 4:00:00 PM 14.87 58.766 0.06 6.65 8.03 9.56
9/28/2021 4:15:00 PM 14.87 58.766 0.06 6.67 8.04 9.61
9/28/2021 4:30:00 PM 14.85 58.73 0.06 6.66 8.11 9.58
9/28/2021 4:45:00 PM 14.83 58.694 0.059 6.7 8.06 9.61
9/28/2021 5:00:00 PM 14.82 58.676 0.06 6.67 8.07 9.57
9/28/2021 5:15:00 PM 14.82 58.676 0.06 6.68 8.11 9.44
9/28/2021 5:30:00 PM 14.8 58.64 0.06 6.67 8.03 9.5
9/28/2021 5:45:00 PM 14.77 58.586 0.06 6.66 8.06 9.54
9/28/2021 6:00:00 PM 14.74 58.532 0.06 6.66 8.07 9.44
9/28/2021 6:15:00 PM 14.7 58.46 0.06 6.68 8.03 9.56
9/28/2021 6:30:00 PM 14.64 58.352 0.06 6.66 8.17 9.54
9/28/2021 6:45:00 PM 14.59 58.262 0.06 6.66 8.09 9.46
9/28/2021 7:00:00 PM 14.53 58.154 0.06 6.65 8.04 9.42
9/28/2021 7:15:00 PM 14.47 58.046 0.06 6.65 8.11 9.53
9/28/2021 7:30:00 PM 14.42 57.956 0.06 6.64 8.16 9.53
9/28/2021 7:45:00 PM 14.36 57.848 0.06 6.64 7.99 9.6
9/28/2021 8:00:00 PM 14.3 57.74 0.06 6.66 8.11 9.51
9/28/2021 8:15:00 PM 14.23 57.614 0.06 6.64 8.08 9.56
9/28/2021 8:30:00 PM 14.17 57.506 0.06 6.59 8.1 9.51
9/28/2021 8:45:00 PM 14.11 57.398 0.061 6.62 8.13 9.62
9/28/2021 9:00:00 PM 14.05 57.29 0.061 6.6 8.13 9.55
9/28/2021 9:15:00 PM 13.99 57.182 0.061 6.63 8.11 9.7
9/28/2021 9:30:00 PM 13.92 57.056 0.061 6.64 7.01 9.69
9/28/2021 9:45:00 PM 13.86 56.948 0.061 6.63 7.08 9.75
9/28/2021 10:00:00 PM 13.81 56.858 0.06 6.63 6.99 9.6
9/28/2021 10:15:00 PM 13.75 56.75 0.06 6.59 7.08 9.67
9/28/2021 10:30:00 PM 13.7 56.66 0.061 6.62 7.01 9.62
9/28/2021 10:45:00 PM 13.65 56.57 0.06 6.6 7.08 9.72
9/28/2021 11:00:00 PM 13.6 56.48 0.06 6.64 7.03 9.67
9/28/2021 11:15:00 PM 13.56 56.408 0.06 6.62 7.04 9.84
9/28/2021 11:30:00 PM 13.52 56.336 0.06 6.65 7.04 9.81
9/28/2021 11:45:00 PM 13.48 56.264 0.06 6.64 6.16 9.84
9/29/2021 12:00:00 AM 13.43 56.174 0.06 6.62 6.07 9.79
9/29/2021 12:15:00 AM 13.4 56.12 0.06 6.59 6.06 9.77
9/29/2021 12:30:00 AM 13.36 56.048 0.06 6.64 6.18 9.81
9/29/2021 12:45:00 AM 13.32 55.976 0.06 6.63 6.08 9.79
9/29/2021 1:00:00 AM 13.29 55.922 0.06 6.63 6.06 9.76
9/29/2021 1:15:00 AM 13.25 55.85 0.06 6.64 6.06 9.9
9/29/2021 1:30:00 AM 13.21 55.778 0.06 6.64 6.08 9.92
9/29/2021 1:45:00 AM 13.16 55.688 0.06 6.63 6.14 9.86
9/29/2021 2:00:00 AM 13.13 55.634 0.06 6.63 6.11 9.87
9/29/2021 2:15:00 AM 13.08 55.544 0.06 6.63 6.17 9.89
9/29/2021 2:30:00 AM 13.03 55.454 0.06 6.63 6.1 9.96
9/29/2021 2:45:00 AM 13 55.4 0.06 6.61 6.06 9.85
9/29/2021 3:00:00 AM 12.96 55.328 0.06 6.6 6.12 9.92
9/29/2021 3:15:00 AM 12.91 55.238 0.06 6.62 6.24 9.94
9/29/2021 3:30:00 AM 12.86 55.148 0.06 6.61 6.04 9.89
9/29/2021 3:45:00 AM 12.82 55.076 0.06 6.63 6.08 9.86
9/29/2021 4:00:00 AM 12.79 55.022 0.06 6.64 6.09 10
9/29/2021 4:15:00 AM 12.75 54.95 0.06 6.62 6.07 9.89
9/29/2021 4:30:00 AM 12.71 54.878 0.06 6.63 6.05 9.91
9/29/2021 4:45:00 AM 12.67 54.806 0.06 6.63 5.99 10.04
9/29/2021 5:00:00 AM 12.63 54.734 0.06 6.64 6.01 9.99
9/29/2021 5:15:00 AM 12.59 54.662 0.06 6.57 6.14 9.93
9/29/2021 5:30:00 AM 12.55 54.59 0.06 6.6 6.04 10.07
9/29/2021 5:45:00 AM 12.51 54.518 0.061 6.63 6.11 9.96
9/29/2021 6:00:00 AM 12.48 54.464 0.061 6.62 6.01 9.96
9/29/2021 6:15:00 AM 12.44 54.392 0.061 6.58 6.04 10.02
9/29/2021 6:30:00 AM 12.4 54.32 0.061 6.64 6.09 10.09
9/29/2021 6:45:00 AM 12.35 54.23 0.061 6.6 6.05 10.09
9/29/2021 7:00:00 AM 12.31 54.158 0.06 6.6 6.08 10.05
9/29/2021 7:15:00 AM 12.28 54.104 0.06 6.64 6.04 10.09
9/29/2021 7:30:00 AM 12.25 54.05 0.06 6.63 6.01 10.14
9/29/2021 7:45:00 AM 12.23 54.014 0.06 6.64 6 10.16
9/29/2021 8:00:00 AM 12.2 53.96 0.06 6.63 5.99 10.17
9/29/2021 8:15:00 AM 12.18 53.924 0.06 6.65 6.21 10.17
9/29/2021 8:30:00 AM 12.15 53.87 0.06 6.64 5.98 10.21
9/29/2021 8:45:00 AM 12.13 53.834 0.06 6.65 5.98 10.15
9/29/2021 9:00:00 AM 12.15 53.87 0.06 6.66 6.01 10.29
9/29/2021 9:15:00 AM 12.19 53.942 0.06 6.61 5.92 10.3
9/29/2021 9:30:00 AM 12.22 53.996 0.06 6.66 5.98 10.26
9/29/2021 9:45:00 AM 12.28 54.104 0.06 6.63 5.96 10.22
9/29/2021 10:00:00 AM 12.39 54.302 0.06 6.66 5.96 10.28
9/29/2021 10:15:00 AM 12.5 54.5 0.06 6.68 5.95 10.33
9/29/2021 10:30:00 AM 12.61 54.698 0.06 6.63 5.99 10.25
9/29/2021 10:45:00 AM 12.72 54.896 0.06 6.67 5.98 10.26
9/29/2021 11:00:00 AM 12.83 55.094 0.06 6.68 5.95 10.26
9/29/2021 11:15:00 AM 12.94 55.292 0.06 6.65 5.91 10.25
9/29/2021 11:30:00 AM 13.04 55.472 0.06 6.66 5.91 10.25
9/29/2021 11:45:00 AM 13.16 55.688 0.06 6.67 5.87 10.17
9/29/2021 12:00:00 PM 13.19 55.742 0.06 6.67 5.91 10.15
9/29/2021 12:15:00 PM 13.34 56.012 0.06 6.71 5.88 10.15
9/29/2021 12:30:00 PM 13.43 56.174 0.06 6.7 5.87 10.12
9/29/2021 12:45:00 PM 13.53 56.354 0.06 6.69 5.84 10.09
9/29/2021 1:00:00 PM 13.6 56.48 0.06 6.7 5.89 10.12
9/29/2021 1:15:00 PM 13.65 56.57 0.06 6.67 5.85 9.97
9/29/2021 1:30:00 PM 13.72 56.696 0.06 6.67 5.82 10.01
9/29/2021 1:45:00 PM 13.81 56.858 0.06 6.71 5.86 9.99
9/29/2021 2:00:00 PM 13.92 57.056 0.06 6.71 5.77 9.93
9/29/2021 2:15:00 PM 13.94 57.092 0.06 6.73 5.82 9.99
9/29/2021 2:30:00 PM 13.98 57.164 0.06 6.66 5.92 9.81
9/29/2021 2:45:00 PM 13.94 57.092 0.06 6.72 5.85 10.02
9/29/2021 3:00:00 PM 13.91 57.038 0.061 6.71 5.87 9.95
9/29/2021 3:15:00 PM 13.84 56.912 0.061 6.7 5.84 9.93
9/29/2021 3:30:00 PM 13.82 56.876 0.061 6.71 5.81 9.87
9/29/2021 3:45:00 PM 13.77 56.786 0.061 6.66 5.88 9.82
9/29/2021 4:00:00 PM 13.77 56.786 0.061 6.68 5.85 9.91
9/29/2021 4:15:00 PM 13.76 56.768 0.061 6.71 5.85 9.94
9/29/2021 4:30:00 PM 13.74 56.732 0.061 6.69 5.8 9.9
9/29/2021 4:45:00 PM 13.72 56.696 0.061 6.69 5.85 9.86
9/29/2021 5:00:00 PM 13.71 56.678 0.061 6.69 5.81 9.83
9/29/2021 5:15:00 PM 13.7 56.66 0.061 6.7 5.9 9.92
9/29/2021 5:30:00 PM 13.69 56.642 0.061 6.68 5.82 9.92
9/29/2021 5:45:00 PM 13.67 56.606 0.061 6.65 5.9 9.88
9/29/2021 6:00:00 PM 13.63 56.534 0.061 6.66 5.87 9.76
9/29/2021 6:15:00 PM 13.61 56.498 0.061 6.69 5.86 9.77
9/29/2021 6:30:00 PM 13.57 56.426 0.061 6.67 5.84 9.79
9/29/2021 6:45:00 PM 13.53 56.354 0.061 6.69 5.9 9.77
9/29/2021 7:00:00 PM 13.49 56.282 0.061 6.66 5.94 9.79
9/29/2021 7:15:00 PM 13.45 56.21 0.061 6.66 5.96 9.84
9/29/2021 7:30:00 PM 13.4 56.12 0.061 6.64 5.89 9.8
9/29/2021 7:45:00 PM 13.35 56.03 0.061 6.67 5.94 9.85
9/29/2021 8:00:00 PM 13.3 55.94 0.061 6.64 5.92 9.9
9/29/2021 8:15:00 PM 13.25 55.85 0.061 6.66 6.01 9.87
9/29/2021 8:30:00 PM 13.19 55.742 0.061 6.66 5.97 9.91
9/29/2021 8:45:00 PM 13.14 55.652 0.061 6.66 5.92 9.85
9/29/2021 9:00:00 PM 13.08 55.544 0.061 6.66 5.94 9.88
9/29/2021 9:15:00 PM 13.03 55.454 0.061 6.65 5.94 9.92
9/29/2021 9:30:00 PM 12.97 55.346 0.061 6.64 6.1 9.93
9/29/2021 9:45:00 PM 12.91 55.238 0.061 6.62 5.95 9.97
9/29/2021 10:00:00 PM 12.86 55.148 0.061 6.64 5.9 9.89
9/29/2021 10:15:00 PM 12.8 55.04 0.061 6.65 5.91 9.95
9/29/2021 10:30:00 PM 12.75 54.95 0.061 6.65 5.95 9.96
9/29/2021 10:45:00 PM 12.7 54.86 0.061 6.65 5.93 9.91
9/29/2021 11:00:00 PM 12.64 54.752 0.061 6.62 6.02 10
9/29/2021 11:15:00 PM 12.59 54.662 0.061 6.65 5.95 10.04
9/29/2021 11:30:00 PM 12.54 54.572 0.061 6.64 6 10.06
9/29/2021 11:45:00 PM 12.49 54.482 0.061 6.63 6.02 10.07
9/30/2021 12:00:00 AM 12.43 54.374 0.061 6.62 5.94 10.03
9/30/2021 12:15:00 AM 12.38 54.284 0.061 6.64 5.95 10.07
9/30/2021 12:30:00 AM 12.33 54.194 0.061 6.65 5.99 10.11
9/30/2021 12:45:00 AM 12.28 54.104 0.061 6.66 6.03 10.09
9/30/2021 1:00:00 AM 12.24 54.032 0.061 6.66 5.94 10.06
9/30/2021 1:15:00 AM 12.2 53.96 0.061 6.61 5.99 10.19
9/30/2021 1:30:00 AM 12.17 53.906 0.061 6.64 5.93 10.1
9/30/2021 1:45:00 AM 12.11 53.798 0.061 6.65 6.08 10.12
9/30/2021 2:00:00 AM 12.06 53.708 0.061 6.65 5.97 10.18
9/30/2021 2:15:00 AM 12.01 53.618 0.061 6.65 5.94 10.2
9/30/2021 2:30:00 AM 11.97 53.546 0.062 6.64 6 10.19
9/30/2021 2:45:00 AM 11.92 53.456 0.061 6.65 6.04 10.24
9/30/2021 3:00:00 AM 11.88 53.384 0.062 6.64 6.01 10.31
9/30/2021 3:15:00 AM 11.84 53.312 0.062 6.63 5.98 10.25
9/30/2021 3:30:00 AM 11.8 53.24 0.061 6.64 6.03 10.3
9/30/2021 3:45:00 AM 11.75 53.15 0.062 6.66 5.96 10.17
9/30/2021 4:00:00 AM 11.7 53.06 0.062 6.6 6.01 10.28
9/30/2021 4:15:00 AM 11.64 52.952 0.062 6.62 6 10.32
9/30/2021 4:30:00 AM 11.59 52.862 0.062 6.65 5.98 10.3
9/30/2021 4:45:00 AM 11.55 52.79 0.062 6.65 6.03 10.27
9/30/2021 5:00:00 AM 11.51 52.718 0.062 6.64 6 10.31
9/30/2021 5:15:00 AM 11.47 52.646 0.062 6.64 6.01 10.34
9/30/2021 5:30:00 AM 11.43 52.574 0.062 6.64 5.99 10.32
9/30/2021 5:45:00 AM 11.4 52.52 0.062 6.62 6 10.35
9/30/2021 6:00:00 AM 11.37 52.466 0.062 6.64 6.04 10.4
9/30/2021 6:15:00 AM 11.34 52.412 0.062 6.6 6.08 10.35
9/30/2021 6:30:00 AM 11.32 52.376 0.062 6.64 6.01 10.37
9/30/2021 6:45:00 AM 11.3 52.34 0.062 6.65 6.01 10.42
9/30/2021 7:00:00 AM 11.27 52.286 0.062 6.64 5.96 10.38
9/30/2021 7:15:00 AM 11.25 52.25 0.062 6.64 6.18 10.47
9/30/2021 7:30:00 AM 11.23 52.214 0.062 6.66 6 10.48
9/30/2021 7:45:00 AM 11.22 52.196 0.061 6.66 6.11 10.4
9/30/2021 8:00:00 AM 11.21 52.178 0.062 6.65 7.15 10.43
9/30/2021 8:15:00 AM 11.2 52.16 0.062 6.65 5.99 10.44
9/30/2021 8:30:00 AM 11.2 52.16 0.061 6.66 6.06 10.42
9/30/2021 8:45:00 AM 11.23 52.214 0.061 6.68 6.08 10.51
9/30/2021 9:00:00 AM 11.29 52.322 0.061 6.68 5.99 10.56
9/30/2021 9:15:00 AM 11.32 52.376 0.061 6.68 6.02 10.51
9/30/2021 9:30:00 AM 11.33 52.394 0.061 6.67 6.86 10.62
9/30/2021 9:45:00 AM 11.36 52.448 0.061 6.67 6.12 10.62
9/30/2021 10:00:00 AM 11.4 52.52 0.061 6.7 5.99 10.58
9/30/2021 10:15:00 AM